<?xml version="1.0" encoding="UTF-8" standalone="no" ?>
<gpx xmlns="http://www.topografix.com/GPX/1/1" xmlns:xsi="http://www.w3.org/2001/XMLSchema-instance" xsi:schemaLocation="http://www.topografix.com/GPX/1/1 http://www.topografix.com/GPX/1/1/gpx.xsd" version="1.1" creator="VisuGPX - https://www.visugpx.com">
  <metadata>
    <name>Boucle Adour</name>
    <desc><![CDATA[En longeant le bord de l'Adour sur chacune de ses rives.

]]></desc>
  </metadata>
  <trk>
    <name><![CDATA[24 juil. 2020 à 07:14:15]]></name>
    <cmt><![CDATA[24 juil. 2020 à 07:14:15]]></cmt>
    <trkseg>
      <trkpt lat="43.23395" lon="0.08159">
        <ele>301</ele>
        <time>2020-07-24T05:14:16Z</time>
      </trkpt>
      <trkpt lat="43.23397" lon="0.0818">
        <ele>302</ele>
        <time>2020-07-24T05:14:47Z</time>
      </trkpt>
      <trkpt lat="43.23395" lon="0.08189">
        <ele>301</ele>
        <time>2020-07-24T05:14:53Z</time>
      </trkpt>
      <trkpt lat="43.23391" lon="0.08195">
        <ele>301</ele>
        <time>2020-07-24T05:14:59Z</time>
      </trkpt>
      <trkpt lat="43.23399" lon="0.08204">
        <ele>301</ele>
        <time>2020-07-24T05:15:10Z</time>
      </trkpt>
      <trkpt lat="43.23403" lon="0.0821">
        <ele>301</ele>
        <time>2020-07-24T05:15:13Z</time>
      </trkpt>
      <trkpt lat="43.23407" lon="0.08213">
        <ele>301</ele>
        <time>2020-07-24T05:15:17Z</time>
      </trkpt>
      <trkpt lat="43.2341" lon="0.0822">
        <ele>301</ele>
        <time>2020-07-24T05:15:22Z</time>
      </trkpt>
      <trkpt lat="43.23411" lon="0.08226">
        <ele>301</ele>
        <time>2020-07-24T05:15:26Z</time>
      </trkpt>
      <trkpt lat="43.23416" lon="0.0824">
        <ele>301</ele>
        <time>2020-07-24T05:15:33Z</time>
      </trkpt>
      <trkpt lat="43.23422" lon="0.08242">
        <ele>301</ele>
        <time>2020-07-24T05:15:37Z</time>
      </trkpt>
      <trkpt lat="43.23426" lon="0.08248">
        <ele>301</ele>
        <time>2020-07-24T05:15:43Z</time>
      </trkpt>
      <trkpt lat="43.23428" lon="0.08255">
        <ele>301</ele>
        <time>2020-07-24T05:15:47Z</time>
      </trkpt>
      <trkpt lat="43.23427" lon="0.08262">
        <ele>301</ele>
        <time>2020-07-24T05:15:51Z</time>
      </trkpt>
      <trkpt lat="43.2343" lon="0.08277">
        <ele>301</ele>
        <time>2020-07-24T05:16:02Z</time>
      </trkpt>
      <trkpt lat="43.23435" lon="0.08285">
        <ele>301</ele>
        <time>2020-07-24T05:16:05Z</time>
      </trkpt>
      <trkpt lat="43.23434" lon="0.08293">
        <ele>301</ele>
        <time>2020-07-24T05:16:09Z</time>
      </trkpt>
      <trkpt lat="43.2343" lon="0.083">
        <ele>301</ele>
        <time>2020-07-24T05:16:14Z</time>
      </trkpt>
      <trkpt lat="43.23426" lon="0.08311">
        <ele>302</ele>
        <time>2020-07-24T05:16:19Z</time>
      </trkpt>
      <trkpt lat="43.23429" lon="0.08332">
        <ele>301</ele>
        <time>2020-07-24T05:16:28Z</time>
      </trkpt>
      <trkpt lat="43.23428" lon="0.08343">
        <ele>302</ele>
        <time>2020-07-24T05:16:32Z</time>
      </trkpt>
      <trkpt lat="43.23424" lon="0.08361">
        <ele>301</ele>
        <time>2020-07-24T05:16:44Z</time>
      </trkpt>
      <trkpt lat="43.23426" lon="0.08372">
        <ele>302</ele>
        <time>2020-07-24T05:16:48Z</time>
      </trkpt>
      <trkpt lat="43.23429" lon="0.0838">
        <ele>302</ele>
        <time>2020-07-24T05:16:52Z</time>
      </trkpt>
      <trkpt lat="43.23435" lon="0.08384">
        <ele>302</ele>
        <time>2020-07-24T05:16:56Z</time>
      </trkpt>
      <trkpt lat="43.23434" lon="0.08394">
        <ele>302</ele>
        <time>2020-07-24T05:17:05Z</time>
      </trkpt>
      <trkpt lat="43.23434" lon="0.08401">
        <ele>302</ele>
        <time>2020-07-24T05:17:09Z</time>
      </trkpt>
      <trkpt lat="43.23436" lon="0.08406">
        <ele>302</ele>
        <time>2020-07-24T05:17:11Z</time>
      </trkpt>
      <trkpt lat="43.23442" lon="0.08416">
        <ele>302</ele>
        <time>2020-07-24T05:17:16Z</time>
      </trkpt>
      <trkpt lat="43.23444" lon="0.08422">
        <ele>302</ele>
        <time>2020-07-24T05:17:19Z</time>
      </trkpt>
      <trkpt lat="43.23456" lon="0.08436">
        <ele>302</ele>
        <time>2020-07-24T05:17:29Z</time>
      </trkpt>
      <trkpt lat="43.2347" lon="0.08448">
        <ele>302</ele>
        <time>2020-07-24T05:17:40Z</time>
      </trkpt>
      <trkpt lat="43.23475" lon="0.08454">
        <ele>302</ele>
        <time>2020-07-24T05:17:44Z</time>
      </trkpt>
      <trkpt lat="43.23481" lon="0.08456">
        <ele>302</ele>
        <time>2020-07-24T05:17:48Z</time>
      </trkpt>
      <trkpt lat="43.235" lon="0.08475">
        <ele>302</ele>
        <time>2020-07-24T05:18:05Z</time>
      </trkpt>
      <trkpt lat="43.23503" lon="0.08484">
        <ele>301</ele>
        <time>2020-07-24T05:18:09Z</time>
      </trkpt>
      <trkpt lat="43.23503" lon="0.08492">
        <ele>301</ele>
        <time>2020-07-24T05:18:12Z</time>
      </trkpt>
      <trkpt lat="43.23503" lon="0.08498">
        <ele>301</ele>
        <time>2020-07-24T05:18:15Z</time>
      </trkpt>
      <trkpt lat="43.23511" lon="0.08509">
        <ele>301</ele>
        <time>2020-07-24T05:18:25Z</time>
      </trkpt>
      <trkpt lat="43.2351" lon="0.08518">
        <ele>301</ele>
        <time>2020-07-24T05:18:28Z</time>
      </trkpt>
      <trkpt lat="43.23508" lon="0.08524">
        <ele>301</ele>
        <time>2020-07-24T05:18:30Z</time>
      </trkpt>
      <trkpt lat="43.2351" lon="0.08532">
        <ele>301</ele>
        <time>2020-07-24T05:18:33Z</time>
      </trkpt>
      <trkpt lat="43.2352" lon="0.08554">
        <ele>301</ele>
        <time>2020-07-24T05:18:48Z</time>
      </trkpt>
      <trkpt lat="43.23525" lon="0.0856">
        <ele>301</ele>
        <time>2020-07-24T05:18:51Z</time>
      </trkpt>
      <trkpt lat="43.23531" lon="0.0856">
        <ele>301</ele>
        <time>2020-07-24T05:18:54Z</time>
      </trkpt>
      <trkpt lat="43.23535" lon="0.08558">
        <ele>301</ele>
        <time>2020-07-24T05:18:56Z</time>
      </trkpt>
      <trkpt lat="43.2354" lon="0.08559">
        <ele>301</ele>
        <time>2020-07-24T05:18:59Z</time>
      </trkpt>
      <trkpt lat="43.23545" lon="0.08571">
        <ele>301</ele>
        <time>2020-07-24T05:19:08Z</time>
      </trkpt>
      <trkpt lat="43.2355" lon="0.08575">
        <ele>301</ele>
        <time>2020-07-24T05:19:11Z</time>
      </trkpt>
      <trkpt lat="43.23555" lon="0.08576">
        <ele>301</ele>
        <time>2020-07-24T05:19:14Z</time>
      </trkpt>
      <trkpt lat="43.23559" lon="0.08572">
        <ele>301</ele>
        <time>2020-07-24T05:19:16Z</time>
      </trkpt>
      <trkpt lat="43.23569" lon="0.08569">
        <ele>301</ele>
        <time>2020-07-24T05:19:23Z</time>
      </trkpt>
      <trkpt lat="43.23573" lon="0.08574">
        <ele>301</ele>
        <time>2020-07-24T05:19:31Z</time>
      </trkpt>
      <trkpt lat="43.23582" lon="0.08573">
        <ele>301</ele>
        <time>2020-07-24T05:19:49Z</time>
      </trkpt>
      <trkpt lat="43.23581" lon="0.08566">
        <ele>301</ele>
        <time>2020-07-24T05:19:53Z</time>
      </trkpt>
      <trkpt lat="43.23582" lon="0.0856">
        <ele>301</ele>
        <time>2020-07-24T05:19:58Z</time>
      </trkpt>
      <trkpt lat="43.23593" lon="0.08544">
        <ele>301</ele>
        <time>2020-07-24T05:20:12Z</time>
      </trkpt>
      <trkpt lat="43.23598" lon="0.08543">
        <ele>301</ele>
        <time>2020-07-24T05:20:16Z</time>
      </trkpt>
      <trkpt lat="43.23602" lon="0.08538">
        <ele>302</ele>
        <time>2020-07-24T05:20:20Z</time>
      </trkpt>
      <trkpt lat="43.23604" lon="0.0853">
        <ele>302</ele>
        <time>2020-07-24T05:20:24Z</time>
      </trkpt>
      <trkpt lat="43.23609" lon="0.08524">
        <ele>302</ele>
        <time>2020-07-24T05:20:31Z</time>
      </trkpt>
      <trkpt lat="43.23614" lon="0.08521">
        <ele>302</ele>
        <time>2020-07-24T05:20:36Z</time>
      </trkpt>
      <trkpt lat="43.2362" lon="0.08519">
        <ele>302</ele>
        <time>2020-07-24T05:20:42Z</time>
      </trkpt>
      <trkpt lat="43.23643" lon="0.085">
        <ele>302</ele>
        <time>2020-07-24T05:21:01Z</time>
      </trkpt>
      <trkpt lat="43.23655" lon="0.08481">
        <ele>302</ele>
        <time>2020-07-24T05:21:10Z</time>
      </trkpt>
      <trkpt lat="43.23656" lon="0.08473">
        <ele>302</ele>
        <time>2020-07-24T05:21:14Z</time>
      </trkpt>
      <trkpt lat="43.2366" lon="0.08467">
        <ele>302</ele>
        <time>2020-07-24T05:21:19Z</time>
      </trkpt>
      <trkpt lat="43.23665" lon="0.08464">
        <ele>302</ele>
        <time>2020-07-24T05:21:25Z</time>
      </trkpt>
      <trkpt lat="43.23672" lon="0.08465">
        <ele>302</ele>
        <time>2020-07-24T05:21:31Z</time>
      </trkpt>
      <trkpt lat="43.23678" lon="0.08461">
        <ele>302</ele>
        <time>2020-07-24T05:21:36Z</time>
      </trkpt>
      <trkpt lat="43.23684" lon="0.08456">
        <ele>302</ele>
        <time>2020-07-24T05:21:40Z</time>
      </trkpt>
      <trkpt lat="43.23691" lon="0.08455">
        <ele>302</ele>
        <time>2020-07-24T05:21:42Z</time>
      </trkpt>
      <trkpt lat="43.23695" lon="0.08452">
        <ele>302</ele>
        <time>2020-07-24T05:21:45Z</time>
      </trkpt>
      <trkpt lat="43.23701" lon="0.08453">
        <ele>301</ele>
        <time>2020-07-24T05:21:50Z</time>
      </trkpt>
      <trkpt lat="43.23706" lon="0.08449">
        <ele>301</ele>
        <time>2020-07-24T05:21:53Z</time>
      </trkpt>
      <trkpt lat="43.2371" lon="0.08442">
        <ele>301</ele>
        <time>2020-07-24T05:21:56Z</time>
      </trkpt>
      <trkpt lat="43.23716" lon="0.08438">
        <ele>301</ele>
        <time>2020-07-24T05:21:59Z</time>
      </trkpt>
      <trkpt lat="43.23721" lon="0.08435">
        <ele>301</ele>
        <time>2020-07-24T05:22:03Z</time>
      </trkpt>
      <trkpt lat="43.23729" lon="0.08424">
        <ele>301</ele>
        <time>2020-07-24T05:22:11Z</time>
      </trkpt>
      <trkpt lat="43.23742" lon="0.0842">
        <ele>301</ele>
        <time>2020-07-24T05:22:20Z</time>
      </trkpt>
      <trkpt lat="43.23754" lon="0.08414">
        <ele>301</ele>
        <time>2020-07-24T05:22:31Z</time>
      </trkpt>
      <trkpt lat="43.23756" lon="0.08405">
        <ele>301</ele>
        <time>2020-07-24T05:22:34Z</time>
      </trkpt>
      <trkpt lat="43.23767" lon="0.084">
        <ele>301</ele>
        <time>2020-07-24T05:22:41Z</time>
      </trkpt>
      <trkpt lat="43.23784" lon="0.08395">
        <ele>301</ele>
        <time>2020-07-24T05:22:52Z</time>
      </trkpt>
      <trkpt lat="43.23792" lon="0.08385">
        <ele>301</ele>
        <time>2020-07-24T05:22:57Z</time>
      </trkpt>
      <trkpt lat="43.23801" lon="0.08377">
        <ele>301</ele>
        <time>2020-07-24T05:23:03Z</time>
      </trkpt>
      <trkpt lat="43.23806" lon="0.08364">
        <ele>301</ele>
        <time>2020-07-24T05:23:10Z</time>
      </trkpt>
      <trkpt lat="43.23836" lon="0.0834">
        <ele>301</ele>
        <time>2020-07-24T05:23:32Z</time>
      </trkpt>
      <trkpt lat="43.23855" lon="0.08342">
        <ele>301</ele>
        <time>2020-07-24T05:23:44Z</time>
      </trkpt>
      <trkpt lat="43.23869" lon="0.08335">
        <ele>301</ele>
        <time>2020-07-24T05:23:56Z</time>
      </trkpt>
      <trkpt lat="43.23878" lon="0.08326">
        <ele>301</ele>
        <time>2020-07-24T05:24:03Z</time>
      </trkpt>
      <trkpt lat="43.23904" lon="0.08319">
        <ele>301</ele>
        <time>2020-07-24T05:24:21Z</time>
      </trkpt>
      <trkpt lat="43.23917" lon="0.08308">
        <ele>301</ele>
        <time>2020-07-24T05:24:31Z</time>
      </trkpt>
      <trkpt lat="43.23937" lon="0.083">
        <ele>301</ele>
        <time>2020-07-24T05:24:43Z</time>
      </trkpt>
      <trkpt lat="43.23944" lon="0.08294">
        <ele>301</ele>
        <time>2020-07-24T05:24:49Z</time>
      </trkpt>
      <trkpt lat="43.23953" lon="0.08297">
        <ele>300</ele>
        <time>2020-07-24T05:25:04Z</time>
      </trkpt>
      <trkpt lat="43.2396" lon="0.08289">
        <ele>300</ele>
        <time>2020-07-24T05:25:06Z</time>
      </trkpt>
      <trkpt lat="43.23962" lon="0.08284">
        <ele>301</ele>
        <time>2020-07-24T05:25:09Z</time>
      </trkpt>
      <trkpt lat="43.23964" lon="0.08279">
        <ele>301</ele>
        <time>2020-07-24T05:25:12Z</time>
      </trkpt>
      <trkpt lat="43.23967" lon="0.08274">
        <ele>302</ele>
        <time>2020-07-24T05:25:17Z</time>
      </trkpt>
      <trkpt lat="43.23969" lon="0.08282">
        <ele>303</ele>
        <time>2020-07-24T05:25:28Z</time>
      </trkpt>
      <trkpt lat="43.23964" lon="0.083">
        <ele>304</ele>
        <time>2020-07-24T05:25:40Z</time>
      </trkpt>
      <trkpt lat="43.23963" lon="0.0831">
        <ele>304</ele>
        <time>2020-07-24T05:25:49Z</time>
      </trkpt>
      <trkpt lat="43.23964" lon="0.08317">
        <ele>304</ele>
        <time>2020-07-24T05:25:53Z</time>
      </trkpt>
      <trkpt lat="43.23963" lon="0.08339">
        <ele>304</ele>
        <time>2020-07-24T05:26:04Z</time>
      </trkpt>
      <trkpt lat="43.2396" lon="0.0835">
        <ele>304</ele>
        <time>2020-07-24T05:26:12Z</time>
      </trkpt>
      <trkpt lat="43.2396" lon="0.08357">
        <ele>303</ele>
        <time>2020-07-24T05:26:16Z</time>
      </trkpt>
      <trkpt lat="43.23962" lon="0.08363">
        <ele>303</ele>
        <time>2020-07-24T05:26:19Z</time>
      </trkpt>
      <trkpt lat="43.23963" lon="0.08368">
        <ele>303</ele>
        <time>2020-07-24T05:26:23Z</time>
      </trkpt>
      <trkpt lat="43.2397" lon="0.0837">
        <ele>302</ele>
        <time>2020-07-24T05:26:29Z</time>
      </trkpt>
      <trkpt lat="43.23976" lon="0.08359">
        <ele>302</ele>
        <time>2020-07-24T05:26:36Z</time>
      </trkpt>
      <trkpt lat="43.2398" lon="0.08348">
        <ele>302</ele>
        <time>2020-07-24T05:26:45Z</time>
      </trkpt>
      <trkpt lat="43.23983" lon="0.08342">
        <ele>301</ele>
        <time>2020-07-24T05:26:48Z</time>
      </trkpt>
      <trkpt lat="43.23992" lon="0.08338">
        <ele>301</ele>
        <time>2020-07-24T05:26:53Z</time>
      </trkpt>
      <trkpt lat="43.24001" lon="0.08339">
        <ele>302</ele>
        <time>2020-07-24T05:26:59Z</time>
      </trkpt>
      <trkpt lat="43.24005" lon="0.08338">
        <ele>302</ele>
        <time>2020-07-24T05:27:02Z</time>
      </trkpt>
      <trkpt lat="43.24009" lon="0.08338">
        <ele>302</ele>
        <time>2020-07-24T05:27:06Z</time>
      </trkpt>
      <trkpt lat="43.24018" lon="0.08331">
        <ele>302</ele>
        <time>2020-07-24T05:27:13Z</time>
      </trkpt>
      <trkpt lat="43.24021" lon="0.08328">
        <ele>302</ele>
        <time>2020-07-24T05:27:16Z</time>
      </trkpt>
      <trkpt lat="43.24032" lon="0.08322">
        <ele>301</ele>
        <time>2020-07-24T05:27:24Z</time>
      </trkpt>
      <trkpt lat="43.24038" lon="0.08313">
        <ele>301</ele>
        <time>2020-07-24T05:27:31Z</time>
      </trkpt>
      <trkpt lat="43.2408" lon="0.0829">
        <ele>301</ele>
        <time>2020-07-24T05:28:03Z</time>
      </trkpt>
      <trkpt lat="43.24088" lon="0.08283">
        <ele>301</ele>
        <time>2020-07-24T05:28:09Z</time>
      </trkpt>
      <trkpt lat="43.24095" lon="0.08274">
        <ele>301</ele>
        <time>2020-07-24T05:28:16Z</time>
      </trkpt>
      <trkpt lat="43.24104" lon="0.08271">
        <ele>301</ele>
        <time>2020-07-24T05:28:22Z</time>
      </trkpt>
      <trkpt lat="43.24113" lon="0.08272">
        <ele>301</ele>
        <time>2020-07-24T05:28:28Z</time>
      </trkpt>
      <trkpt lat="43.2412" lon="0.08274">
        <ele>301</ele>
        <time>2020-07-24T05:28:34Z</time>
      </trkpt>
      <trkpt lat="43.24129" lon="0.08273">
        <ele>301</ele>
        <time>2020-07-24T05:28:41Z</time>
      </trkpt>
      <trkpt lat="43.24141" lon="0.08263">
        <ele>300</ele>
        <time>2020-07-24T05:28:55Z</time>
      </trkpt>
      <trkpt lat="43.24146" lon="0.08262">
        <ele>300</ele>
        <time>2020-07-24T05:28:57Z</time>
      </trkpt>
      <trkpt lat="43.2415" lon="0.08263">
        <ele>300</ele>
        <time>2020-07-24T05:29:00Z</time>
      </trkpt>
      <trkpt lat="43.24156" lon="0.08263">
        <ele>300</ele>
        <time>2020-07-24T05:29:02Z</time>
      </trkpt>
      <trkpt lat="43.2417" lon="0.08257">
        <ele>300</ele>
        <time>2020-07-24T05:29:09Z</time>
      </trkpt>
      <trkpt lat="43.24218" lon="0.08255">
        <ele>300</ele>
        <time>2020-07-24T05:29:42Z</time>
      </trkpt>
      <trkpt lat="43.24234" lon="0.08255">
        <ele>300</ele>
        <time>2020-07-24T05:29:54Z</time>
      </trkpt>
      <trkpt lat="43.24251" lon="0.08258">
        <ele>300</ele>
        <time>2020-07-24T05:30:07Z</time>
      </trkpt>
      <trkpt lat="43.24264" lon="0.08254">
        <ele>300</ele>
        <time>2020-07-24T05:30:15Z</time>
      </trkpt>
      <trkpt lat="43.24269" lon="0.08254">
        <ele>299</ele>
        <time>2020-07-24T05:30:18Z</time>
      </trkpt>
      <trkpt lat="43.24273" lon="0.08253">
        <ele>300</ele>
        <time>2020-07-24T05:30:21Z</time>
      </trkpt>
      <trkpt lat="43.24281" lon="0.08253">
        <ele>300</ele>
        <time>2020-07-24T05:30:27Z</time>
      </trkpt>
      <trkpt lat="43.24296" lon="0.08256">
        <ele>299</ele>
        <time>2020-07-24T05:30:38Z</time>
      </trkpt>
      <trkpt lat="43.2431" lon="0.08267">
        <ele>299</ele>
        <time>2020-07-24T05:30:48Z</time>
      </trkpt>
      <trkpt lat="43.24338" lon="0.08274">
        <ele>299</ele>
        <time>2020-07-24T05:31:06Z</time>
      </trkpt>
      <trkpt lat="43.2437" lon="0.08272">
        <ele>299</ele>
        <time>2020-07-24T05:31:30Z</time>
      </trkpt>
      <trkpt lat="43.24381" lon="0.08274">
        <ele>299</ele>
        <time>2020-07-24T05:31:39Z</time>
      </trkpt>
      <trkpt lat="43.24409" lon="0.08273">
        <ele>299</ele>
        <time>2020-07-24T05:31:58Z</time>
      </trkpt>
      <trkpt lat="43.24432" lon="0.08265">
        <ele>299</ele>
        <time>2020-07-24T05:32:14Z</time>
      </trkpt>
      <trkpt lat="43.24443" lon="0.08263">
        <ele>300</ele>
        <time>2020-07-24T05:32:20Z</time>
      </trkpt>
      <trkpt lat="43.24457" lon="0.08261">
        <ele>299</ele>
        <time>2020-07-24T05:32:29Z</time>
      </trkpt>
      <trkpt lat="43.24461" lon="0.08259">
        <ele>299</ele>
        <time>2020-07-24T05:32:32Z</time>
      </trkpt>
      <trkpt lat="43.24475" lon="0.0826">
        <ele>299</ele>
        <time>2020-07-24T05:32:42Z</time>
      </trkpt>
      <trkpt lat="43.24479" lon="0.08259">
        <ele>299</ele>
        <time>2020-07-24T05:32:45Z</time>
      </trkpt>
      <trkpt lat="43.24495" lon="0.08262">
        <ele>299</ele>
        <time>2020-07-24T05:32:55Z</time>
      </trkpt>
      <trkpt lat="43.245" lon="0.08264">
        <ele>299</ele>
        <time>2020-07-24T05:32:58Z</time>
      </trkpt>
      <trkpt lat="43.24507" lon="0.0827">
        <ele>299</ele>
        <time>2020-07-24T05:33:03Z</time>
      </trkpt>
      <trkpt lat="43.24535" lon="0.08275">
        <ele>299</ele>
        <time>2020-07-24T05:33:23Z</time>
      </trkpt>
      <trkpt lat="43.24538" lon="0.08278">
        <ele>299</ele>
        <time>2020-07-24T05:33:26Z</time>
      </trkpt>
      <trkpt lat="43.24555" lon="0.08298">
        <ele>299</ele>
        <time>2020-07-24T05:33:41Z</time>
      </trkpt>
      <trkpt lat="43.24566" lon="0.08306">
        <ele>299</ele>
        <time>2020-07-24T05:33:50Z</time>
      </trkpt>
      <trkpt lat="43.24573" lon="0.08313">
        <ele>299</ele>
        <time>2020-07-24T05:33:56Z</time>
      </trkpt>
      <trkpt lat="43.24583" lon="0.0832">
        <ele>299</ele>
        <time>2020-07-24T05:34:03Z</time>
      </trkpt>
      <trkpt lat="43.246" lon="0.08326">
        <ele>299</ele>
        <time>2020-07-24T05:34:13Z</time>
      </trkpt>
      <trkpt lat="43.24615" lon="0.08333">
        <ele>299</ele>
        <time>2020-07-24T05:34:25Z</time>
      </trkpt>
      <trkpt lat="43.24657" lon="0.08339">
        <ele>299</ele>
        <time>2020-07-24T05:34:54Z</time>
      </trkpt>
      <trkpt lat="43.24665" lon="0.08344">
        <ele>298</ele>
        <time>2020-07-24T05:35:02Z</time>
      </trkpt>
      <trkpt lat="43.24713" lon="0.08352">
        <ele>300</ele>
        <time>2020-07-24T05:35:34Z</time>
      </trkpt>
      <trkpt lat="43.24721" lon="0.08351">
        <ele>300</ele>
        <time>2020-07-24T05:35:41Z</time>
      </trkpt>
      <trkpt lat="43.2473" lon="0.08353">
        <ele>300</ele>
        <time>2020-07-24T05:35:46Z</time>
      </trkpt>
      <trkpt lat="43.2475" lon="0.08351">
        <ele>300</ele>
        <time>2020-07-24T05:36:02Z</time>
      </trkpt>
      <trkpt lat="43.2476" lon="0.08352">
        <ele>299</ele>
        <time>2020-07-24T05:36:08Z</time>
      </trkpt>
      <trkpt lat="43.24764" lon="0.08351">
        <ele>299</ele>
        <time>2020-07-24T05:36:11Z</time>
      </trkpt>
      <trkpt lat="43.24768" lon="0.08349">
        <ele>299</ele>
        <time>2020-07-24T05:36:13Z</time>
      </trkpt>
      <trkpt lat="43.24775" lon="0.08348">
        <ele>299</ele>
        <time>2020-07-24T05:36:17Z</time>
      </trkpt>
      <trkpt lat="43.24783" lon="0.0835">
        <ele>299</ele>
        <time>2020-07-24T05:36:23Z</time>
      </trkpt>
      <trkpt lat="43.24787" lon="0.08353">
        <ele>299</ele>
        <time>2020-07-24T05:36:26Z</time>
      </trkpt>
      <trkpt lat="43.24796" lon="0.08353">
        <ele>299</ele>
        <time>2020-07-24T05:36:32Z</time>
      </trkpt>
      <trkpt lat="43.24801" lon="0.08352">
        <ele>299</ele>
        <time>2020-07-24T05:36:36Z</time>
      </trkpt>
      <trkpt lat="43.24805" lon="0.0835">
        <ele>299</ele>
        <time>2020-07-24T05:36:39Z</time>
      </trkpt>
      <trkpt lat="43.2482" lon="0.08334">
        <ele>299</ele>
        <time>2020-07-24T05:36:53Z</time>
      </trkpt>
      <trkpt lat="43.24825" lon="0.08332">
        <ele>299</ele>
        <time>2020-07-24T05:36:57Z</time>
      </trkpt>
      <trkpt lat="43.24831" lon="0.08333">
        <ele>299</ele>
        <time>2020-07-24T05:37:00Z</time>
      </trkpt>
      <trkpt lat="43.24851" lon="0.08328">
        <ele>299</ele>
        <time>2020-07-24T05:37:14Z</time>
      </trkpt>
      <trkpt lat="43.2486" lon="0.0833">
        <ele>299</ele>
        <time>2020-07-24T05:37:19Z</time>
      </trkpt>
      <trkpt lat="43.24879" lon="0.08329">
        <ele>299</ele>
        <time>2020-07-24T05:37:31Z</time>
      </trkpt>
      <trkpt lat="43.24889" lon="0.08331">
        <ele>299</ele>
        <time>2020-07-24T05:37:38Z</time>
      </trkpt>
      <trkpt lat="43.2491" lon="0.08329">
        <ele>299</ele>
        <time>2020-07-24T05:37:53Z</time>
      </trkpt>
      <trkpt lat="43.24918" lon="0.08329">
        <ele>299</ele>
        <time>2020-07-24T05:37:59Z</time>
      </trkpt>
      <trkpt lat="43.24938" lon="0.08323">
        <ele>299</ele>
        <time>2020-07-24T05:38:14Z</time>
      </trkpt>
      <trkpt lat="43.24947" lon="0.08323">
        <ele>299</ele>
        <time>2020-07-24T05:38:20Z</time>
      </trkpt>
      <trkpt lat="43.24956" lon="0.08324">
        <ele>299</ele>
        <time>2020-07-24T05:38:26Z</time>
      </trkpt>
      <trkpt lat="43.24965" lon="0.08323">
        <ele>299</ele>
        <time>2020-07-24T05:38:32Z</time>
      </trkpt>
      <trkpt lat="43.25013" lon="0.08329">
        <ele>298</ele>
        <time>2020-07-24T05:39:05Z</time>
      </trkpt>
      <trkpt lat="43.2506" lon="0.08332">
        <ele>298</ele>
        <time>2020-07-24T05:39:37Z</time>
      </trkpt>
      <trkpt lat="43.25067" lon="0.08332">
        <ele>298</ele>
        <time>2020-07-24T05:39:42Z</time>
      </trkpt>
      <trkpt lat="43.25114" lon="0.08345">
        <ele>298</ele>
        <time>2020-07-24T05:40:14Z</time>
      </trkpt>
      <trkpt lat="43.25122" lon="0.08346">
        <ele>298</ele>
        <time>2020-07-24T05:40:19Z</time>
      </trkpt>
      <trkpt lat="43.25154" lon="0.08345">
        <ele>297</ele>
        <time>2020-07-24T05:40:41Z</time>
      </trkpt>
      <trkpt lat="43.25166" lon="0.08352">
        <ele>297</ele>
        <time>2020-07-24T05:40:50Z</time>
      </trkpt>
      <trkpt lat="43.25179" lon="0.08365">
        <ele>297</ele>
        <time>2020-07-24T05:41:01Z</time>
      </trkpt>
      <trkpt lat="43.25194" lon="0.0837">
        <ele>297</ele>
        <time>2020-07-24T05:41:11Z</time>
      </trkpt>
      <trkpt lat="43.2522" lon="0.0837">
        <ele>297</ele>
        <time>2020-07-24T05:41:29Z</time>
      </trkpt>
      <trkpt lat="43.25236" lon="0.08373">
        <ele>296</ele>
        <time>2020-07-24T05:41:40Z</time>
      </trkpt>
      <trkpt lat="43.25239" lon="0.08375">
        <ele>296</ele>
        <time>2020-07-24T05:41:43Z</time>
      </trkpt>
      <trkpt lat="43.25242" lon="0.08379">
        <ele>296</ele>
        <time>2020-07-24T05:41:46Z</time>
      </trkpt>
      <trkpt lat="43.25245" lon="0.0839">
        <ele>296</ele>
        <time>2020-07-24T05:41:52Z</time>
      </trkpt>
      <trkpt lat="43.25247" lon="0.08394">
        <ele>296</ele>
        <time>2020-07-24T05:41:55Z</time>
      </trkpt>
      <trkpt lat="43.25249" lon="0.08399">
        <ele>296</ele>
        <time>2020-07-24T05:41:58Z</time>
      </trkpt>
      <trkpt lat="43.25261" lon="0.08423">
        <ele>295</ele>
        <time>2020-07-24T05:42:14Z</time>
      </trkpt>
      <trkpt lat="43.25266" lon="0.08424">
        <ele>295</ele>
        <time>2020-07-24T05:42:18Z</time>
      </trkpt>
      <trkpt lat="43.25276" lon="0.08422">
        <ele>295</ele>
        <time>2020-07-24T05:42:25Z</time>
      </trkpt>
      <trkpt lat="43.2528" lon="0.08419">
        <ele>295</ele>
        <time>2020-07-24T05:42:28Z</time>
      </trkpt>
      <trkpt lat="43.25288" lon="0.08411">
        <ele>296</ele>
        <time>2020-07-24T05:42:35Z</time>
      </trkpt>
      <trkpt lat="43.25305" lon="0.08405">
        <ele>296</ele>
        <time>2020-07-24T05:42:46Z</time>
      </trkpt>
      <trkpt lat="43.2531" lon="0.08405">
        <ele>296</ele>
        <time>2020-07-24T05:42:49Z</time>
      </trkpt>
      <trkpt lat="43.25314" lon="0.08406">
        <ele>296</ele>
        <time>2020-07-24T05:42:53Z</time>
      </trkpt>
      <trkpt lat="43.25322" lon="0.08411">
        <ele>296</ele>
        <time>2020-07-24T05:42:59Z</time>
      </trkpt>
      <trkpt lat="43.25347" lon="0.08418">
        <ele>296</ele>
        <time>2020-07-24T05:43:16Z</time>
      </trkpt>
      <trkpt lat="43.2538" lon="0.08419">
        <ele>295</ele>
        <time>2020-07-24T05:43:38Z</time>
      </trkpt>
      <trkpt lat="43.25388" lon="0.08415">
        <ele>295</ele>
        <time>2020-07-24T05:43:46Z</time>
      </trkpt>
      <trkpt lat="43.25393" lon="0.08415">
        <ele>295</ele>
        <time>2020-07-24T05:43:49Z</time>
      </trkpt>
      <trkpt lat="43.25398" lon="0.08417">
        <ele>295</ele>
        <time>2020-07-24T05:43:52Z</time>
      </trkpt>
      <trkpt lat="43.25417" lon="0.08415">
        <ele>294</ele>
        <time>2020-07-24T05:44:04Z</time>
      </trkpt>
      <trkpt lat="43.2543" lon="0.08411">
        <ele>294</ele>
        <time>2020-07-24T05:44:12Z</time>
      </trkpt>
      <trkpt lat="43.25447" lon="0.08411">
        <ele>294</ele>
        <time>2020-07-24T05:44:25Z</time>
      </trkpt>
      <trkpt lat="43.25453" lon="0.08408">
        <ele>294</ele>
        <time>2020-07-24T05:44:32Z</time>
      </trkpt>
      <trkpt lat="43.25477" lon="0.08408">
        <ele>294</ele>
        <time>2020-07-24T05:44:49Z</time>
      </trkpt>
      <trkpt lat="43.25495" lon="0.084">
        <ele>294</ele>
        <time>2020-07-24T05:45:00Z</time>
      </trkpt>
      <trkpt lat="43.255" lon="0.084">
        <ele>294</ele>
        <time>2020-07-24T05:45:03Z</time>
      </trkpt>
      <trkpt lat="43.25509" lon="0.08397">
        <ele>294</ele>
        <time>2020-07-24T05:45:10Z</time>
      </trkpt>
      <trkpt lat="43.2552" lon="0.0839">
        <ele>294</ele>
        <time>2020-07-24T05:45:18Z</time>
      </trkpt>
      <trkpt lat="43.25551" lon="0.08382">
        <ele>294</ele>
        <time>2020-07-24T05:45:38Z</time>
      </trkpt>
      <trkpt lat="43.25556" lon="0.08384">
        <ele>294</ele>
        <time>2020-07-24T05:45:42Z</time>
      </trkpt>
      <trkpt lat="43.25567" lon="0.08384">
        <ele>294</ele>
        <time>2020-07-24T05:45:51Z</time>
      </trkpt>
      <trkpt lat="43.2558" lon="0.08387">
        <ele>294</ele>
        <time>2020-07-24T05:46:01Z</time>
      </trkpt>
      <trkpt lat="43.25588" lon="0.08386">
        <ele>294</ele>
        <time>2020-07-24T05:46:05Z</time>
      </trkpt>
      <trkpt lat="43.256" lon="0.08381">
        <ele>294</ele>
        <time>2020-07-24T05:46:15Z</time>
      </trkpt>
      <trkpt lat="43.25609" lon="0.08385">
        <ele>293</ele>
        <time>2020-07-24T05:46:21Z</time>
      </trkpt>
      <trkpt lat="43.25614" lon="0.08385">
        <ele>293</ele>
        <time>2020-07-24T05:46:24Z</time>
      </trkpt>
      <trkpt lat="43.25622" lon="0.08383">
        <ele>293</ele>
        <time>2020-07-24T05:46:31Z</time>
      </trkpt>
      <trkpt lat="43.25627" lon="0.0838">
        <ele>293</ele>
        <time>2020-07-24T05:46:36Z</time>
      </trkpt>
      <trkpt lat="43.25632" lon="0.0838">
        <ele>293</ele>
        <time>2020-07-24T05:46:40Z</time>
      </trkpt>
      <trkpt lat="43.25647" lon="0.08373">
        <ele>292</ele>
        <time>2020-07-24T05:46:50Z</time>
      </trkpt>
      <trkpt lat="43.25653" lon="0.08374">
        <ele>292</ele>
        <time>2020-07-24T05:46:54Z</time>
      </trkpt>
      <trkpt lat="43.25663" lon="0.08378">
        <ele>292</ele>
        <time>2020-07-24T05:47:00Z</time>
      </trkpt>
      <trkpt lat="43.25677" lon="0.08379">
        <ele>292</ele>
        <time>2020-07-24T05:47:07Z</time>
      </trkpt>
      <trkpt lat="43.25706" lon="0.08369">
        <ele>292</ele>
        <time>2020-07-24T05:47:26Z</time>
      </trkpt>
      <trkpt lat="43.25728" lon="0.08366">
        <ele>292</ele>
        <time>2020-07-24T05:47:43Z</time>
      </trkpt>
      <trkpt lat="43.25742" lon="0.08367">
        <ele>292</ele>
        <time>2020-07-24T05:47:53Z</time>
      </trkpt>
      <trkpt lat="43.25777" lon="0.08363">
        <ele>292</ele>
        <time>2020-07-24T05:48:16Z</time>
      </trkpt>
      <trkpt lat="43.2579" lon="0.08366">
        <ele>292</ele>
        <time>2020-07-24T05:48:27Z</time>
      </trkpt>
      <trkpt lat="43.25795" lon="0.08364">
        <ele>292</ele>
        <time>2020-07-24T05:48:31Z</time>
      </trkpt>
      <trkpt lat="43.25821" lon="0.08366">
        <ele>292</ele>
        <time>2020-07-24T05:48:51Z</time>
      </trkpt>
      <trkpt lat="43.25849" lon="0.08361">
        <ele>292</ele>
        <time>2020-07-24T05:49:09Z</time>
      </trkpt>
      <trkpt lat="43.25898" lon="0.08369">
        <ele>292</ele>
        <time>2020-07-24T05:49:42Z</time>
      </trkpt>
      <trkpt lat="43.25907" lon="0.08369">
        <ele>292</ele>
        <time>2020-07-24T05:49:50Z</time>
      </trkpt>
      <trkpt lat="43.25911" lon="0.0837">
        <ele>292</ele>
        <time>2020-07-24T05:49:53Z</time>
      </trkpt>
      <trkpt lat="43.25917" lon="0.08368">
        <ele>292</ele>
        <time>2020-07-24T05:49:57Z</time>
      </trkpt>
      <trkpt lat="43.25928" lon="0.08369">
        <ele>292</ele>
        <time>2020-07-24T05:50:03Z</time>
      </trkpt>
      <trkpt lat="43.25937" lon="0.08372">
        <ele>292</ele>
        <time>2020-07-24T05:50:09Z</time>
      </trkpt>
      <trkpt lat="43.25942" lon="0.08371">
        <ele>292</ele>
        <time>2020-07-24T05:50:14Z</time>
      </trkpt>
      <trkpt lat="43.25948" lon="0.0837">
        <ele>292</ele>
        <time>2020-07-24T05:50:17Z</time>
      </trkpt>
      <trkpt lat="43.25979" lon="0.08379">
        <ele>292</ele>
        <time>2020-07-24T05:50:36Z</time>
      </trkpt>
      <trkpt lat="43.25998" lon="0.08376">
        <ele>292</ele>
        <time>2020-07-24T05:50:51Z</time>
      </trkpt>
      <trkpt lat="43.26003" lon="0.08376">
        <ele>292</ele>
        <time>2020-07-24T05:50:55Z</time>
      </trkpt>
      <trkpt lat="43.26032" lon="0.08371">
        <ele>292</ele>
        <time>2020-07-24T05:51:16Z</time>
      </trkpt>
      <trkpt lat="43.26036" lon="0.08372">
        <ele>291</ele>
        <time>2020-07-24T05:51:19Z</time>
      </trkpt>
      <trkpt lat="43.26065" lon="0.08368">
        <ele>291</ele>
        <time>2020-07-24T05:51:39Z</time>
      </trkpt>
      <trkpt lat="43.26069" lon="0.0837">
        <ele>291</ele>
        <time>2020-07-24T05:51:42Z</time>
      </trkpt>
      <trkpt lat="43.26074" lon="0.08369">
        <ele>291</ele>
        <time>2020-07-24T05:51:45Z</time>
      </trkpt>
      <trkpt lat="43.26071" lon="0.08362">
        <ele>291</ele>
        <time>2020-07-24T05:52:06Z</time>
      </trkpt>
      <trkpt lat="43.26086" lon="0.08368">
        <ele>291</ele>
        <time>2020-07-24T05:52:23Z</time>
      </trkpt>
      <trkpt lat="43.26091" lon="0.08368">
        <ele>291</ele>
        <time>2020-07-24T05:52:27Z</time>
      </trkpt>
      <trkpt lat="43.26096" lon="0.08366">
        <ele>291</ele>
        <time>2020-07-24T05:52:30Z</time>
      </trkpt>
      <trkpt lat="43.26123" lon="0.08364">
        <ele>291</ele>
        <time>2020-07-24T05:52:46Z</time>
      </trkpt>
      <trkpt lat="43.26128" lon="0.08362">
        <ele>291</ele>
        <time>2020-07-24T05:52:50Z</time>
      </trkpt>
      <trkpt lat="43.26161" lon="0.08359">
        <ele>291</ele>
        <time>2020-07-24T05:53:15Z</time>
      </trkpt>
      <trkpt lat="43.26187" lon="0.08352">
        <ele>291</ele>
        <time>2020-07-24T05:53:31Z</time>
      </trkpt>
      <trkpt lat="43.26208" lon="0.0835">
        <ele>291</ele>
        <time>2020-07-24T05:53:45Z</time>
      </trkpt>
      <trkpt lat="43.26213" lon="0.08348">
        <ele>291</ele>
        <time>2020-07-24T05:53:48Z</time>
      </trkpt>
      <trkpt lat="43.26257" lon="0.08344">
        <ele>290</ele>
        <time>2020-07-24T05:54:19Z</time>
      </trkpt>
      <trkpt lat="43.26262" lon="0.08343">
        <ele>290</ele>
        <time>2020-07-24T05:54:23Z</time>
      </trkpt>
      <trkpt lat="43.26267" lon="0.08342">
        <ele>290</ele>
        <time>2020-07-24T05:54:26Z</time>
      </trkpt>
      <trkpt lat="43.26273" lon="0.08339">
        <ele>290</ele>
        <time>2020-07-24T05:54:30Z</time>
      </trkpt>
      <trkpt lat="43.26278" lon="0.08338">
        <ele>290</ele>
        <time>2020-07-24T05:54:33Z</time>
      </trkpt>
      <trkpt lat="43.2629" lon="0.08336">
        <ele>290</ele>
        <time>2020-07-24T05:54:40Z</time>
      </trkpt>
      <trkpt lat="43.26295" lon="0.08335">
        <ele>290</ele>
        <time>2020-07-24T05:54:43Z</time>
      </trkpt>
      <trkpt lat="43.26335" lon="0.08334">
        <ele>289</ele>
        <time>2020-07-24T05:55:09Z</time>
      </trkpt>
      <trkpt lat="43.26339" lon="0.08333">
        <ele>289</ele>
        <time>2020-07-24T05:55:11Z</time>
      </trkpt>
      <trkpt lat="43.26382" lon="0.08327">
        <ele>289</ele>
        <time>2020-07-24T05:55:39Z</time>
      </trkpt>
      <trkpt lat="43.26387" lon="0.08326">
        <ele>289</ele>
        <time>2020-07-24T05:55:42Z</time>
      </trkpt>
      <trkpt lat="43.26392" lon="0.08325">
        <ele>289</ele>
        <time>2020-07-24T05:55:45Z</time>
      </trkpt>
      <trkpt lat="43.26435" lon="0.08316">
        <ele>288</ele>
        <time>2020-07-24T05:56:19Z</time>
      </trkpt>
      <trkpt lat="43.26484" lon="0.08316">
        <ele>287</ele>
        <time>2020-07-24T05:56:52Z</time>
      </trkpt>
      <trkpt lat="43.26491" lon="0.08333">
        <ele>287</ele>
        <time>2020-07-24T05:57:02Z</time>
      </trkpt>
      <trkpt lat="43.26498" lon="0.08342">
        <ele>287</ele>
        <time>2020-07-24T05:57:08Z</time>
      </trkpt>
      <trkpt lat="43.26502" lon="0.08344">
        <ele>287</ele>
        <time>2020-07-24T05:57:11Z</time>
      </trkpt>
      <trkpt lat="43.26509" lon="0.08353">
        <ele>287</ele>
        <time>2020-07-24T05:57:17Z</time>
      </trkpt>
      <trkpt lat="43.26518" lon="0.08359">
        <ele>287</ele>
        <time>2020-07-24T05:57:24Z</time>
      </trkpt>
      <trkpt lat="43.26522" lon="0.0836">
        <ele>287</ele>
        <time>2020-07-24T05:57:27Z</time>
      </trkpt>
      <trkpt lat="43.26535" lon="0.0837">
        <ele>286</ele>
        <time>2020-07-24T05:57:38Z</time>
      </trkpt>
      <trkpt lat="43.26538" lon="0.08374">
        <ele>286</ele>
        <time>2020-07-24T05:57:41Z</time>
      </trkpt>
      <trkpt lat="43.2657" lon="0.08395">
        <ele>286</ele>
        <time>2020-07-24T05:58:05Z</time>
      </trkpt>
      <trkpt lat="43.26581" lon="0.08398">
        <ele>286</ele>
        <time>2020-07-24T05:58:13Z</time>
      </trkpt>
      <trkpt lat="43.26631" lon="0.08422">
        <ele>286</ele>
        <time>2020-07-24T05:58:47Z</time>
      </trkpt>
      <trkpt lat="43.26636" lon="0.08426">
        <ele>286</ele>
        <time>2020-07-24T05:58:51Z</time>
      </trkpt>
      <trkpt lat="43.2664" lon="0.08432">
        <ele>286</ele>
        <time>2020-07-24T05:58:55Z</time>
      </trkpt>
      <trkpt lat="43.26653" lon="0.08438">
        <ele>286</ele>
        <time>2020-07-24T05:59:05Z</time>
      </trkpt>
      <trkpt lat="43.26662" lon="0.0844">
        <ele>286</ele>
        <time>2020-07-24T05:59:11Z</time>
      </trkpt>
      <trkpt lat="43.26667" lon="0.08442">
        <ele>286</ele>
        <time>2020-07-24T05:59:14Z</time>
      </trkpt>
      <trkpt lat="43.26675" lon="0.08442">
        <ele>286</ele>
        <time>2020-07-24T05:59:21Z</time>
      </trkpt>
      <trkpt lat="43.26685" lon="0.08447">
        <ele>286</ele>
        <time>2020-07-24T05:59:27Z</time>
      </trkpt>
      <trkpt lat="43.26694" lon="0.08447">
        <ele>286</ele>
        <time>2020-07-24T05:59:34Z</time>
      </trkpt>
      <trkpt lat="43.26699" lon="0.0845">
        <ele>286</ele>
        <time>2020-07-24T05:59:38Z</time>
      </trkpt>
      <trkpt lat="43.26748" lon="0.08452">
        <ele>285</ele>
        <time>2020-07-24T06:00:10Z</time>
      </trkpt>
      <trkpt lat="43.2679" lon="0.08443">
        <ele>285</ele>
        <time>2020-07-24T06:00:40Z</time>
      </trkpt>
      <trkpt lat="43.26803" lon="0.08436">
        <ele>285</ele>
        <time>2020-07-24T06:00:49Z</time>
      </trkpt>
      <trkpt lat="43.26846" lon="0.08422">
        <ele>284</ele>
        <time>2020-07-24T06:01:20Z</time>
      </trkpt>
      <trkpt lat="43.26885" lon="0.08405">
        <ele>284</ele>
        <time>2020-07-24T06:01:46Z</time>
      </trkpt>
      <trkpt lat="43.2689" lon="0.08405">
        <ele>284</ele>
        <time>2020-07-24T06:01:49Z</time>
      </trkpt>
      <trkpt lat="43.2693" lon="0.08384">
        <ele>283</ele>
        <time>2020-07-24T06:02:20Z</time>
      </trkpt>
      <trkpt lat="43.26939" lon="0.08382">
        <ele>283</ele>
        <time>2020-07-24T06:02:26Z</time>
      </trkpt>
      <trkpt lat="43.26944" lon="0.08383">
        <ele>283</ele>
        <time>2020-07-24T06:02:29Z</time>
      </trkpt>
      <trkpt lat="43.26963" lon="0.08378">
        <ele>283</ele>
        <time>2020-07-24T06:02:43Z</time>
      </trkpt>
      <trkpt lat="43.26968" lon="0.08378">
        <ele>283</ele>
        <time>2020-07-24T06:02:46Z</time>
      </trkpt>
      <trkpt lat="43.26987" lon="0.08373">
        <ele>283</ele>
        <time>2020-07-24T06:02:56Z</time>
      </trkpt>
      <trkpt lat="43.27005" lon="0.08372">
        <ele>283</ele>
        <time>2020-07-24T06:03:07Z</time>
      </trkpt>
      <trkpt lat="43.27015" lon="0.08376">
        <ele>283</ele>
        <time>2020-07-24T06:03:13Z</time>
      </trkpt>
      <trkpt lat="43.27035" lon="0.08395">
        <ele>283</ele>
        <time>2020-07-24T06:03:31Z</time>
      </trkpt>
      <trkpt lat="43.27039" lon="0.08397">
        <ele>283</ele>
        <time>2020-07-24T06:03:34Z</time>
      </trkpt>
      <trkpt lat="43.27052" lon="0.084">
        <ele>283</ele>
        <time>2020-07-24T06:03:43Z</time>
      </trkpt>
      <trkpt lat="43.27074" lon="0.08395">
        <ele>283</ele>
        <time>2020-07-24T06:03:59Z</time>
      </trkpt>
      <trkpt lat="43.27078" lon="0.08392">
        <ele>283</ele>
        <time>2020-07-24T06:04:02Z</time>
      </trkpt>
      <trkpt lat="43.27083" lon="0.08392">
        <ele>283</ele>
        <time>2020-07-24T06:04:06Z</time>
      </trkpt>
      <trkpt lat="43.27096" lon="0.08384">
        <ele>283</ele>
        <time>2020-07-24T06:04:17Z</time>
      </trkpt>
      <trkpt lat="43.271" lon="0.08384">
        <ele>283</ele>
        <time>2020-07-24T06:04:20Z</time>
      </trkpt>
      <trkpt lat="43.27118" lon="0.08372">
        <ele>283</ele>
        <time>2020-07-24T06:04:32Z</time>
      </trkpt>
      <trkpt lat="43.27126" lon="0.08364">
        <ele>283</ele>
        <time>2020-07-24T06:04:38Z</time>
      </trkpt>
      <trkpt lat="43.27147" lon="0.08354">
        <ele>283</ele>
        <time>2020-07-24T06:04:53Z</time>
      </trkpt>
      <trkpt lat="43.27175" lon="0.08351">
        <ele>282</ele>
        <time>2020-07-24T06:05:11Z</time>
      </trkpt>
      <trkpt lat="43.27179" lon="0.08352">
        <ele>282</ele>
        <time>2020-07-24T06:05:14Z</time>
      </trkpt>
      <trkpt lat="43.27221" lon="0.08373">
        <ele>281</ele>
        <time>2020-07-24T06:05:45Z</time>
      </trkpt>
      <trkpt lat="43.27224" lon="0.08374">
        <ele>281</ele>
        <time>2020-07-24T06:05:47Z</time>
      </trkpt>
      <trkpt lat="43.27232" lon="0.08379">
        <ele>281</ele>
        <time>2020-07-24T06:05:53Z</time>
      </trkpt>
      <trkpt lat="43.27244" lon="0.08384">
        <ele>281</ele>
        <time>2020-07-24T06:06:02Z</time>
      </trkpt>
      <trkpt lat="43.27248" lon="0.08388">
        <ele>281</ele>
        <time>2020-07-24T06:06:05Z</time>
      </trkpt>
      <trkpt lat="43.27254" lon="0.08387">
        <ele>281</ele>
        <time>2020-07-24T06:06:09Z</time>
      </trkpt>
      <trkpt lat="43.27257" lon="0.08388">
        <ele>281</ele>
        <time>2020-07-24T06:06:11Z</time>
      </trkpt>
      <trkpt lat="43.27262" lon="0.0839">
        <ele>281</ele>
        <time>2020-07-24T06:06:14Z</time>
      </trkpt>
      <trkpt lat="43.2727" lon="0.08392">
        <ele>281</ele>
        <time>2020-07-24T06:06:20Z</time>
      </trkpt>
      <trkpt lat="43.27274" lon="0.08394">
        <ele>281</ele>
        <time>2020-07-24T06:06:23Z</time>
      </trkpt>
      <trkpt lat="43.27283" lon="0.08392">
        <ele>281</ele>
        <time>2020-07-24T06:06:28Z</time>
      </trkpt>
      <trkpt lat="43.27287" lon="0.08393">
        <ele>281</ele>
        <time>2020-07-24T06:06:31Z</time>
      </trkpt>
      <trkpt lat="43.27301" lon="0.08391">
        <ele>281</ele>
        <time>2020-07-24T06:06:40Z</time>
      </trkpt>
      <trkpt lat="43.2731" lon="0.08393">
        <ele>281</ele>
        <time>2020-07-24T06:06:46Z</time>
      </trkpt>
      <trkpt lat="43.27314" lon="0.08391">
        <ele>281</ele>
        <time>2020-07-24T06:06:49Z</time>
      </trkpt>
      <trkpt lat="43.27356" lon="0.08388">
        <ele>281</ele>
        <time>2020-07-24T06:07:18Z</time>
      </trkpt>
      <trkpt lat="43.27398" lon="0.08378">
        <ele>280</ele>
        <time>2020-07-24T06:07:48Z</time>
      </trkpt>
      <trkpt lat="43.27413" lon="0.08379">
        <ele>280</ele>
        <time>2020-07-24T06:07:59Z</time>
      </trkpt>
      <trkpt lat="43.27417" lon="0.0838">
        <ele>280</ele>
        <time>2020-07-24T06:08:03Z</time>
      </trkpt>
      <trkpt lat="43.27421" lon="0.08378">
        <ele>280</ele>
        <time>2020-07-24T06:08:05Z</time>
      </trkpt>
      <trkpt lat="43.27425" lon="0.08377">
        <ele>280</ele>
        <time>2020-07-24T06:08:07Z</time>
      </trkpt>
      <trkpt lat="43.27429" lon="0.08378">
        <ele>280</ele>
        <time>2020-07-24T06:08:09Z</time>
      </trkpt>
      <trkpt lat="43.27436" lon="0.08376">
        <ele>280</ele>
        <time>2020-07-24T06:08:13Z</time>
      </trkpt>
      <trkpt lat="43.27483" lon="0.08382">
        <ele>279</ele>
        <time>2020-07-24T06:08:46Z</time>
      </trkpt>
      <trkpt lat="43.27492" lon="0.08385">
        <ele>279</ele>
        <time>2020-07-24T06:08:52Z</time>
      </trkpt>
      <trkpt lat="43.27496" lon="0.08387">
        <ele>279</ele>
        <time>2020-07-24T06:08:55Z</time>
      </trkpt>
      <trkpt lat="43.2754" lon="0.08395">
        <ele>279</ele>
        <time>2020-07-24T06:09:26Z</time>
      </trkpt>
      <trkpt lat="43.27547" lon="0.08399">
        <ele>279</ele>
        <time>2020-07-24T06:09:32Z</time>
      </trkpt>
      <trkpt lat="43.27556" lon="0.08401">
        <ele>279</ele>
        <time>2020-07-24T06:09:38Z</time>
      </trkpt>
      <trkpt lat="43.2756" lon="0.08404">
        <ele>279</ele>
        <time>2020-07-24T06:09:41Z</time>
      </trkpt>
      <trkpt lat="43.27563" lon="0.08404">
        <ele>279</ele>
        <time>2020-07-24T06:09:44Z</time>
      </trkpt>
      <trkpt lat="43.27568" lon="0.08407">
        <ele>279</ele>
        <time>2020-07-24T06:09:48Z</time>
      </trkpt>
      <trkpt lat="43.27608" lon="0.08419">
        <ele>279</ele>
        <time>2020-07-24T06:10:17Z</time>
      </trkpt>
      <trkpt lat="43.27613" lon="0.08417">
        <ele>279</ele>
        <time>2020-07-24T06:10:20Z</time>
      </trkpt>
      <trkpt lat="43.27617" lon="0.08417">
        <ele>279</ele>
        <time>2020-07-24T06:10:23Z</time>
      </trkpt>
      <trkpt lat="43.27625" lon="0.08414">
        <ele>278</ele>
        <time>2020-07-24T06:10:30Z</time>
      </trkpt>
      <trkpt lat="43.27643" lon="0.08412">
        <ele>277</ele>
        <time>2020-07-24T06:10:43Z</time>
      </trkpt>
      <trkpt lat="43.27648" lon="0.08409">
        <ele>277</ele>
        <time>2020-07-24T06:10:46Z</time>
      </trkpt>
      <trkpt lat="43.27658" lon="0.08397">
        <ele>277</ele>
        <time>2020-07-24T06:10:55Z</time>
      </trkpt>
      <trkpt lat="43.27659" lon="0.0839">
        <ele>277</ele>
        <time>2020-07-24T06:10:59Z</time>
      </trkpt>
      <trkpt lat="43.2766" lon="0.0835">
        <ele>277</ele>
        <time>2020-07-24T06:11:23Z</time>
      </trkpt>
      <trkpt lat="43.27659" lon="0.08345">
        <ele>277</ele>
        <time>2020-07-24T06:11:26Z</time>
      </trkpt>
      <trkpt lat="43.27662" lon="0.08286">
        <ele>277</ele>
        <time>2020-07-24T06:11:58Z</time>
      </trkpt>
      <trkpt lat="43.27666" lon="0.08276">
        <ele>277</ele>
        <time>2020-07-24T06:12:04Z</time>
      </trkpt>
      <trkpt lat="43.27673" lon="0.08269">
        <ele>278</ele>
        <time>2020-07-24T06:12:10Z</time>
      </trkpt>
      <trkpt lat="43.27678" lon="0.0827">
        <ele>278</ele>
        <time>2020-07-24T06:12:14Z</time>
      </trkpt>
      <trkpt lat="43.27684" lon="0.08276">
        <ele>278</ele>
        <time>2020-07-24T06:12:20Z</time>
      </trkpt>
      <trkpt lat="43.27707" lon="0.08288">
        <ele>278</ele>
        <time>2020-07-24T06:12:38Z</time>
      </trkpt>
      <trkpt lat="43.27731" lon="0.08294">
        <ele>278</ele>
        <time>2020-07-24T06:12:55Z</time>
      </trkpt>
      <trkpt lat="43.27746" lon="0.08292">
        <ele>277</ele>
        <time>2020-07-24T06:13:05Z</time>
      </trkpt>
      <trkpt lat="43.2775" lon="0.08293">
        <ele>277</ele>
        <time>2020-07-24T06:13:08Z</time>
      </trkpt>
      <trkpt lat="43.27755" lon="0.08292">
        <ele>277</ele>
        <time>2020-07-24T06:13:11Z</time>
      </trkpt>
      <trkpt lat="43.27759" lon="0.08294">
        <ele>277</ele>
        <time>2020-07-24T06:13:14Z</time>
      </trkpt>
      <trkpt lat="43.27767" lon="0.08299">
        <ele>277</ele>
        <time>2020-07-24T06:13:21Z</time>
      </trkpt>
      <trkpt lat="43.27778" lon="0.08299">
        <ele>277</ele>
        <time>2020-07-24T06:13:29Z</time>
      </trkpt>
      <trkpt lat="43.27793" lon="0.08294">
        <ele>276</ele>
        <time>2020-07-24T06:13:37Z</time>
      </trkpt>
      <trkpt lat="43.27798" lon="0.08295">
        <ele>276</ele>
        <time>2020-07-24T06:13:40Z</time>
      </trkpt>
      <trkpt lat="43.27843" lon="0.08285">
        <ele>276</ele>
        <time>2020-07-24T06:14:13Z</time>
      </trkpt>
      <trkpt lat="43.27851" lon="0.08283">
        <ele>275</ele>
        <time>2020-07-24T06:14:19Z</time>
      </trkpt>
      <trkpt lat="43.27894" lon="0.08262">
        <ele>275</ele>
        <time>2020-07-24T06:14:50Z</time>
      </trkpt>
      <trkpt lat="43.27939" lon="0.08237">
        <ele>274</ele>
        <time>2020-07-24T06:15:23Z</time>
      </trkpt>
      <trkpt lat="43.27948" lon="0.08233">
        <ele>274</ele>
        <time>2020-07-24T06:15:29Z</time>
      </trkpt>
      <trkpt lat="43.27961" lon="0.08229">
        <ele>273</ele>
        <time>2020-07-24T06:15:39Z</time>
      </trkpt>
      <trkpt lat="43.27965" lon="0.08226">
        <ele>273</ele>
        <time>2020-07-24T06:15:42Z</time>
      </trkpt>
      <trkpt lat="43.28008" lon="0.08214">
        <ele>272</ele>
        <time>2020-07-24T06:16:13Z</time>
      </trkpt>
      <trkpt lat="43.28022" lon="0.08207">
        <ele>272</ele>
        <time>2020-07-24T06:16:24Z</time>
      </trkpt>
      <trkpt lat="43.28035" lon="0.08201">
        <ele>272</ele>
        <time>2020-07-24T06:16:32Z</time>
      </trkpt>
      <trkpt lat="43.28075" lon="0.08186">
        <ele>271</ele>
        <time>2020-07-24T06:17:00Z</time>
      </trkpt>
      <trkpt lat="43.28096" lon="0.08174">
        <ele>270</ele>
        <time>2020-07-24T06:17:18Z</time>
      </trkpt>
      <trkpt lat="43.281" lon="0.08174">
        <ele>270</ele>
        <time>2020-07-24T06:17:21Z</time>
      </trkpt>
      <trkpt lat="43.2811" lon="0.0817">
        <ele>270</ele>
        <time>2020-07-24T06:17:28Z</time>
      </trkpt>
      <trkpt lat="43.28115" lon="0.0817">
        <ele>270</ele>
        <time>2020-07-24T06:17:31Z</time>
      </trkpt>
      <trkpt lat="43.28123" lon="0.08166">
        <ele>269</ele>
        <time>2020-07-24T06:17:37Z</time>
      </trkpt>
      <trkpt lat="43.2816" lon="0.08157">
        <ele>268</ele>
        <time>2020-07-24T06:18:04Z</time>
      </trkpt>
      <trkpt lat="43.28164" lon="0.08155">
        <ele>268</ele>
        <time>2020-07-24T06:18:08Z</time>
      </trkpt>
      <trkpt lat="43.28189" lon="0.08149">
        <ele>268</ele>
        <time>2020-07-24T06:18:27Z</time>
      </trkpt>
      <trkpt lat="43.28194" lon="0.08146">
        <ele>268</ele>
        <time>2020-07-24T06:18:30Z</time>
      </trkpt>
      <trkpt lat="43.28198" lon="0.08147">
        <ele>268</ele>
        <time>2020-07-24T06:18:34Z</time>
      </trkpt>
      <trkpt lat="43.28211" lon="0.08143">
        <ele>268</ele>
        <time>2020-07-24T06:18:43Z</time>
      </trkpt>
      <trkpt lat="43.28226" lon="0.08141">
        <ele>268</ele>
        <time>2020-07-24T06:18:53Z</time>
      </trkpt>
      <trkpt lat="43.2823" lon="0.08139">
        <ele>268</ele>
        <time>2020-07-24T06:18:56Z</time>
      </trkpt>
      <trkpt lat="43.28235" lon="0.08139">
        <ele>268</ele>
        <time>2020-07-24T06:18:59Z</time>
      </trkpt>
      <trkpt lat="43.28239" lon="0.08136">
        <ele>268</ele>
        <time>2020-07-24T06:19:02Z</time>
      </trkpt>
      <trkpt lat="43.28247" lon="0.08133">
        <ele>268</ele>
        <time>2020-07-24T06:19:08Z</time>
      </trkpt>
      <trkpt lat="43.28284" lon="0.08119">
        <ele>268</ele>
        <time>2020-07-24T06:19:37Z</time>
      </trkpt>
      <trkpt lat="43.28298" lon="0.08117">
        <ele>268</ele>
        <time>2020-07-24T06:19:48Z</time>
      </trkpt>
      <trkpt lat="43.28321" lon="0.08106">
        <ele>269</ele>
        <time>2020-07-24T06:20:04Z</time>
      </trkpt>
      <trkpt lat="43.28339" lon="0.08102">
        <ele>269</ele>
        <time>2020-07-24T06:20:17Z</time>
      </trkpt>
      <trkpt lat="43.28377" lon="0.08083">
        <ele>269</ele>
        <time>2020-07-24T06:20:45Z</time>
      </trkpt>
      <trkpt lat="43.28381" lon="0.08082">
        <ele>269</ele>
        <time>2020-07-24T06:20:48Z</time>
      </trkpt>
      <trkpt lat="43.28424" lon="0.08066">
        <ele>269</ele>
        <time>2020-07-24T06:21:17Z</time>
      </trkpt>
      <trkpt lat="43.28439" lon="0.08056">
        <ele>269</ele>
        <time>2020-07-24T06:21:30Z</time>
      </trkpt>
      <trkpt lat="43.2846" lon="0.0805">
        <ele>269</ele>
        <time>2020-07-24T06:21:46Z</time>
      </trkpt>
      <trkpt lat="43.28478" lon="0.08042">
        <ele>269</ele>
        <time>2020-07-24T06:21:57Z</time>
      </trkpt>
      <trkpt lat="43.28492" lon="0.08038">
        <ele>269</ele>
        <time>2020-07-24T06:22:06Z</time>
      </trkpt>
      <trkpt lat="43.285" lon="0.08034">
        <ele>269</ele>
        <time>2020-07-24T06:22:12Z</time>
      </trkpt>
      <trkpt lat="43.28513" lon="0.08032">
        <ele>269</ele>
        <time>2020-07-24T06:22:21Z</time>
      </trkpt>
      <trkpt lat="43.28521" lon="0.08028">
        <ele>270</ele>
        <time>2020-07-24T06:22:28Z</time>
      </trkpt>
      <trkpt lat="43.28526" lon="0.08027">
        <ele>270</ele>
        <time>2020-07-24T06:22:31Z</time>
      </trkpt>
      <trkpt lat="43.2853" lon="0.08028">
        <ele>270</ele>
        <time>2020-07-24T06:22:36Z</time>
      </trkpt>
      <trkpt lat="43.28533" lon="0.08032">
        <ele>270</ele>
        <time>2020-07-24T06:22:41Z</time>
      </trkpt>
      <trkpt lat="43.28538" lon="0.08031">
        <ele>270</ele>
        <time>2020-07-24T06:22:45Z</time>
      </trkpt>
      <trkpt lat="43.28545" lon="0.08027">
        <ele>270</ele>
        <time>2020-07-24T06:22:51Z</time>
      </trkpt>
      <trkpt lat="43.28591" lon="0.08022">
        <ele>270</ele>
        <time>2020-07-24T06:23:23Z</time>
      </trkpt>
      <trkpt lat="43.28594" lon="0.08022">
        <ele>270</ele>
        <time>2020-07-24T06:23:26Z</time>
      </trkpt>
      <trkpt lat="43.28609" lon="0.08045">
        <ele>270</ele>
        <time>2020-07-24T06:23:45Z</time>
      </trkpt>
      <trkpt lat="43.28613" lon="0.08048">
        <ele>270</ele>
        <time>2020-07-24T06:23:48Z</time>
      </trkpt>
      <trkpt lat="43.28619" lon="0.08054">
        <ele>270</ele>
        <time>2020-07-24T06:23:54Z</time>
      </trkpt>
      <trkpt lat="43.28625" lon="0.08064">
        <ele>270</ele>
        <time>2020-07-24T06:24:01Z</time>
      </trkpt>
      <trkpt lat="43.28628" lon="0.08066">
        <ele>270</ele>
        <time>2020-07-24T06:24:04Z</time>
      </trkpt>
      <trkpt lat="43.28632" lon="0.08071">
        <ele>270</ele>
        <time>2020-07-24T06:24:12Z</time>
      </trkpt>
      <trkpt lat="43.28637" lon="0.08078">
        <ele>269</ele>
        <time>2020-07-24T06:24:38Z</time>
      </trkpt>
      <trkpt lat="43.28647" lon="0.08099">
        <ele>269</ele>
        <time>2020-07-24T06:24:53Z</time>
      </trkpt>
      <trkpt lat="43.2865" lon="0.08111">
        <ele>269</ele>
        <time>2020-07-24T06:25:01Z</time>
      </trkpt>
      <trkpt lat="43.28658" lon="0.08127">
        <ele>269</ele>
        <time>2020-07-24T06:25:10Z</time>
      </trkpt>
      <trkpt lat="43.28674" lon="0.08145">
        <ele>269</ele>
        <time>2020-07-24T06:25:24Z</time>
      </trkpt>
      <trkpt lat="43.28677" lon="0.08151">
        <ele>269</ele>
        <time>2020-07-24T06:25:27Z</time>
      </trkpt>
      <trkpt lat="43.28682" lon="0.08155">
        <ele>269</ele>
        <time>2020-07-24T06:25:31Z</time>
      </trkpt>
      <trkpt lat="43.28686" lon="0.08159">
        <ele>269</ele>
        <time>2020-07-24T06:25:34Z</time>
      </trkpt>
      <trkpt lat="43.28691" lon="0.08159">
        <ele>269</ele>
        <time>2020-07-24T06:25:38Z</time>
      </trkpt>
      <trkpt lat="43.28696" lon="0.08162">
        <ele>270</ele>
        <time>2020-07-24T06:25:43Z</time>
      </trkpt>
      <trkpt lat="43.28708" lon="0.08164">
        <ele>269</ele>
        <time>2020-07-24T06:25:51Z</time>
      </trkpt>
      <trkpt lat="43.28716" lon="0.08157">
        <ele>269</ele>
        <time>2020-07-24T06:25:56Z</time>
      </trkpt>
      <trkpt lat="43.2872" lon="0.08156">
        <ele>269</ele>
        <time>2020-07-24T06:25:58Z</time>
      </trkpt>
      <trkpt lat="43.28728" lon="0.08157">
        <ele>269</ele>
        <time>2020-07-24T06:26:05Z</time>
      </trkpt>
      <trkpt lat="43.28734" lon="0.08157">
        <ele>269</ele>
        <time>2020-07-24T06:26:09Z</time>
      </trkpt>
      <trkpt lat="43.28738" lon="0.08159">
        <ele>269</ele>
        <time>2020-07-24T06:26:12Z</time>
      </trkpt>
      <trkpt lat="43.28747" lon="0.08159">
        <ele>269</ele>
        <time>2020-07-24T06:26:18Z</time>
      </trkpt>
      <trkpt lat="43.28792" lon="0.08148">
        <ele>269</ele>
        <time>2020-07-24T06:26:49Z</time>
      </trkpt>
      <trkpt lat="43.28822" lon="0.08138">
        <ele>269</ele>
        <time>2020-07-24T06:27:12Z</time>
      </trkpt>
      <trkpt lat="43.28827" lon="0.08134">
        <ele>269</ele>
        <time>2020-07-24T06:27:16Z</time>
      </trkpt>
      <trkpt lat="43.28842" lon="0.08133">
        <ele>269</ele>
        <time>2020-07-24T06:27:28Z</time>
      </trkpt>
      <trkpt lat="43.28859" lon="0.08131">
        <ele>269</ele>
        <time>2020-07-24T06:27:42Z</time>
      </trkpt>
      <trkpt lat="43.28875" lon="0.08123">
        <ele>270</ele>
        <time>2020-07-24T06:27:51Z</time>
      </trkpt>
      <trkpt lat="43.28878" lon="0.08118">
        <ele>270</ele>
        <time>2020-07-24T06:27:55Z</time>
      </trkpt>
      <trkpt lat="43.28877" lon="0.08111">
        <ele>271</ele>
        <time>2020-07-24T06:28:00Z</time>
      </trkpt>
      <trkpt lat="43.28872" lon="0.08091">
        <ele>271</ele>
        <time>2020-07-24T06:28:15Z</time>
      </trkpt>
      <trkpt lat="43.28869" lon="0.08076">
        <ele>270</ele>
        <time>2020-07-24T06:28:24Z</time>
      </trkpt>
      <trkpt lat="43.28866" lon="0.08067">
        <ele>270</ele>
        <time>2020-07-24T06:28:28Z</time>
      </trkpt>
      <trkpt lat="43.28864" lon="0.08044">
        <ele>270</ele>
        <time>2020-07-24T06:28:42Z</time>
      </trkpt>
      <trkpt lat="43.28862" lon="0.0803">
        <ele>270</ele>
        <time>2020-07-24T06:28:50Z</time>
      </trkpt>
      <trkpt lat="43.28864" lon="0.08021">
        <ele>270</ele>
        <time>2020-07-24T06:28:57Z</time>
      </trkpt>
      <trkpt lat="43.28873" lon="0.08016">
        <ele>270</ele>
        <time>2020-07-24T06:29:04Z</time>
      </trkpt>
      <trkpt lat="43.28877" lon="0.08016">
        <ele>270</ele>
        <time>2020-07-24T06:29:07Z</time>
      </trkpt>
      <trkpt lat="43.28885" lon="0.08018">
        <ele>270</ele>
        <time>2020-07-24T06:29:13Z</time>
      </trkpt>
      <trkpt lat="43.28919" lon="0.08015">
        <ele>270</ele>
        <time>2020-07-24T06:29:37Z</time>
      </trkpt>
      <trkpt lat="43.28962" lon="0.07999">
        <ele>271</ele>
        <time>2020-07-24T06:30:10Z</time>
      </trkpt>
      <trkpt lat="43.28966" lon="0.07998">
        <ele>271</ele>
        <time>2020-07-24T06:30:13Z</time>
      </trkpt>
      <trkpt lat="43.28974" lon="0.07999">
        <ele>271</ele>
        <time>2020-07-24T06:30:20Z</time>
      </trkpt>
      <trkpt lat="43.28978" lon="0.08002">
        <ele>271</ele>
        <time>2020-07-24T06:30:24Z</time>
      </trkpt>
      <trkpt lat="43.28989" lon="0.07999">
        <ele>271</ele>
        <time>2020-07-24T06:30:30Z</time>
      </trkpt>
      <trkpt lat="43.28993" lon="0.08001">
        <ele>271</ele>
        <time>2020-07-24T06:30:33Z</time>
      </trkpt>
      <trkpt lat="43.28997" lon="0.08004">
        <ele>271</ele>
        <time>2020-07-24T06:30:38Z</time>
      </trkpt>
      <trkpt lat="43.29001" lon="0.08014">
        <ele>271</ele>
        <time>2020-07-24T06:30:43Z</time>
      </trkpt>
      <trkpt lat="43.29007" lon="0.08075">
        <ele>273</ele>
        <time>2020-07-24T06:31:16Z</time>
      </trkpt>
      <trkpt lat="43.2901" lon="0.08098">
        <ele>273</ele>
        <time>2020-07-24T06:31:29Z</time>
      </trkpt>
      <trkpt lat="43.29012" lon="0.0816">
        <ele>273</ele>
        <time>2020-07-24T06:32:02Z</time>
      </trkpt>
      <trkpt lat="43.29015" lon="0.08217">
        <ele>271</ele>
        <time>2020-07-24T06:32:34Z</time>
      </trkpt>
      <trkpt lat="43.29018" lon="0.08283">
        <ele>271</ele>
        <time>2020-07-24T06:33:06Z</time>
      </trkpt>
      <trkpt lat="43.2902" lon="0.08341">
        <ele>270</ele>
        <time>2020-07-24T06:33:37Z</time>
      </trkpt>
      <trkpt lat="43.29018" lon="0.08347">
        <ele>270</ele>
        <time>2020-07-24T06:33:41Z</time>
      </trkpt>
      <trkpt lat="43.29013" lon="0.08354">
        <ele>270</ele>
        <time>2020-07-24T06:33:50Z</time>
      </trkpt>
      <trkpt lat="43.29004" lon="0.08354">
        <ele>271</ele>
        <time>2020-07-24T06:33:57Z</time>
      </trkpt>
      <trkpt lat="43.28961" lon="0.0836">
        <ele>271</ele>
        <time>2020-07-24T06:34:29Z</time>
      </trkpt>
      <trkpt lat="43.28928" lon="0.08365">
        <ele>271</ele>
        <time>2020-07-24T06:34:52Z</time>
      </trkpt>
      <trkpt lat="43.28919" lon="0.08365">
        <ele>271</ele>
        <time>2020-07-24T06:34:58Z</time>
      </trkpt>
      <trkpt lat="43.28889" lon="0.08372">
        <ele>271</ele>
        <time>2020-07-24T06:35:23Z</time>
      </trkpt>
      <trkpt lat="43.28879" lon="0.0837">
        <ele>271</ele>
        <time>2020-07-24T06:35:31Z</time>
      </trkpt>
      <trkpt lat="43.28868" lon="0.08361">
        <ele>271</ele>
        <time>2020-07-24T06:35:41Z</time>
      </trkpt>
      <trkpt lat="43.28855" lon="0.0836">
        <ele>270</ele>
        <time>2020-07-24T06:35:49Z</time>
      </trkpt>
      <trkpt lat="43.2884" lon="0.08347">
        <ele>270</ele>
        <time>2020-07-24T06:36:03Z</time>
      </trkpt>
      <trkpt lat="43.2884" lon="0.08349">
        <ele>268</ele>
        <time>2020-07-24T06:44:06Z</time>
      </trkpt>
      <trkpt lat="43.28836" lon="0.08349">
        <ele>270</ele>
        <time>2020-07-24T06:44:54Z</time>
      </trkpt>
      <trkpt lat="43.28834" lon="0.08354">
        <ele>270</ele>
        <time>2020-07-24T06:45:00Z</time>
      </trkpt>
      <trkpt lat="43.28832" lon="0.08359">
        <ele>270</ele>
        <time>2020-07-24T06:45:04Z</time>
      </trkpt>
      <trkpt lat="43.28829" lon="0.08384">
        <ele>270</ele>
        <time>2020-07-24T06:45:19Z</time>
      </trkpt>
      <trkpt lat="43.28823" lon="0.08403">
        <ele>269</ele>
        <time>2020-07-24T06:45:33Z</time>
      </trkpt>
      <trkpt lat="43.28822" lon="0.08417">
        <ele>269</ele>
        <time>2020-07-24T06:45:40Z</time>
      </trkpt>
      <trkpt lat="43.28821" lon="0.08423">
        <ele>269</ele>
        <time>2020-07-24T06:45:44Z</time>
      </trkpt>
      <trkpt lat="43.28821" lon="0.08429">
        <ele>269</ele>
        <time>2020-07-24T06:45:47Z</time>
      </trkpt>
      <trkpt lat="43.28817" lon="0.08461">
        <ele>270</ele>
        <time>2020-07-24T06:46:05Z</time>
      </trkpt>
      <trkpt lat="43.28817" lon="0.08467">
        <ele>270</ele>
        <time>2020-07-24T06:46:08Z</time>
      </trkpt>
      <trkpt lat="43.2881" lon="0.08508">
        <ele>270</ele>
        <time>2020-07-24T06:46:29Z</time>
      </trkpt>
      <trkpt lat="43.28809" lon="0.08522">
        <ele>270</ele>
        <time>2020-07-24T06:46:40Z</time>
      </trkpt>
      <trkpt lat="43.28799" lon="0.08544">
        <ele>270</ele>
        <time>2020-07-24T06:46:52Z</time>
      </trkpt>
      <trkpt lat="43.28796" lon="0.08556">
        <ele>270</ele>
        <time>2020-07-24T06:46:57Z</time>
      </trkpt>
      <trkpt lat="43.28785" lon="0.08582">
        <ele>271</ele>
        <time>2020-07-24T06:47:11Z</time>
      </trkpt>
      <trkpt lat="43.28784" lon="0.08589">
        <ele>271</ele>
        <time>2020-07-24T06:47:14Z</time>
      </trkpt>
      <trkpt lat="43.28783" lon="0.08599">
        <ele>272</ele>
        <time>2020-07-24T06:47:20Z</time>
      </trkpt>
      <trkpt lat="43.2878" lon="0.08604">
        <ele>272</ele>
        <time>2020-07-24T06:47:23Z</time>
      </trkpt>
      <trkpt lat="43.2876" lon="0.08631">
        <ele>272</ele>
        <time>2020-07-24T06:47:44Z</time>
      </trkpt>
      <trkpt lat="43.28747" lon="0.08642">
        <ele>272</ele>
        <time>2020-07-24T06:47:56Z</time>
      </trkpt>
      <trkpt lat="43.28735" lon="0.0865">
        <ele>272</ele>
        <time>2020-07-24T06:48:05Z</time>
      </trkpt>
      <trkpt lat="43.28725" lon="0.08659">
        <ele>272</ele>
        <time>2020-07-24T06:48:14Z</time>
      </trkpt>
      <trkpt lat="43.28682" lon="0.0868">
        <ele>272</ele>
        <time>2020-07-24T06:48:47Z</time>
      </trkpt>
      <trkpt lat="43.28669" lon="0.08685">
        <ele>273</ele>
        <time>2020-07-24T06:48:57Z</time>
      </trkpt>
      <trkpt lat="43.2866" lon="0.08691">
        <ele>273</ele>
        <time>2020-07-24T06:49:04Z</time>
      </trkpt>
      <trkpt lat="43.28657" lon="0.08694">
        <ele>273</ele>
        <time>2020-07-24T06:49:07Z</time>
      </trkpt>
      <trkpt lat="43.2865" lon="0.08701">
        <ele>273</ele>
        <time>2020-07-24T06:49:13Z</time>
      </trkpt>
      <trkpt lat="43.28646" lon="0.08703">
        <ele>273</ele>
        <time>2020-07-24T06:49:17Z</time>
      </trkpt>
      <trkpt lat="43.28637" lon="0.08705">
        <ele>273</ele>
        <time>2020-07-24T06:49:25Z</time>
      </trkpt>
      <trkpt lat="43.28629" lon="0.08705">
        <ele>273</ele>
        <time>2020-07-24T06:49:31Z</time>
      </trkpt>
      <trkpt lat="43.28602" lon="0.08718">
        <ele>272</ele>
        <time>2020-07-24T06:49:52Z</time>
      </trkpt>
      <trkpt lat="43.28598" lon="0.08721">
        <ele>272</ele>
        <time>2020-07-24T06:49:55Z</time>
      </trkpt>
      <trkpt lat="43.28558" lon="0.08727">
        <ele>272</ele>
        <time>2020-07-24T06:50:23Z</time>
      </trkpt>
      <trkpt lat="43.2855" lon="0.08726">
        <ele>272</ele>
        <time>2020-07-24T06:50:33Z</time>
      </trkpt>
      <trkpt lat="43.28546" lon="0.08728">
        <ele>272</ele>
        <time>2020-07-24T06:50:36Z</time>
      </trkpt>
      <trkpt lat="43.28528" lon="0.08726">
        <ele>272</ele>
        <time>2020-07-24T06:50:49Z</time>
      </trkpt>
      <trkpt lat="43.28524" lon="0.08726">
        <ele>272</ele>
        <time>2020-07-24T06:50:52Z</time>
      </trkpt>
      <trkpt lat="43.28507" lon="0.08723">
        <ele>272</ele>
        <time>2020-07-24T06:51:04Z</time>
      </trkpt>
      <trkpt lat="43.28499" lon="0.0872">
        <ele>273</ele>
        <time>2020-07-24T06:51:10Z</time>
      </trkpt>
      <trkpt lat="43.28487" lon="0.08715">
        <ele>273</ele>
        <time>2020-07-24T06:51:19Z</time>
      </trkpt>
      <trkpt lat="43.2848" lon="0.08712">
        <ele>272</ele>
        <time>2020-07-24T06:51:25Z</time>
      </trkpt>
      <trkpt lat="43.28476" lon="0.08712">
        <ele>272</ele>
        <time>2020-07-24T06:51:28Z</time>
      </trkpt>
      <trkpt lat="43.28473" lon="0.08711">
        <ele>272</ele>
        <time>2020-07-24T06:51:31Z</time>
      </trkpt>
      <trkpt lat="43.28469" lon="0.08711">
        <ele>271</ele>
        <time>2020-07-24T06:51:34Z</time>
      </trkpt>
      <trkpt lat="43.28451" lon="0.08711">
        <ele>271</ele>
        <time>2020-07-24T06:51:46Z</time>
      </trkpt>
      <trkpt lat="43.28434" lon="0.08708">
        <ele>272</ele>
        <time>2020-07-24T06:52:00Z</time>
      </trkpt>
      <trkpt lat="43.2843" lon="0.08707">
        <ele>272</ele>
        <time>2020-07-24T06:52:03Z</time>
      </trkpt>
      <trkpt lat="43.28422" lon="0.08706">
        <ele>272</ele>
        <time>2020-07-24T06:52:09Z</time>
      </trkpt>
      <trkpt lat="43.28409" lon="0.08701">
        <ele>272</ele>
        <time>2020-07-24T06:52:18Z</time>
      </trkpt>
      <trkpt lat="43.28402" lon="0.08698">
        <ele>272</ele>
        <time>2020-07-24T06:52:24Z</time>
      </trkpt>
      <trkpt lat="43.28386" lon="0.0869">
        <ele>272</ele>
        <time>2020-07-24T06:52:36Z</time>
      </trkpt>
      <trkpt lat="43.28349" lon="0.08664">
        <ele>272</ele>
        <time>2020-07-24T06:53:08Z</time>
      </trkpt>
      <trkpt lat="43.28325" lon="0.08641">
        <ele>271</ele>
        <time>2020-07-24T06:53:29Z</time>
      </trkpt>
      <trkpt lat="43.28314" lon="0.08625">
        <ele>271</ele>
        <time>2020-07-24T06:53:42Z</time>
      </trkpt>
      <trkpt lat="43.28295" lon="0.08568">
        <ele>272</ele>
        <time>2020-07-24T06:54:14Z</time>
      </trkpt>
      <trkpt lat="43.2829" lon="0.08554">
        <ele>272</ele>
        <time>2020-07-24T06:54:23Z</time>
      </trkpt>
      <trkpt lat="43.28288" lon="0.0855">
        <ele>272</ele>
        <time>2020-07-24T06:54:26Z</time>
      </trkpt>
      <trkpt lat="43.28284" lon="0.08547">
        <ele>272</ele>
        <time>2020-07-24T06:54:30Z</time>
      </trkpt>
      <trkpt lat="43.2828" lon="0.08547">
        <ele>272</ele>
        <time>2020-07-24T06:54:33Z</time>
      </trkpt>
      <trkpt lat="43.28269" lon="0.08545">
        <ele>272</ele>
        <time>2020-07-24T06:54:42Z</time>
      </trkpt>
      <trkpt lat="43.28264" lon="0.08546">
        <ele>272</ele>
        <time>2020-07-24T06:54:46Z</time>
      </trkpt>
      <trkpt lat="43.28238" lon="0.08545">
        <ele>272</ele>
        <time>2020-07-24T06:55:07Z</time>
      </trkpt>
      <trkpt lat="43.28234" lon="0.08546">
        <ele>272</ele>
        <time>2020-07-24T06:55:10Z</time>
      </trkpt>
      <trkpt lat="43.28192" lon="0.08545">
        <ele>273</ele>
        <time>2020-07-24T06:55:44Z</time>
      </trkpt>
      <trkpt lat="43.28188" lon="0.08544">
        <ele>273</ele>
        <time>2020-07-24T06:55:47Z</time>
      </trkpt>
      <trkpt lat="43.28172" lon="0.08543">
        <ele>273</ele>
        <time>2020-07-24T06:55:59Z</time>
      </trkpt>
      <trkpt lat="43.28168" lon="0.08545">
        <ele>273</ele>
        <time>2020-07-24T06:56:02Z</time>
      </trkpt>
      <trkpt lat="43.28126" lon="0.08536">
        <ele>274</ele>
        <time>2020-07-24T06:56:32Z</time>
      </trkpt>
      <trkpt lat="43.28122" lon="0.08534">
        <ele>274</ele>
        <time>2020-07-24T06:56:36Z</time>
      </trkpt>
      <trkpt lat="43.28117" lon="0.08533">
        <ele>274</ele>
        <time>2020-07-24T06:56:40Z</time>
      </trkpt>
      <trkpt lat="43.28082" lon="0.08518">
        <ele>274</ele>
        <time>2020-07-24T06:57:04Z</time>
      </trkpt>
      <trkpt lat="43.28078" lon="0.08519">
        <ele>274</ele>
        <time>2020-07-24T06:57:07Z</time>
      </trkpt>
      <trkpt lat="43.28069" lon="0.08516">
        <ele>274</ele>
        <time>2020-07-24T06:57:13Z</time>
      </trkpt>
      <trkpt lat="43.28062" lon="0.08516">
        <ele>274</ele>
        <time>2020-07-24T06:57:19Z</time>
      </trkpt>
      <trkpt lat="43.28045" lon="0.08511">
        <ele>273</ele>
        <time>2020-07-24T06:57:34Z</time>
      </trkpt>
      <trkpt lat="43.28041" lon="0.08508">
        <ele>272</ele>
        <time>2020-07-24T06:57:37Z</time>
      </trkpt>
      <trkpt lat="43.28019" lon="0.085">
        <ele>273</ele>
        <time>2020-07-24T06:57:56Z</time>
      </trkpt>
      <trkpt lat="43.28007" lon="0.08489">
        <ele>273</ele>
        <time>2020-07-24T06:58:06Z</time>
      </trkpt>
      <trkpt lat="43.27995" lon="0.08484">
        <ele>273</ele>
        <time>2020-07-24T06:58:15Z</time>
      </trkpt>
      <trkpt lat="43.27991" lon="0.08483">
        <ele>274</ele>
        <time>2020-07-24T06:58:18Z</time>
      </trkpt>
      <trkpt lat="43.27952" lon="0.08462">
        <ele>275</ele>
        <time>2020-07-24T06:58:49Z</time>
      </trkpt>
      <trkpt lat="43.27937" lon="0.08455">
        <ele>275</ele>
        <time>2020-07-24T06:59:00Z</time>
      </trkpt>
      <trkpt lat="43.27933" lon="0.08455">
        <ele>275</ele>
        <time>2020-07-24T06:59:02Z</time>
      </trkpt>
      <trkpt lat="43.27931" lon="0.08451">
        <ele>275</ele>
        <time>2020-07-24T06:59:05Z</time>
      </trkpt>
      <trkpt lat="43.27924" lon="0.08451">
        <ele>275</ele>
        <time>2020-07-24T06:59:35Z</time>
      </trkpt>
      <trkpt lat="43.27921" lon="0.08452">
        <ele>275</ele>
        <time>2020-07-24T06:59:38Z</time>
      </trkpt>
      <trkpt lat="43.27885" lon="0.08451">
        <ele>275</ele>
        <time>2020-07-24T07:00:05Z</time>
      </trkpt>
      <trkpt lat="43.27875" lon="0.08452">
        <ele>275</ele>
        <time>2020-07-24T07:00:12Z</time>
      </trkpt>
      <trkpt lat="43.27871" lon="0.08451">
        <ele>275</ele>
        <time>2020-07-24T07:00:15Z</time>
      </trkpt>
      <trkpt lat="43.27867" lon="0.0845">
        <ele>275</ele>
        <time>2020-07-24T07:00:18Z</time>
      </trkpt>
      <trkpt lat="43.27859" lon="0.0845">
        <ele>275</ele>
        <time>2020-07-24T07:00:26Z</time>
      </trkpt>
      <trkpt lat="43.27851" lon="0.08445">
        <ele>276</ele>
        <time>2020-07-24T07:00:33Z</time>
      </trkpt>
      <trkpt lat="43.27846" lon="0.08444">
        <ele>276</ele>
        <time>2020-07-24T07:00:36Z</time>
      </trkpt>
      <trkpt lat="43.27842" lon="0.08445">
        <ele>276</ele>
        <time>2020-07-24T07:00:39Z</time>
      </trkpt>
      <trkpt lat="43.27802" lon="0.08437">
        <ele>274</ele>
        <time>2020-07-24T07:01:10Z</time>
      </trkpt>
      <trkpt lat="43.27756" lon="0.08431">
        <ele>275</ele>
        <time>2020-07-24T07:01:43Z</time>
      </trkpt>
      <trkpt lat="43.27746" lon="0.0843">
        <ele>275</ele>
        <time>2020-07-24T07:01:50Z</time>
      </trkpt>
      <trkpt lat="43.27705" lon="0.08423">
        <ele>274</ele>
        <time>2020-07-24T07:02:22Z</time>
      </trkpt>
      <trkpt lat="43.27694" lon="0.08419">
        <ele>274</ele>
        <time>2020-07-24T07:02:30Z</time>
      </trkpt>
      <trkpt lat="43.2769" lon="0.08413">
        <ele>274</ele>
        <time>2020-07-24T07:02:33Z</time>
      </trkpt>
      <trkpt lat="43.2769" lon="0.08406">
        <ele>274</ele>
        <time>2020-07-24T07:02:36Z</time>
      </trkpt>
      <trkpt lat="43.2769" lon="0.08399">
        <ele>274</ele>
        <time>2020-07-24T07:02:41Z</time>
      </trkpt>
      <trkpt lat="43.27687" lon="0.08393">
        <ele>274</ele>
        <time>2020-07-24T07:02:46Z</time>
      </trkpt>
      <trkpt lat="43.27683" lon="0.08388">
        <ele>274</ele>
        <time>2020-07-24T07:02:51Z</time>
      </trkpt>
      <trkpt lat="43.27674" lon="0.08382">
        <ele>273</ele>
        <time>2020-07-24T07:03:02Z</time>
      </trkpt>
      <trkpt lat="43.27668" lon="0.08382">
        <ele>273</ele>
        <time>2020-07-24T07:03:07Z</time>
      </trkpt>
      <trkpt lat="43.27625" lon="0.0837">
        <ele>275</ele>
        <time>2020-07-24T07:03:38Z</time>
      </trkpt>
      <trkpt lat="43.27615" lon="0.08367">
        <ele>276</ele>
        <time>2020-07-24T07:03:46Z</time>
      </trkpt>
      <trkpt lat="43.27607" lon="0.08364">
        <ele>276</ele>
        <time>2020-07-24T07:03:54Z</time>
      </trkpt>
      <trkpt lat="43.27571" lon="0.08358">
        <ele>278</ele>
        <time>2020-07-24T07:04:18Z</time>
      </trkpt>
      <trkpt lat="43.27566" lon="0.08359">
        <ele>278</ele>
        <time>2020-07-24T07:04:21Z</time>
      </trkpt>
      <trkpt lat="43.27561" lon="0.08357">
        <ele>278</ele>
        <time>2020-07-24T07:04:24Z</time>
      </trkpt>
      <trkpt lat="43.27516" lon="0.0835">
        <ele>279</ele>
        <time>2020-07-24T07:04:57Z</time>
      </trkpt>
      <trkpt lat="43.27503" lon="0.08347">
        <ele>279</ele>
        <time>2020-07-24T07:05:06Z</time>
      </trkpt>
      <trkpt lat="43.2749" lon="0.08347">
        <ele>278</ele>
        <time>2020-07-24T07:05:15Z</time>
      </trkpt>
      <trkpt lat="43.27482" lon="0.08352">
        <ele>278</ele>
        <time>2020-07-24T07:05:21Z</time>
      </trkpt>
      <trkpt lat="43.27477" lon="0.08354">
        <ele>278</ele>
        <time>2020-07-24T07:05:25Z</time>
      </trkpt>
      <trkpt lat="43.27469" lon="0.08359">
        <ele>278</ele>
        <time>2020-07-24T07:05:33Z</time>
      </trkpt>
      <trkpt lat="43.27462" lon="0.08364">
        <ele>278</ele>
        <time>2020-07-24T07:05:39Z</time>
      </trkpt>
      <trkpt lat="43.27451" lon="0.08365">
        <ele>277</ele>
        <time>2020-07-24T07:05:47Z</time>
      </trkpt>
      <trkpt lat="43.27441" lon="0.08366">
        <ele>277</ele>
        <time>2020-07-24T07:05:53Z</time>
      </trkpt>
      <trkpt lat="43.27436" lon="0.08366">
        <ele>277</ele>
        <time>2020-07-24T07:05:56Z</time>
      </trkpt>
      <trkpt lat="43.27398" lon="0.08374">
        <ele>277</ele>
        <time>2020-07-24T07:06:28Z</time>
      </trkpt>
      <trkpt lat="43.27382" lon="0.08377">
        <ele>277</ele>
        <time>2020-07-24T07:06:43Z</time>
      </trkpt>
      <trkpt lat="43.27375" lon="0.08376">
        <ele>277</ele>
        <time>2020-07-24T07:06:49Z</time>
      </trkpt>
      <trkpt lat="43.2733" lon="0.0838">
        <ele>278</ele>
        <time>2020-07-24T07:07:21Z</time>
      </trkpt>
      <trkpt lat="43.27301" lon="0.08384">
        <ele>279</ele>
        <time>2020-07-24T07:07:39Z</time>
      </trkpt>
      <trkpt lat="43.27296" lon="0.08382">
        <ele>279</ele>
        <time>2020-07-24T07:07:42Z</time>
      </trkpt>
      <trkpt lat="43.27268" lon="0.08379">
        <ele>280</ele>
        <time>2020-07-24T07:08:05Z</time>
      </trkpt>
      <trkpt lat="43.27224" lon="0.08364">
        <ele>280</ele>
        <time>2020-07-24T07:08:35Z</time>
      </trkpt>
      <trkpt lat="43.27211" lon="0.08354">
        <ele>280</ele>
        <time>2020-07-24T07:08:45Z</time>
      </trkpt>
      <trkpt lat="43.27201" lon="0.08347">
        <ele>279</ele>
        <time>2020-07-24T07:08:52Z</time>
      </trkpt>
      <trkpt lat="43.27187" lon="0.0834">
        <ele>278</ele>
        <time>2020-07-24T07:09:04Z</time>
      </trkpt>
      <trkpt lat="43.27181" lon="0.08336">
        <ele>278</ele>
        <time>2020-07-24T07:09:10Z</time>
      </trkpt>
      <trkpt lat="43.27171" lon="0.08337">
        <ele>277</ele>
        <time>2020-07-24T07:09:17Z</time>
      </trkpt>
      <trkpt lat="43.27152" lon="0.08337">
        <ele>277</ele>
        <time>2020-07-24T07:09:28Z</time>
      </trkpt>
      <trkpt lat="43.27123" lon="0.08348">
        <ele>277</ele>
        <time>2020-07-24T07:09:50Z</time>
      </trkpt>
      <trkpt lat="43.27112" lon="0.08349">
        <ele>277</ele>
        <time>2020-07-24T07:09:57Z</time>
      </trkpt>
      <trkpt lat="43.27104" lon="0.08357">
        <ele>278</ele>
        <time>2020-07-24T07:10:03Z</time>
      </trkpt>
      <trkpt lat="43.27078" lon="0.08377">
        <ele>279</ele>
        <time>2020-07-24T07:10:27Z</time>
      </trkpt>
      <trkpt lat="43.27074" lon="0.08381">
        <ele>280</ele>
        <time>2020-07-24T07:10:32Z</time>
      </trkpt>
      <trkpt lat="43.27054" lon="0.08391">
        <ele>280</ele>
        <time>2020-07-24T07:10:46Z</time>
      </trkpt>
      <trkpt lat="43.2703" lon="0.08389">
        <ele>281</ele>
        <time>2020-07-24T07:11:01Z</time>
      </trkpt>
      <trkpt lat="43.27026" lon="0.08386">
        <ele>281</ele>
        <time>2020-07-24T07:11:05Z</time>
      </trkpt>
      <trkpt lat="43.27021" lon="0.08385">
        <ele>281</ele>
        <time>2020-07-24T07:11:08Z</time>
      </trkpt>
      <trkpt lat="43.27013" lon="0.08377">
        <ele>281</ele>
        <time>2020-07-24T07:11:14Z</time>
      </trkpt>
      <trkpt lat="43.27009" lon="0.08376">
        <ele>281</ele>
        <time>2020-07-24T07:11:17Z</time>
      </trkpt>
      <trkpt lat="43.26995" lon="0.08373">
        <ele>281</ele>
        <time>2020-07-24T07:11:29Z</time>
      </trkpt>
      <trkpt lat="43.26963" lon="0.08379">
        <ele>281</ele>
        <time>2020-07-24T07:11:57Z</time>
      </trkpt>
      <trkpt lat="43.26949" lon="0.08386">
        <ele>281</ele>
        <time>2020-07-24T07:12:07Z</time>
      </trkpt>
      <trkpt lat="43.26944" lon="0.08386">
        <ele>281</ele>
        <time>2020-07-24T07:12:11Z</time>
      </trkpt>
      <trkpt lat="43.26899" lon="0.08402">
        <ele>282</ele>
        <time>2020-07-24T07:12:45Z</time>
      </trkpt>
      <trkpt lat="43.26885" lon="0.08414">
        <ele>282</ele>
        <time>2020-07-24T07:12:57Z</time>
      </trkpt>
      <trkpt lat="43.26876" lon="0.08419">
        <ele>282</ele>
        <time>2020-07-24T07:13:04Z</time>
      </trkpt>
      <trkpt lat="43.2687" lon="0.08418">
        <ele>282</ele>
        <time>2020-07-24T07:13:08Z</time>
      </trkpt>
      <trkpt lat="43.26859" lon="0.08422">
        <ele>283</ele>
        <time>2020-07-24T07:13:18Z</time>
      </trkpt>
      <trkpt lat="43.26854" lon="0.08423">
        <ele>283</ele>
        <time>2020-07-24T07:13:22Z</time>
      </trkpt>
      <trkpt lat="43.2684" lon="0.08431">
        <ele>283</ele>
        <time>2020-07-24T07:13:33Z</time>
      </trkpt>
      <trkpt lat="43.26835" lon="0.08432">
        <ele>283</ele>
        <time>2020-07-24T07:13:37Z</time>
      </trkpt>
      <trkpt lat="43.2683" lon="0.08436">
        <ele>283</ele>
        <time>2020-07-24T07:13:42Z</time>
      </trkpt>
      <trkpt lat="43.2682" lon="0.08434">
        <ele>283</ele>
        <time>2020-07-24T07:13:48Z</time>
      </trkpt>
      <trkpt lat="43.26793" lon="0.08444">
        <ele>283</ele>
        <time>2020-07-24T07:14:09Z</time>
      </trkpt>
      <trkpt lat="43.26788" lon="0.08448">
        <ele>283</ele>
        <time>2020-07-24T07:14:13Z</time>
      </trkpt>
      <trkpt lat="43.26767" lon="0.08453">
        <ele>283</ele>
        <time>2020-07-24T07:14:28Z</time>
      </trkpt>
      <trkpt lat="43.26757" lon="0.08453">
        <ele>284</ele>
        <time>2020-07-24T07:14:36Z</time>
      </trkpt>
      <trkpt lat="43.26745" lon="0.08454">
        <ele>284</ele>
        <time>2020-07-24T07:14:44Z</time>
      </trkpt>
      <trkpt lat="43.2674" lon="0.08453">
        <ele>284</ele>
        <time>2020-07-24T07:14:48Z</time>
      </trkpt>
      <trkpt lat="43.26729" lon="0.08454">
        <ele>284</ele>
        <time>2020-07-24T07:14:57Z</time>
      </trkpt>
      <trkpt lat="43.26696" lon="0.08446">
        <ele>284</ele>
        <time>2020-07-24T07:15:22Z</time>
      </trkpt>
      <trkpt lat="43.2669" lon="0.08446">
        <ele>284</ele>
        <time>2020-07-24T07:15:26Z</time>
      </trkpt>
      <trkpt lat="43.26675" lon="0.08439">
        <ele>284</ele>
        <time>2020-07-24T07:15:35Z</time>
      </trkpt>
      <trkpt lat="43.26663" lon="0.08438">
        <ele>284</ele>
        <time>2020-07-24T07:15:42Z</time>
      </trkpt>
      <trkpt lat="43.26647" lon="0.08434">
        <ele>284</ele>
        <time>2020-07-24T07:15:53Z</time>
      </trkpt>
      <trkpt lat="43.26632" lon="0.08422">
        <ele>284</ele>
        <time>2020-07-24T07:16:08Z</time>
      </trkpt>
      <trkpt lat="43.26628" lon="0.08417">
        <ele>284</ele>
        <time>2020-07-24T07:16:13Z</time>
      </trkpt>
      <trkpt lat="43.26622" lon="0.08415">
        <ele>285</ele>
        <time>2020-07-24T07:16:17Z</time>
      </trkpt>
      <trkpt lat="43.26617" lon="0.08414">
        <ele>284</ele>
        <time>2020-07-24T07:16:20Z</time>
      </trkpt>
      <trkpt lat="43.26583" lon="0.08397">
        <ele>285</ele>
        <time>2020-07-24T07:16:44Z</time>
      </trkpt>
      <trkpt lat="43.26572" lon="0.08395">
        <ele>285</ele>
        <time>2020-07-24T07:16:52Z</time>
      </trkpt>
      <trkpt lat="43.26551" lon="0.0838">
        <ele>286</ele>
        <time>2020-07-24T07:17:09Z</time>
      </trkpt>
      <trkpt lat="43.26544" lon="0.08371">
        <ele>286</ele>
        <time>2020-07-24T07:17:19Z</time>
      </trkpt>
      <trkpt lat="43.26538" lon="0.08366">
        <ele>286</ele>
        <time>2020-07-24T07:17:24Z</time>
      </trkpt>
      <trkpt lat="43.26521" lon="0.08357">
        <ele>286</ele>
        <time>2020-07-24T07:17:35Z</time>
      </trkpt>
      <trkpt lat="43.26503" lon="0.08335">
        <ele>286</ele>
        <time>2020-07-24T07:17:47Z</time>
      </trkpt>
      <trkpt lat="43.26498" lon="0.08333">
        <ele>286</ele>
        <time>2020-07-24T07:17:50Z</time>
      </trkpt>
      <trkpt lat="43.26493" lon="0.08328">
        <ele>286</ele>
        <time>2020-07-24T07:17:53Z</time>
      </trkpt>
      <trkpt lat="43.26489" lon="0.08321">
        <ele>287</ele>
        <time>2020-07-24T07:17:57Z</time>
      </trkpt>
      <trkpt lat="43.26485" lon="0.08317">
        <ele>287</ele>
        <time>2020-07-24T07:18:01Z</time>
      </trkpt>
      <trkpt lat="43.26479" lon="0.08315">
        <ele>287</ele>
        <time>2020-07-24T07:18:05Z</time>
      </trkpt>
      <trkpt lat="43.26466" lon="0.08314">
        <ele>287</ele>
        <time>2020-07-24T07:18:16Z</time>
      </trkpt>
      <trkpt lat="43.26458" lon="0.08317">
        <ele>287</ele>
        <time>2020-07-24T07:18:24Z</time>
      </trkpt>
      <trkpt lat="43.26415" lon="0.0832">
        <ele>287</ele>
        <time>2020-07-24T07:18:54Z</time>
      </trkpt>
      <trkpt lat="43.26368" lon="0.08334">
        <ele>287</ele>
        <time>2020-07-24T07:19:30Z</time>
      </trkpt>
      <trkpt lat="43.26344" lon="0.08332">
        <ele>287</ele>
        <time>2020-07-24T07:19:46Z</time>
      </trkpt>
      <trkpt lat="43.26313" lon="0.08338">
        <ele>288</ele>
        <time>2020-07-24T07:20:08Z</time>
      </trkpt>
      <trkpt lat="43.26283" lon="0.08336">
        <ele>288</ele>
        <time>2020-07-24T07:20:35Z</time>
      </trkpt>
      <trkpt lat="43.26246" lon="0.08347">
        <ele>288</ele>
        <time>2020-07-24T07:21:03Z</time>
      </trkpt>
      <trkpt lat="43.26234" lon="0.08348">
        <ele>288</ele>
        <time>2020-07-24T07:21:11Z</time>
      </trkpt>
      <trkpt lat="43.26223" lon="0.08351">
        <ele>288</ele>
        <time>2020-07-24T07:21:20Z</time>
      </trkpt>
      <trkpt lat="43.26179" lon="0.08356">
        <ele>289</ele>
        <time>2020-07-24T07:21:51Z</time>
      </trkpt>
      <trkpt lat="43.26132" lon="0.0836">
        <ele>290</ele>
        <time>2020-07-24T07:22:22Z</time>
      </trkpt>
      <trkpt lat="43.26091" lon="0.08368">
        <ele>290</ele>
        <time>2020-07-24T07:22:54Z</time>
      </trkpt>
      <trkpt lat="43.26075" lon="0.08375">
        <ele>290</ele>
        <time>2020-07-24T07:23:01Z</time>
      </trkpt>
      <trkpt lat="43.2606" lon="0.08372">
        <ele>291</ele>
        <time>2020-07-24T07:23:14Z</time>
      </trkpt>
      <trkpt lat="43.26049" lon="0.08368">
        <ele>291</ele>
        <time>2020-07-24T07:23:24Z</time>
      </trkpt>
      <trkpt lat="43.26027" lon="0.08375">
        <ele>291</ele>
        <time>2020-07-24T07:23:37Z</time>
      </trkpt>
      <trkpt lat="43.26016" lon="0.08379">
        <ele>291</ele>
        <time>2020-07-24T07:23:46Z</time>
      </trkpt>
      <trkpt lat="43.25967" lon="0.08374">
        <ele>291</ele>
        <time>2020-07-24T07:24:21Z</time>
      </trkpt>
      <trkpt lat="43.25961" lon="0.08372">
        <ele>291</ele>
        <time>2020-07-24T07:24:26Z</time>
      </trkpt>
      <trkpt lat="43.25955" lon="0.08372">
        <ele>291</ele>
        <time>2020-07-24T07:24:30Z</time>
      </trkpt>
      <trkpt lat="43.2594" lon="0.08366">
        <ele>291</ele>
        <time>2020-07-24T07:24:45Z</time>
      </trkpt>
      <trkpt lat="43.25915" lon="0.0837">
        <ele>291</ele>
        <time>2020-07-24T07:25:01Z</time>
      </trkpt>
      <trkpt lat="43.25907" lon="0.08365">
        <ele>292</ele>
        <time>2020-07-24T07:25:09Z</time>
      </trkpt>
      <trkpt lat="43.25881" lon="0.08364">
        <ele>292</ele>
        <time>2020-07-24T07:25:27Z</time>
      </trkpt>
      <trkpt lat="43.2587" lon="0.0836">
        <ele>292</ele>
        <time>2020-07-24T07:25:37Z</time>
      </trkpt>
      <trkpt lat="43.25865" lon="0.08361">
        <ele>292</ele>
        <time>2020-07-24T07:25:40Z</time>
      </trkpt>
      <trkpt lat="43.25839" lon="0.08368">
        <ele>292</ele>
        <time>2020-07-24T07:25:56Z</time>
      </trkpt>
      <trkpt lat="43.25826" lon="0.08369">
        <ele>292</ele>
        <time>2020-07-24T07:26:04Z</time>
      </trkpt>
      <trkpt lat="43.25815" lon="0.08366">
        <ele>292</ele>
        <time>2020-07-24T07:26:11Z</time>
      </trkpt>
      <trkpt lat="43.2581" lon="0.08365">
        <ele>292</ele>
        <time>2020-07-24T07:26:14Z</time>
      </trkpt>
      <trkpt lat="43.25806" lon="0.08361">
        <ele>292</ele>
        <time>2020-07-24T07:26:18Z</time>
      </trkpt>
      <trkpt lat="43.25758" lon="0.08362">
        <ele>293</ele>
        <time>2020-07-24T07:26:50Z</time>
      </trkpt>
      <trkpt lat="43.25725" lon="0.08365">
        <ele>293</ele>
        <time>2020-07-24T07:27:12Z</time>
      </trkpt>
      <trkpt lat="43.25719" lon="0.08364">
        <ele>293</ele>
        <time>2020-07-24T07:27:17Z</time>
      </trkpt>
      <trkpt lat="43.25686" lon="0.08375">
        <ele>293</ele>
        <time>2020-07-24T07:27:39Z</time>
      </trkpt>
      <trkpt lat="43.2567" lon="0.08375">
        <ele>293</ele>
        <time>2020-07-24T07:27:51Z</time>
      </trkpt>
      <trkpt lat="43.25663" lon="0.08373">
        <ele>293</ele>
        <time>2020-07-24T07:28:00Z</time>
      </trkpt>
      <trkpt lat="43.25643" lon="0.08373">
        <ele>293</ele>
        <time>2020-07-24T07:28:17Z</time>
      </trkpt>
      <trkpt lat="43.25636" lon="0.08376">
        <ele>293</ele>
        <time>2020-07-24T07:28:21Z</time>
      </trkpt>
      <trkpt lat="43.25625" lon="0.08383">
        <ele>293</ele>
        <time>2020-07-24T07:28:27Z</time>
      </trkpt>
      <trkpt lat="43.2562" lon="0.08383">
        <ele>293</ele>
        <time>2020-07-24T07:28:31Z</time>
      </trkpt>
      <trkpt lat="43.25613" lon="0.0838">
        <ele>294</ele>
        <time>2020-07-24T07:28:40Z</time>
      </trkpt>
      <trkpt lat="43.25608" lon="0.0838">
        <ele>294</ele>
        <time>2020-07-24T07:28:43Z</time>
      </trkpt>
      <trkpt lat="43.25592" lon="0.08385">
        <ele>294</ele>
        <time>2020-07-24T07:28:53Z</time>
      </trkpt>
      <trkpt lat="43.25555" lon="0.0838">
        <ele>294</ele>
        <time>2020-07-24T07:29:16Z</time>
      </trkpt>
      <trkpt lat="43.25545" lon="0.08383">
        <ele>293</ele>
        <time>2020-07-24T07:29:25Z</time>
      </trkpt>
      <trkpt lat="43.2554" lon="0.08382">
        <ele>293</ele>
        <time>2020-07-24T07:29:29Z</time>
      </trkpt>
      <trkpt lat="43.25525" lon="0.08387">
        <ele>294</ele>
        <time>2020-07-24T07:29:41Z</time>
      </trkpt>
      <trkpt lat="43.2552" lon="0.0839">
        <ele>294</ele>
        <time>2020-07-24T07:29:44Z</time>
      </trkpt>
      <trkpt lat="43.25505" lon="0.08397">
        <ele>294</ele>
        <time>2020-07-24T07:29:53Z</time>
      </trkpt>
      <trkpt lat="43.2549" lon="0.084">
        <ele>294</ele>
        <time>2020-07-24T07:30:03Z</time>
      </trkpt>
      <trkpt lat="43.25469" lon="0.08407">
        <ele>294</ele>
        <time>2020-07-24T07:30:21Z</time>
      </trkpt>
      <trkpt lat="43.25464" lon="0.0841">
        <ele>294</ele>
        <time>2020-07-24T07:30:25Z</time>
      </trkpt>
      <trkpt lat="43.25459" lon="0.08409">
        <ele>294</ele>
        <time>2020-07-24T07:30:30Z</time>
      </trkpt>
      <trkpt lat="43.25443" lon="0.0841">
        <ele>293</ele>
        <time>2020-07-24T07:30:45Z</time>
      </trkpt>
      <trkpt lat="43.25421" lon="0.08412">
        <ele>293</ele>
        <time>2020-07-24T07:30:57Z</time>
      </trkpt>
      <trkpt lat="43.25415" lon="0.08414">
        <ele>293</ele>
        <time>2020-07-24T07:31:01Z</time>
      </trkpt>
      <trkpt lat="43.254" lon="0.08416">
        <ele>293</ele>
        <time>2020-07-24T07:31:15Z</time>
      </trkpt>
      <trkpt lat="43.25385" lon="0.08415">
        <ele>294</ele>
        <time>2020-07-24T07:31:29Z</time>
      </trkpt>
      <trkpt lat="43.25378" lon="0.08417">
        <ele>294</ele>
        <time>2020-07-24T07:31:35Z</time>
      </trkpt>
      <trkpt lat="43.2536" lon="0.08416">
        <ele>295</ele>
        <time>2020-07-24T07:31:46Z</time>
      </trkpt>
      <trkpt lat="43.25354" lon="0.08414">
        <ele>295</ele>
        <time>2020-07-24T07:31:50Z</time>
      </trkpt>
      <trkpt lat="43.25328" lon="0.08405">
        <ele>294</ele>
        <time>2020-07-24T07:32:11Z</time>
      </trkpt>
      <trkpt lat="43.25322" lon="0.08402">
        <ele>294</ele>
        <time>2020-07-24T07:32:16Z</time>
      </trkpt>
      <trkpt lat="43.25309" lon="0.08404">
        <ele>294</ele>
        <time>2020-07-24T07:32:24Z</time>
      </trkpt>
      <trkpt lat="43.25291" lon="0.0841">
        <ele>295</ele>
        <time>2020-07-24T07:32:34Z</time>
      </trkpt>
      <trkpt lat="43.25277" lon="0.08419">
        <ele>295</ele>
        <time>2020-07-24T07:32:44Z</time>
      </trkpt>
      <trkpt lat="43.25271" lon="0.08421">
        <ele>295</ele>
        <time>2020-07-24T07:32:47Z</time>
      </trkpt>
      <trkpt lat="43.25268" lon="0.08424">
        <ele>295</ele>
        <time>2020-07-24T07:32:52Z</time>
      </trkpt>
      <trkpt lat="43.25263" lon="0.08421">
        <ele>295</ele>
        <time>2020-07-24T07:32:56Z</time>
      </trkpt>
      <trkpt lat="43.25252" lon="0.08407">
        <ele>295</ele>
        <time>2020-07-24T07:33:07Z</time>
      </trkpt>
      <trkpt lat="43.25251" lon="0.08398">
        <ele>296</ele>
        <time>2020-07-24T07:33:12Z</time>
      </trkpt>
      <trkpt lat="43.25248" lon="0.08393">
        <ele>296</ele>
        <time>2020-07-24T07:33:14Z</time>
      </trkpt>
      <trkpt lat="43.25245" lon="0.08387">
        <ele>296</ele>
        <time>2020-07-24T07:33:17Z</time>
      </trkpt>
      <trkpt lat="43.25242" lon="0.08382">
        <ele>296</ele>
        <time>2020-07-24T07:33:21Z</time>
      </trkpt>
      <trkpt lat="43.2524" lon="0.08375">
        <ele>297</ele>
        <time>2020-07-24T07:33:24Z</time>
      </trkpt>
      <trkpt lat="43.25239" lon="0.08369">
        <ele>297</ele>
        <time>2020-07-24T07:33:28Z</time>
      </trkpt>
      <trkpt lat="43.2523" lon="0.08366">
        <ele>297</ele>
        <time>2020-07-24T07:33:36Z</time>
      </trkpt>
      <trkpt lat="43.25203" lon="0.08369">
        <ele>297</ele>
        <time>2020-07-24T07:33:59Z</time>
      </trkpt>
      <trkpt lat="43.25177" lon="0.08355">
        <ele>298</ele>
        <time>2020-07-24T07:34:16Z</time>
      </trkpt>
      <trkpt lat="43.25161" lon="0.08342">
        <ele>297</ele>
        <time>2020-07-24T07:34:29Z</time>
      </trkpt>
      <trkpt lat="43.25115" lon="0.08345">
        <ele>298</ele>
        <time>2020-07-24T07:35:00Z</time>
      </trkpt>
      <trkpt lat="43.25102" lon="0.08339">
        <ele>297</ele>
        <time>2020-07-24T07:35:09Z</time>
      </trkpt>
      <trkpt lat="43.25089" lon="0.08336">
        <ele>298</ele>
        <time>2020-07-24T07:35:19Z</time>
      </trkpt>
      <trkpt lat="43.25071" lon="0.08331">
        <ele>298</ele>
        <time>2020-07-24T07:35:33Z</time>
      </trkpt>
      <trkpt lat="43.25031" lon="0.08328">
        <ele>298</ele>
        <time>2020-07-24T07:36:04Z</time>
      </trkpt>
      <trkpt lat="43.25002" lon="0.08322">
        <ele>299</ele>
        <time>2020-07-24T07:36:28Z</time>
      </trkpt>
      <trkpt lat="43.24963" lon="0.08319">
        <ele>299</ele>
        <time>2020-07-24T07:36:53Z</time>
      </trkpt>
      <trkpt lat="43.24954" lon="0.08317">
        <ele>299</ele>
        <time>2020-07-24T07:37:00Z</time>
      </trkpt>
      <trkpt lat="43.24949" lon="0.08317">
        <ele>299</ele>
        <time>2020-07-24T07:37:04Z</time>
      </trkpt>
      <trkpt lat="43.24944" lon="0.0832">
        <ele>298</ele>
        <time>2020-07-24T07:37:09Z</time>
      </trkpt>
      <trkpt lat="43.24935" lon="0.08319">
        <ele>298</ele>
        <time>2020-07-24T07:37:15Z</time>
      </trkpt>
      <trkpt lat="43.24916" lon="0.08324">
        <ele>298</ele>
        <time>2020-07-24T07:37:30Z</time>
      </trkpt>
      <trkpt lat="43.24868" lon="0.08325">
        <ele>299</ele>
        <time>2020-07-24T07:38:02Z</time>
      </trkpt>
      <trkpt lat="43.24843" lon="0.08325">
        <ele>299</ele>
        <time>2020-07-24T07:38:20Z</time>
      </trkpt>
      <trkpt lat="43.2484" lon="0.08328">
        <ele>299</ele>
        <time>2020-07-24T07:38:25Z</time>
      </trkpt>
      <trkpt lat="43.24826" lon="0.08332">
        <ele>299</ele>
        <time>2020-07-24T07:38:34Z</time>
      </trkpt>
      <trkpt lat="43.24818" lon="0.08335">
        <ele>299</ele>
        <time>2020-07-24T07:38:38Z</time>
      </trkpt>
      <trkpt lat="43.24815" lon="0.08338">
        <ele>299</ele>
        <time>2020-07-24T07:38:41Z</time>
      </trkpt>
      <trkpt lat="43.24811" lon="0.08342">
        <ele>299</ele>
        <time>2020-07-24T07:38:45Z</time>
      </trkpt>
      <trkpt lat="43.24798" lon="0.08347">
        <ele>300</ele>
        <time>2020-07-24T07:38:56Z</time>
      </trkpt>
      <trkpt lat="43.24794" lon="0.08347">
        <ele>300</ele>
        <time>2020-07-24T07:38:59Z</time>
      </trkpt>
      <trkpt lat="43.24786" lon="0.08346">
        <ele>300</ele>
        <time>2020-07-24T07:39:05Z</time>
      </trkpt>
      <trkpt lat="43.24781" lon="0.08345">
        <ele>300</ele>
        <time>2020-07-24T07:39:08Z</time>
      </trkpt>
      <trkpt lat="43.24776" lon="0.08347">
        <ele>300</ele>
        <time>2020-07-24T07:39:11Z</time>
      </trkpt>
      <trkpt lat="43.24772" lon="0.08346">
        <ele>300</ele>
        <time>2020-07-24T07:39:15Z</time>
      </trkpt>
      <trkpt lat="43.24756" lon="0.08345">
        <ele>300</ele>
        <time>2020-07-24T07:39:28Z</time>
      </trkpt>
      <trkpt lat="43.24743" lon="0.08349">
        <ele>300</ele>
        <time>2020-07-24T07:39:39Z</time>
      </trkpt>
      <trkpt lat="43.24737" lon="0.08349">
        <ele>300</ele>
        <time>2020-07-24T07:39:43Z</time>
      </trkpt>
      <trkpt lat="43.24732" lon="0.08348">
        <ele>300</ele>
        <time>2020-07-24T07:39:46Z</time>
      </trkpt>
      <trkpt lat="43.24696" lon="0.08348">
        <ele>300</ele>
        <time>2020-07-24T07:40:10Z</time>
      </trkpt>
      <trkpt lat="43.24681" lon="0.08341">
        <ele>299</ele>
        <time>2020-07-24T07:40:23Z</time>
      </trkpt>
      <trkpt lat="43.24676" lon="0.08333">
        <ele>299</ele>
        <time>2020-07-24T07:40:33Z</time>
      </trkpt>
      <trkpt lat="43.24668" lon="0.0833">
        <ele>299</ele>
        <time>2020-07-24T07:40:37Z</time>
      </trkpt>
      <trkpt lat="43.24656" lon="0.08333">
        <ele>300</ele>
        <time>2020-07-24T07:40:46Z</time>
      </trkpt>
      <trkpt lat="43.24651" lon="0.08332">
        <ele>300</ele>
        <time>2020-07-24T07:40:50Z</time>
      </trkpt>
      <trkpt lat="43.24646" lon="0.08329">
        <ele>300</ele>
        <time>2020-07-24T07:40:54Z</time>
      </trkpt>
      <trkpt lat="43.24634" lon="0.08329">
        <ele>300</ele>
        <time>2020-07-24T07:41:00Z</time>
      </trkpt>
      <trkpt lat="43.24629" lon="0.08327">
        <ele>300</ele>
        <time>2020-07-24T07:41:03Z</time>
      </trkpt>
      <trkpt lat="43.2461" lon="0.08325">
        <ele>300</ele>
        <time>2020-07-24T07:41:15Z</time>
      </trkpt>
      <trkpt lat="43.24605" lon="0.08323">
        <ele>300</ele>
        <time>2020-07-24T07:41:19Z</time>
      </trkpt>
      <trkpt lat="43.24597" lon="0.08317">
        <ele>300</ele>
        <time>2020-07-24T07:41:25Z</time>
      </trkpt>
      <trkpt lat="43.24588" lon="0.08315">
        <ele>300</ele>
        <time>2020-07-24T07:41:32Z</time>
      </trkpt>
      <trkpt lat="43.24575" lon="0.08306">
        <ele>300</ele>
        <time>2020-07-24T07:41:43Z</time>
      </trkpt>
      <trkpt lat="43.2457" lon="0.08305">
        <ele>300</ele>
        <time>2020-07-24T07:41:46Z</time>
      </trkpt>
      <trkpt lat="43.24549" lon="0.08291">
        <ele>300</ele>
        <time>2020-07-24T07:42:02Z</time>
      </trkpt>
      <trkpt lat="43.24537" lon="0.08273">
        <ele>300</ele>
        <time>2020-07-24T07:42:14Z</time>
      </trkpt>
      <trkpt lat="43.24511" lon="0.08267">
        <ele>300</ele>
        <time>2020-07-24T07:42:33Z</time>
      </trkpt>
      <trkpt lat="43.24503" lon="0.08259">
        <ele>300</ele>
        <time>2020-07-24T07:42:44Z</time>
      </trkpt>
      <trkpt lat="43.24496" lon="0.08258">
        <ele>300</ele>
        <time>2020-07-24T07:42:51Z</time>
      </trkpt>
      <trkpt lat="43.24485" lon="0.08257">
        <ele>300</ele>
        <time>2020-07-24T07:42:59Z</time>
      </trkpt>
      <trkpt lat="43.2448" lon="0.08255">
        <ele>300</ele>
        <time>2020-07-24T07:43:03Z</time>
      </trkpt>
      <trkpt lat="43.24475" lon="0.08254">
        <ele>300</ele>
        <time>2020-07-24T07:43:07Z</time>
      </trkpt>
      <trkpt lat="43.24456" lon="0.08258">
        <ele>300</ele>
        <time>2020-07-24T07:43:15Z</time>
      </trkpt>
      <trkpt lat="43.24445" lon="0.08265">
        <ele>301</ele>
        <time>2020-07-24T07:43:28Z</time>
      </trkpt>
      <trkpt lat="43.24434" lon="0.08263">
        <ele>300</ele>
        <time>2020-07-24T07:43:36Z</time>
      </trkpt>
      <trkpt lat="43.24429" lon="0.08263">
        <ele>300</ele>
        <time>2020-07-24T07:43:39Z</time>
      </trkpt>
      <trkpt lat="43.24414" lon="0.08268">
        <ele>300</ele>
        <time>2020-07-24T07:43:50Z</time>
      </trkpt>
      <trkpt lat="43.24407" lon="0.0827">
        <ele>300</ele>
        <time>2020-07-24T07:43:56Z</time>
      </trkpt>
      <trkpt lat="43.24396" lon="0.0827">
        <ele>300</ele>
        <time>2020-07-24T07:44:04Z</time>
      </trkpt>
      <trkpt lat="43.2438" lon="0.0827">
        <ele>301</ele>
        <time>2020-07-24T07:44:16Z</time>
      </trkpt>
      <trkpt lat="43.24375" lon="0.08269">
        <ele>300</ele>
        <time>2020-07-24T07:44:21Z</time>
      </trkpt>
      <trkpt lat="43.24363" lon="0.08273">
        <ele>300</ele>
        <time>2020-07-24T07:44:28Z</time>
      </trkpt>
      <trkpt lat="43.24347" lon="0.08269">
        <ele>301</ele>
        <time>2020-07-24T07:44:38Z</time>
      </trkpt>
      <trkpt lat="43.24341" lon="0.0827">
        <ele>301</ele>
        <time>2020-07-24T07:44:42Z</time>
      </trkpt>
      <trkpt lat="43.24336" lon="0.08268">
        <ele>301</ele>
        <time>2020-07-24T07:44:46Z</time>
      </trkpt>
      <trkpt lat="43.24327" lon="0.08261">
        <ele>301</ele>
        <time>2020-07-24T07:44:54Z</time>
      </trkpt>
      <trkpt lat="43.2431" lon="0.08258">
        <ele>302</ele>
        <time>2020-07-24T07:45:08Z</time>
      </trkpt>
      <trkpt lat="43.24299" lon="0.08253">
        <ele>302</ele>
        <time>2020-07-24T07:45:18Z</time>
      </trkpt>
      <trkpt lat="43.24292" lon="0.08253">
        <ele>302</ele>
        <time>2020-07-24T07:45:22Z</time>
      </trkpt>
      <trkpt lat="43.24282" lon="0.08249">
        <ele>303</ele>
        <time>2020-07-24T07:45:29Z</time>
      </trkpt>
      <trkpt lat="43.24232" lon="0.0825">
        <ele>303</ele>
        <time>2020-07-24T07:46:04Z</time>
      </trkpt>
      <trkpt lat="43.24179" lon="0.08253">
        <ele>304</ele>
        <time>2020-07-24T07:46:36Z</time>
      </trkpt>
      <trkpt lat="43.2415" lon="0.08257">
        <ele>303</ele>
        <time>2020-07-24T07:46:55Z</time>
      </trkpt>
      <trkpt lat="43.24145" lon="0.08259">
        <ele>304</ele>
        <time>2020-07-24T07:46:59Z</time>
      </trkpt>
      <trkpt lat="43.24135" lon="0.08259">
        <ele>304</ele>
        <time>2020-07-24T07:47:06Z</time>
      </trkpt>
      <trkpt lat="43.24131" lon="0.08262">
        <ele>304</ele>
        <time>2020-07-24T07:47:09Z</time>
      </trkpt>
      <trkpt lat="43.24129" lon="0.08267">
        <ele>304</ele>
        <time>2020-07-24T07:47:12Z</time>
      </trkpt>
      <trkpt lat="43.24123" lon="0.08268">
        <ele>304</ele>
        <time>2020-07-24T07:47:19Z</time>
      </trkpt>
      <trkpt lat="43.24118" lon="0.08269">
        <ele>304</ele>
        <time>2020-07-24T07:47:22Z</time>
      </trkpt>
      <trkpt lat="43.24104" lon="0.08267">
        <ele>304</ele>
        <time>2020-07-24T07:47:31Z</time>
      </trkpt>
      <trkpt lat="43.24091" lon="0.08271">
        <ele>304</ele>
        <time>2020-07-24T07:47:38Z</time>
      </trkpt>
      <trkpt lat="43.24083" lon="0.08276">
        <ele>304</ele>
        <time>2020-07-24T07:47:45Z</time>
      </trkpt>
      <trkpt lat="43.24077" lon="0.08283">
        <ele>305</ele>
        <time>2020-07-24T07:47:51Z</time>
      </trkpt>
      <trkpt lat="43.24073" lon="0.08284">
        <ele>304</ele>
        <time>2020-07-24T07:47:54Z</time>
      </trkpt>
      <trkpt lat="43.24059" lon="0.08294">
        <ele>305</ele>
        <time>2020-07-24T07:48:05Z</time>
      </trkpt>
      <trkpt lat="43.24047" lon="0.083">
        <ele>305</ele>
        <time>2020-07-24T07:48:13Z</time>
      </trkpt>
      <trkpt lat="43.24043" lon="0.08303">
        <ele>305</ele>
        <time>2020-07-24T07:48:16Z</time>
      </trkpt>
      <trkpt lat="43.24038" lon="0.08305">
        <ele>304</ele>
        <time>2020-07-24T07:48:19Z</time>
      </trkpt>
      <trkpt lat="43.24028" lon="0.08314">
        <ele>304</ele>
        <time>2020-07-24T07:48:28Z</time>
      </trkpt>
      <trkpt lat="43.24018" lon="0.08324">
        <ele>305</ele>
        <time>2020-07-24T07:48:38Z</time>
      </trkpt>
      <trkpt lat="43.24001" lon="0.08333">
        <ele>305</ele>
        <time>2020-07-24T07:48:52Z</time>
      </trkpt>
      <trkpt lat="43.23984" lon="0.08327">
        <ele>304</ele>
        <time>2020-07-24T07:49:11Z</time>
      </trkpt>
      <trkpt lat="43.23978" lon="0.08329">
        <ele>304</ele>
        <time>2020-07-24T07:49:19Z</time>
      </trkpt>
      <trkpt lat="43.23971" lon="0.08329">
        <ele>304</ele>
        <time>2020-07-24T07:49:25Z</time>
      </trkpt>
      <trkpt lat="43.23953" lon="0.08322">
        <ele>304</ele>
        <time>2020-07-24T07:49:35Z</time>
      </trkpt>
      <trkpt lat="43.23945" lon="0.08324">
        <ele>304</ele>
        <time>2020-07-24T07:49:38Z</time>
      </trkpt>
      <trkpt lat="43.2394" lon="0.08327">
        <ele>304</ele>
        <time>2020-07-24T07:49:40Z</time>
      </trkpt>
      <trkpt lat="43.23938" lon="0.08333">
        <ele>304</ele>
        <time>2020-07-24T07:49:43Z</time>
      </trkpt>
      <trkpt lat="43.2394" lon="0.08338">
        <ele>304</ele>
        <time>2020-07-24T07:49:47Z</time>
      </trkpt>
      <trkpt lat="43.2394" lon="0.08343">
        <ele>304</ele>
        <time>2020-07-24T07:49:50Z</time>
      </trkpt>
      <trkpt lat="43.23935" lon="0.08345">
        <ele>304</ele>
        <time>2020-07-24T07:49:53Z</time>
      </trkpt>
      <trkpt lat="43.23925" lon="0.08344">
        <ele>304</ele>
        <time>2020-07-24T07:49:57Z</time>
      </trkpt>
      <trkpt lat="43.23919" lon="0.08346">
        <ele>304</ele>
        <time>2020-07-24T07:50:00Z</time>
      </trkpt>
      <trkpt lat="43.23915" lon="0.08351">
        <ele>304</ele>
        <time>2020-07-24T07:50:04Z</time>
      </trkpt>
      <trkpt lat="43.23902" lon="0.0836">
        <ele>304</ele>
        <time>2020-07-24T07:50:13Z</time>
      </trkpt>
      <trkpt lat="43.23876" lon="0.08368">
        <ele>305</ele>
        <time>2020-07-24T07:50:30Z</time>
      </trkpt>
      <trkpt lat="43.23859" lon="0.0838">
        <ele>305</ele>
        <time>2020-07-24T07:50:43Z</time>
      </trkpt>
      <trkpt lat="43.23837" lon="0.08381">
        <ele>305</ele>
        <time>2020-07-24T07:50:58Z</time>
      </trkpt>
      <trkpt lat="43.23833" lon="0.08386">
        <ele>305</ele>
        <time>2020-07-24T07:51:02Z</time>
      </trkpt>
      <trkpt lat="43.23831" lon="0.08393">
        <ele>305</ele>
        <time>2020-07-24T07:51:05Z</time>
      </trkpt>
      <trkpt lat="43.23827" lon="0.08397">
        <ele>305</ele>
        <time>2020-07-24T07:51:09Z</time>
      </trkpt>
      <trkpt lat="43.23813" lon="0.08406">
        <ele>306</ele>
        <time>2020-07-24T07:51:20Z</time>
      </trkpt>
      <trkpt lat="43.23809" lon="0.0841">
        <ele>306</ele>
        <time>2020-07-24T07:51:23Z</time>
      </trkpt>
      <trkpt lat="43.23804" lon="0.08411">
        <ele>306</ele>
        <time>2020-07-24T07:51:28Z</time>
      </trkpt>
      <trkpt lat="43.23798" lon="0.08416">
        <ele>306</ele>
        <time>2020-07-24T07:51:32Z</time>
      </trkpt>
      <trkpt lat="43.23787" lon="0.08419">
        <ele>306</ele>
        <time>2020-07-24T07:51:38Z</time>
      </trkpt>
      <trkpt lat="43.23777" lon="0.08423">
        <ele>306</ele>
        <time>2020-07-24T07:51:47Z</time>
      </trkpt>
      <trkpt lat="43.23767" lon="0.08429">
        <ele>306</ele>
        <time>2020-07-24T07:51:55Z</time>
      </trkpt>
      <trkpt lat="43.23755" lon="0.08442">
        <ele>306</ele>
        <time>2020-07-24T07:52:06Z</time>
      </trkpt>
      <trkpt lat="43.23741" lon="0.08447">
        <ele>306</ele>
        <time>2020-07-24T07:52:16Z</time>
      </trkpt>
      <trkpt lat="43.23736" lon="0.08451">
        <ele>306</ele>
        <time>2020-07-24T07:52:21Z</time>
      </trkpt>
      <trkpt lat="43.23718" lon="0.08458">
        <ele>307</ele>
        <time>2020-07-24T07:52:33Z</time>
      </trkpt>
      <trkpt lat="43.23715" lon="0.08463">
        <ele>307</ele>
        <time>2020-07-24T07:52:37Z</time>
      </trkpt>
      <trkpt lat="43.23704" lon="0.08469">
        <ele>307</ele>
        <time>2020-07-24T07:52:45Z</time>
      </trkpt>
      <trkpt lat="43.23686" lon="0.08473">
        <ele>307</ele>
        <time>2020-07-24T07:52:56Z</time>
      </trkpt>
      <trkpt lat="43.23683" lon="0.08478">
        <ele>307</ele>
        <time>2020-07-24T07:52:59Z</time>
      </trkpt>
      <trkpt lat="43.23681" lon="0.08486">
        <ele>307</ele>
        <time>2020-07-24T07:53:02Z</time>
      </trkpt>
      <trkpt lat="43.23673" lon="0.08497">
        <ele>307</ele>
        <time>2020-07-24T07:53:08Z</time>
      </trkpt>
      <trkpt lat="43.23668" lon="0.08499">
        <ele>307</ele>
        <time>2020-07-24T07:53:13Z</time>
      </trkpt>
      <trkpt lat="43.23664" lon="0.08505">
        <ele>307</ele>
        <time>2020-07-24T07:53:17Z</time>
      </trkpt>
      <trkpt lat="43.23653" lon="0.08512">
        <ele>308</ele>
        <time>2020-07-24T07:53:27Z</time>
      </trkpt>
      <trkpt lat="43.23639" lon="0.08537">
        <ele>308</ele>
        <time>2020-07-24T07:53:45Z</time>
      </trkpt>
      <trkpt lat="43.23634" lon="0.08542">
        <ele>308</ele>
        <time>2020-07-24T07:53:49Z</time>
      </trkpt>
      <trkpt lat="43.23622" lon="0.08547">
        <ele>309</ele>
        <time>2020-07-24T07:53:57Z</time>
      </trkpt>
      <trkpt lat="43.23618" lon="0.08552">
        <ele>308</ele>
        <time>2020-07-24T07:54:01Z</time>
      </trkpt>
      <trkpt lat="43.23615" lon="0.08561">
        <ele>308</ele>
        <time>2020-07-24T07:54:05Z</time>
      </trkpt>
      <trkpt lat="43.2361" lon="0.08566">
        <ele>308</ele>
        <time>2020-07-24T07:54:10Z</time>
      </trkpt>
      <trkpt lat="43.236" lon="0.08575">
        <ele>308</ele>
        <time>2020-07-24T07:54:18Z</time>
      </trkpt>
      <trkpt lat="43.23589" lon="0.0859">
        <ele>308</ele>
        <time>2020-07-24T07:54:29Z</time>
      </trkpt>
      <trkpt lat="43.23586" lon="0.08596">
        <ele>308</ele>
        <time>2020-07-24T07:54:33Z</time>
      </trkpt>
      <trkpt lat="43.23576" lon="0.08606">
        <ele>308</ele>
        <time>2020-07-24T07:54:43Z</time>
      </trkpt>
      <trkpt lat="43.23573" lon="0.0862">
        <ele>309</ele>
        <time>2020-07-24T07:54:49Z</time>
      </trkpt>
      <trkpt lat="43.23569" lon="0.08624">
        <ele>309</ele>
        <time>2020-07-24T07:54:53Z</time>
      </trkpt>
      <trkpt lat="43.2356" lon="0.0863">
        <ele>309</ele>
        <time>2020-07-24T07:54:59Z</time>
      </trkpt>
      <trkpt lat="43.23548" lon="0.08644">
        <ele>309</ele>
        <time>2020-07-24T07:55:12Z</time>
      </trkpt>
      <trkpt lat="43.23547" lon="0.08651">
        <ele>309</ele>
        <time>2020-07-24T07:55:15Z</time>
      </trkpt>
      <trkpt lat="43.23541" lon="0.08662">
        <ele>309</ele>
        <time>2020-07-24T07:55:22Z</time>
      </trkpt>
      <trkpt lat="43.23536" lon="0.08666">
        <ele>309</ele>
        <time>2020-07-24T07:55:25Z</time>
      </trkpt>
      <trkpt lat="43.23525" lon="0.08668">
        <ele>310</ele>
        <time>2020-07-24T07:55:32Z</time>
      </trkpt>
      <trkpt lat="43.23517" lon="0.08678">
        <ele>310</ele>
        <time>2020-07-24T07:55:40Z</time>
      </trkpt>
      <trkpt lat="43.23513" lon="0.08681">
        <ele>310</ele>
        <time>2020-07-24T07:55:43Z</time>
      </trkpt>
      <trkpt lat="43.2351" lon="0.08686">
        <ele>310</ele>
        <time>2020-07-24T07:55:46Z</time>
      </trkpt>
      <trkpt lat="43.23497" lon="0.087">
        <ele>310</ele>
        <time>2020-07-24T07:55:59Z</time>
      </trkpt>
      <trkpt lat="43.23486" lon="0.08714">
        <ele>311</ele>
        <time>2020-07-24T07:56:09Z</time>
      </trkpt>
      <trkpt lat="43.23481" lon="0.08715">
        <ele>311</ele>
        <time>2020-07-24T07:56:13Z</time>
      </trkpt>
      <trkpt lat="43.23478" lon="0.0872">
        <ele>310</ele>
        <time>2020-07-24T07:56:17Z</time>
      </trkpt>
      <trkpt lat="43.23471" lon="0.08732">
        <ele>310</ele>
        <time>2020-07-24T07:56:25Z</time>
      </trkpt>
      <trkpt lat="43.23467" lon="0.08736">
        <ele>310</ele>
        <time>2020-07-24T07:56:28Z</time>
      </trkpt>
      <trkpt lat="43.23454" lon="0.08741">
        <ele>311</ele>
        <time>2020-07-24T07:56:38Z</time>
      </trkpt>
      <trkpt lat="43.23448" lon="0.08751">
        <ele>311</ele>
        <time>2020-07-24T07:56:45Z</time>
      </trkpt>
      <trkpt lat="43.23439" lon="0.08757">
        <ele>311</ele>
        <time>2020-07-24T07:56:52Z</time>
      </trkpt>
      <trkpt lat="43.23431" lon="0.08761">
        <ele>311</ele>
        <time>2020-07-24T07:56:58Z</time>
      </trkpt>
      <trkpt lat="43.23428" lon="0.08766">
        <ele>311</ele>
        <time>2020-07-24T07:57:02Z</time>
      </trkpt>
      <trkpt lat="43.2342" lon="0.08772">
        <ele>311</ele>
        <time>2020-07-24T07:57:09Z</time>
      </trkpt>
      <trkpt lat="43.23416" lon="0.08772">
        <ele>311</ele>
        <time>2020-07-24T07:57:13Z</time>
      </trkpt>
      <trkpt lat="43.23403" lon="0.08783">
        <ele>312</ele>
        <time>2020-07-24T07:57:25Z</time>
      </trkpt>
      <trkpt lat="43.23397" lon="0.08786">
        <ele>312</ele>
        <time>2020-07-24T07:57:30Z</time>
      </trkpt>
      <trkpt lat="43.23384" lon="0.08798">
        <ele>312</ele>
        <time>2020-07-24T07:57:42Z</time>
      </trkpt>
      <trkpt lat="43.23352" lon="0.08811">
        <ele>312</ele>
        <time>2020-07-24T07:58:03Z</time>
      </trkpt>
      <trkpt lat="43.23349" lon="0.08814">
        <ele>312</ele>
        <time>2020-07-24T07:58:06Z</time>
      </trkpt>
      <trkpt lat="43.23344" lon="0.08816">
        <ele>312</ele>
        <time>2020-07-24T07:58:09Z</time>
      </trkpt>
      <trkpt lat="43.23335" lon="0.08817">
        <ele>312</ele>
        <time>2020-07-24T07:58:18Z</time>
      </trkpt>
      <trkpt lat="43.23329" lon="0.08816">
        <ele>312</ele>
        <time>2020-07-24T07:58:23Z</time>
      </trkpt>
      <trkpt lat="43.23324" lon="0.08819">
        <ele>312</ele>
        <time>2020-07-24T07:58:26Z</time>
      </trkpt>
      <trkpt lat="43.2332" lon="0.08823">
        <ele>312</ele>
        <time>2020-07-24T07:58:29Z</time>
      </trkpt>
      <trkpt lat="43.23315" lon="0.08824">
        <ele>312</ele>
        <time>2020-07-24T07:58:33Z</time>
      </trkpt>
      <trkpt lat="43.23305" lon="0.08825">
        <ele>312</ele>
        <time>2020-07-24T07:58:42Z</time>
      </trkpt>
      <trkpt lat="43.23289" lon="0.08829">
        <ele>313</ele>
        <time>2020-07-24T07:58:54Z</time>
      </trkpt>
      <trkpt lat="43.23284" lon="0.08829">
        <ele>313</ele>
        <time>2020-07-24T07:58:57Z</time>
      </trkpt>
      <trkpt lat="43.2328" lon="0.08834">
        <ele>313</ele>
        <time>2020-07-24T07:59:01Z</time>
      </trkpt>
      <trkpt lat="43.23263" lon="0.08836">
        <ele>313</ele>
        <time>2020-07-24T07:59:12Z</time>
      </trkpt>
      <trkpt lat="43.23258" lon="0.08838">
        <ele>313</ele>
        <time>2020-07-24T07:59:14Z</time>
      </trkpt>
      <trkpt lat="43.23254" lon="0.08842">
        <ele>314</ele>
        <time>2020-07-24T07:59:18Z</time>
      </trkpt>
      <trkpt lat="43.23246" lon="0.08849">
        <ele>314</ele>
        <time>2020-07-24T07:59:31Z</time>
      </trkpt>
      <trkpt lat="43.23241" lon="0.0885">
        <ele>314</ele>
        <time>2020-07-24T07:59:34Z</time>
      </trkpt>
      <trkpt lat="43.2324" lon="0.08858">
        <ele>314</ele>
        <time>2020-07-24T07:59:36Z</time>
      </trkpt>
      <trkpt lat="43.23235" lon="0.0886">
        <ele>313</ele>
        <time>2020-07-24T07:59:40Z</time>
      </trkpt>
      <trkpt lat="43.2322" lon="0.08859">
        <ele>313</ele>
        <time>2020-07-24T07:59:49Z</time>
      </trkpt>
      <trkpt lat="43.23216" lon="0.08862">
        <ele>313</ele>
        <time>2020-07-24T07:59:52Z</time>
      </trkpt>
      <trkpt lat="43.23211" lon="0.08868">
        <ele>313</ele>
        <time>2020-07-24T07:59:58Z</time>
      </trkpt>
      <trkpt lat="43.23196" lon="0.08873">
        <ele>313</ele>
        <time>2020-07-24T08:00:07Z</time>
      </trkpt>
      <trkpt lat="43.23179" lon="0.08873">
        <ele>313</ele>
        <time>2020-07-24T08:00:20Z</time>
      </trkpt>
      <trkpt lat="43.23175" lon="0.08878">
        <ele>313</ele>
        <time>2020-07-24T08:00:25Z</time>
      </trkpt>
      <trkpt lat="43.23159" lon="0.08885">
        <ele>313</ele>
        <time>2020-07-24T08:00:41Z</time>
      </trkpt>
      <trkpt lat="43.23144" lon="0.08888">
        <ele>313</ele>
        <time>2020-07-24T08:00:52Z</time>
      </trkpt>
      <trkpt lat="43.2314" lon="0.08888">
        <ele>313</ele>
        <time>2020-07-24T08:00:55Z</time>
      </trkpt>
      <trkpt lat="43.23135" lon="0.08884">
        <ele>313</ele>
        <time>2020-07-24T08:01:00Z</time>
      </trkpt>
      <trkpt lat="43.2313" lon="0.08885">
        <ele>313</ele>
        <time>2020-07-24T08:01:04Z</time>
      </trkpt>
      <trkpt lat="43.23115" lon="0.08896">
        <ele>313</ele>
        <time>2020-07-24T08:01:13Z</time>
      </trkpt>
      <trkpt lat="43.23089" lon="0.08899">
        <ele>313</ele>
        <time>2020-07-24T08:01:31Z</time>
      </trkpt>
      <trkpt lat="43.2306" lon="0.08913">
        <ele>313</ele>
        <time>2020-07-24T08:01:54Z</time>
      </trkpt>
      <trkpt lat="43.23055" lon="0.0891">
        <ele>313</ele>
        <time>2020-07-24T08:01:58Z</time>
      </trkpt>
      <trkpt lat="43.23044" lon="0.0891">
        <ele>313</ele>
        <time>2020-07-24T08:02:04Z</time>
      </trkpt>
      <trkpt lat="43.2303" lon="0.08916">
        <ele>313</ele>
        <time>2020-07-24T08:02:13Z</time>
      </trkpt>
      <trkpt lat="43.23022" lon="0.08926">
        <ele>313</ele>
        <time>2020-07-24T08:02:21Z</time>
      </trkpt>
      <trkpt lat="43.23013" lon="0.08935">
        <ele>313</ele>
        <time>2020-07-24T08:02:28Z</time>
      </trkpt>
      <trkpt lat="43.22994" lon="0.08946">
        <ele>313</ele>
        <time>2020-07-24T08:02:44Z</time>
      </trkpt>
      <trkpt lat="43.2299" lon="0.08952">
        <ele>313</ele>
        <time>2020-07-24T08:02:48Z</time>
      </trkpt>
      <trkpt lat="43.22982" lon="0.08958">
        <ele>313</ele>
        <time>2020-07-24T08:02:53Z</time>
      </trkpt>
      <trkpt lat="43.22978" lon="0.08965">
        <ele>313</ele>
        <time>2020-07-24T08:02:56Z</time>
      </trkpt>
      <trkpt lat="43.22975" lon="0.08968">
        <ele>313</ele>
        <time>2020-07-24T08:02:58Z</time>
      </trkpt>
      <trkpt lat="43.22971" lon="0.08969">
        <ele>313</ele>
        <time>2020-07-24T08:03:01Z</time>
      </trkpt>
      <trkpt lat="43.22963" lon="0.08977">
        <ele>313</ele>
        <time>2020-07-24T08:03:08Z</time>
      </trkpt>
      <trkpt lat="43.22958" lon="0.08979">
        <ele>313</ele>
        <time>2020-07-24T08:03:13Z</time>
      </trkpt>
      <trkpt lat="43.22955" lon="0.08986">
        <ele>313</ele>
        <time>2020-07-24T08:03:18Z</time>
      </trkpt>
      <trkpt lat="43.22941" lon="0.08995">
        <ele>314</ele>
        <time>2020-07-24T08:03:28Z</time>
      </trkpt>
      <trkpt lat="43.22934" lon="0.09004">
        <ele>314</ele>
        <time>2020-07-24T08:03:36Z</time>
      </trkpt>
      <trkpt lat="43.22915" lon="0.09014">
        <ele>314</ele>
        <time>2020-07-24T08:03:50Z</time>
      </trkpt>
      <trkpt lat="43.22909" lon="0.09021">
        <ele>314</ele>
        <time>2020-07-24T08:04:00Z</time>
      </trkpt>
      <trkpt lat="43.22892" lon="0.09025">
        <ele>314</ele>
        <time>2020-07-24T08:04:13Z</time>
      </trkpt>
      <trkpt lat="43.22888" lon="0.09028">
        <ele>314</ele>
        <time>2020-07-24T08:04:16Z</time>
      </trkpt>
      <trkpt lat="43.22868" lon="0.09033">
        <ele>315</ele>
        <time>2020-07-24T08:04:30Z</time>
      </trkpt>
      <trkpt lat="43.22853" lon="0.09033">
        <ele>315</ele>
        <time>2020-07-24T08:04:40Z</time>
      </trkpt>
      <trkpt lat="43.22845" lon="0.09035">
        <ele>315</ele>
        <time>2020-07-24T08:04:46Z</time>
      </trkpt>
      <trkpt lat="43.22842" lon="0.09037">
        <ele>315</ele>
        <time>2020-07-24T08:04:51Z</time>
      </trkpt>
      <trkpt lat="43.22838" lon="0.09043">
        <ele>315</ele>
        <time>2020-07-24T08:04:54Z</time>
      </trkpt>
      <trkpt lat="43.22829" lon="0.09047">
        <ele>315</ele>
        <time>2020-07-24T08:05:00Z</time>
      </trkpt>
      <trkpt lat="43.2281" lon="0.09048">
        <ele>315</ele>
        <time>2020-07-24T08:05:13Z</time>
      </trkpt>
      <trkpt lat="43.22801" lon="0.09054">
        <ele>316</ele>
        <time>2020-07-24T08:05:19Z</time>
      </trkpt>
      <trkpt lat="43.22784" lon="0.09059">
        <ele>316</ele>
        <time>2020-07-24T08:05:32Z</time>
      </trkpt>
      <trkpt lat="43.22775" lon="0.09065">
        <ele>316</ele>
        <time>2020-07-24T08:05:40Z</time>
      </trkpt>
      <trkpt lat="43.22769" lon="0.09064">
        <ele>316</ele>
        <time>2020-07-24T08:05:44Z</time>
      </trkpt>
      <trkpt lat="43.22765" lon="0.09066">
        <ele>316</ele>
        <time>2020-07-24T08:05:47Z</time>
      </trkpt>
      <trkpt lat="43.22761" lon="0.09066">
        <ele>316</ele>
        <time>2020-07-24T08:05:51Z</time>
      </trkpt>
      <trkpt lat="43.22753" lon="0.09069">
        <ele>316</ele>
        <time>2020-07-24T08:06:00Z</time>
      </trkpt>
      <trkpt lat="43.22747" lon="0.09069">
        <ele>316</ele>
        <time>2020-07-24T08:06:02Z</time>
      </trkpt>
      <trkpt lat="43.22744" lon="0.09073">
        <ele>316</ele>
        <time>2020-07-24T08:06:05Z</time>
      </trkpt>
      <trkpt lat="43.22742" lon="0.09077">
        <ele>316</ele>
        <time>2020-07-24T08:06:09Z</time>
      </trkpt>
      <trkpt lat="43.22738" lon="0.09081">
        <ele>316</ele>
        <time>2020-07-24T08:06:12Z</time>
      </trkpt>
      <trkpt lat="43.22721" lon="0.0909">
        <ele>317</ele>
        <time>2020-07-24T08:06:24Z</time>
      </trkpt>
      <trkpt lat="43.22717" lon="0.09094">
        <ele>317</ele>
        <time>2020-07-24T08:06:29Z</time>
      </trkpt>
      <trkpt lat="43.227" lon="0.09103">
        <ele>318</ele>
        <time>2020-07-24T08:06:40Z</time>
      </trkpt>
      <trkpt lat="43.22671" lon="0.09123">
        <ele>319</ele>
        <time>2020-07-24T08:07:03Z</time>
      </trkpt>
      <trkpt lat="43.22663" lon="0.09127">
        <ele>319</ele>
        <time>2020-07-24T08:07:10Z</time>
      </trkpt>
      <trkpt lat="43.2266" lon="0.0913">
        <ele>319</ele>
        <time>2020-07-24T08:07:13Z</time>
      </trkpt>
      <trkpt lat="43.22639" lon="0.09136">
        <ele>319</ele>
        <time>2020-07-24T08:07:30Z</time>
      </trkpt>
      <trkpt lat="43.22636" lon="0.09139">
        <ele>319</ele>
        <time>2020-07-24T08:07:34Z</time>
      </trkpt>
      <trkpt lat="43.22616" lon="0.09147">
        <ele>319</ele>
        <time>2020-07-24T08:07:51Z</time>
      </trkpt>
      <trkpt lat="43.22599" lon="0.09149">
        <ele>319</ele>
        <time>2020-07-24T08:08:02Z</time>
      </trkpt>
      <trkpt lat="43.22589" lon="0.09157">
        <ele>319</ele>
        <time>2020-07-24T08:08:11Z</time>
      </trkpt>
      <trkpt lat="43.22554" lon="0.09169">
        <ele>319</ele>
        <time>2020-07-24T08:08:37Z</time>
      </trkpt>
      <trkpt lat="43.22551" lon="0.09172">
        <ele>319</ele>
        <time>2020-07-24T08:08:41Z</time>
      </trkpt>
      <trkpt lat="43.22511" lon="0.09183">
        <ele>319</ele>
        <time>2020-07-24T08:09:12Z</time>
      </trkpt>
      <trkpt lat="43.22502" lon="0.09185">
        <ele>318</ele>
        <time>2020-07-24T08:09:20Z</time>
      </trkpt>
      <trkpt lat="43.22497" lon="0.09185">
        <ele>318</ele>
        <time>2020-07-24T08:09:24Z</time>
      </trkpt>
      <trkpt lat="43.22479" lon="0.09193">
        <ele>318</ele>
        <time>2020-07-24T08:09:38Z</time>
      </trkpt>
      <trkpt lat="43.22454" lon="0.09193">
        <ele>318</ele>
        <time>2020-07-24T08:09:55Z</time>
      </trkpt>
      <trkpt lat="43.22449" lon="0.09191">
        <ele>318</ele>
        <time>2020-07-24T08:09:59Z</time>
      </trkpt>
      <trkpt lat="43.22443" lon="0.09191">
        <ele>318</ele>
        <time>2020-07-24T08:10:03Z</time>
      </trkpt>
      <trkpt lat="43.2244" lon="0.09195">
        <ele>318</ele>
        <time>2020-07-24T08:10:06Z</time>
      </trkpt>
      <trkpt lat="43.22435" lon="0.09197">
        <ele>318</ele>
        <time>2020-07-24T08:10:09Z</time>
      </trkpt>
      <trkpt lat="43.2243" lon="0.09197">
        <ele>318</ele>
        <time>2020-07-24T08:10:12Z</time>
      </trkpt>
      <trkpt lat="43.22425" lon="0.09199">
        <ele>318</ele>
        <time>2020-07-24T08:10:15Z</time>
      </trkpt>
      <trkpt lat="43.22421" lon="0.09203">
        <ele>318</ele>
        <time>2020-07-24T08:10:18Z</time>
      </trkpt>
      <trkpt lat="43.22417" lon="0.09206">
        <ele>318</ele>
        <time>2020-07-24T08:10:20Z</time>
      </trkpt>
      <trkpt lat="43.22414" lon="0.0921">
        <ele>318</ele>
        <time>2020-07-24T08:10:23Z</time>
      </trkpt>
      <trkpt lat="43.22408" lon="0.09222">
        <ele>318</ele>
        <time>2020-07-24T08:10:34Z</time>
      </trkpt>
      <trkpt lat="43.22406" lon="0.09226">
        <ele>318</ele>
        <time>2020-07-24T08:10:37Z</time>
      </trkpt>
      <trkpt lat="43.22401" lon="0.0923">
        <ele>319</ele>
        <time>2020-07-24T08:10:41Z</time>
      </trkpt>
      <trkpt lat="43.22396" lon="0.09232">
        <ele>319</ele>
        <time>2020-07-24T08:10:45Z</time>
      </trkpt>
      <trkpt lat="43.22392" lon="0.09231">
        <ele>319</ele>
        <time>2020-07-24T08:10:48Z</time>
      </trkpt>
      <trkpt lat="43.22375" lon="0.0924">
        <ele>319</ele>
        <time>2020-07-24T08:10:59Z</time>
      </trkpt>
      <trkpt lat="43.22368" lon="0.09246">
        <ele>320</ele>
        <time>2020-07-24T08:11:05Z</time>
      </trkpt>
      <trkpt lat="43.22366" lon="0.0925">
        <ele>320</ele>
        <time>2020-07-24T08:11:08Z</time>
      </trkpt>
      <trkpt lat="43.22362" lon="0.09253">
        <ele>320</ele>
        <time>2020-07-24T08:11:12Z</time>
      </trkpt>
      <trkpt lat="43.2236" lon="0.09257">
        <ele>320</ele>
        <time>2020-07-24T08:11:15Z</time>
      </trkpt>
      <trkpt lat="43.22356" lon="0.09256">
        <ele>320</ele>
        <time>2020-07-24T08:11:18Z</time>
      </trkpt>
      <trkpt lat="43.22349" lon="0.09252">
        <ele>320</ele>
        <time>2020-07-24T08:11:25Z</time>
      </trkpt>
      <trkpt lat="43.22347" lon="0.09246">
        <ele>317</ele>
        <time>2020-07-24T08:11:38Z</time>
      </trkpt>
      <trkpt lat="43.22337" lon="0.09244">
        <ele>317</ele>
        <time>2020-07-24T08:11:47Z</time>
      </trkpt>
      <trkpt lat="43.22334" lon="0.09249">
        <ele>317</ele>
        <time>2020-07-24T08:11:51Z</time>
      </trkpt>
      <trkpt lat="43.22333" lon="0.09256">
        <ele>318</ele>
        <time>2020-07-24T08:11:56Z</time>
      </trkpt>
      <trkpt lat="43.22332" lon="0.09262">
        <ele>319</ele>
        <time>2020-07-24T08:12:02Z</time>
      </trkpt>
      <trkpt lat="43.22326" lon="0.09262">
        <ele>320</ele>
        <time>2020-07-24T08:12:08Z</time>
      </trkpt>
      <trkpt lat="43.22322" lon="0.09263">
        <ele>319</ele>
        <time>2020-07-24T08:12:11Z</time>
      </trkpt>
      <trkpt lat="43.22319" lon="0.09265">
        <ele>319</ele>
        <time>2020-07-24T08:12:14Z</time>
      </trkpt>
      <trkpt lat="43.22302" lon="0.09264">
        <ele>319</ele>
        <time>2020-07-24T08:12:30Z</time>
      </trkpt>
      <trkpt lat="43.22269" lon="0.09279">
        <ele>319</ele>
        <time>2020-07-24T08:12:55Z</time>
      </trkpt>
      <trkpt lat="43.22265" lon="0.09279">
        <ele>319</ele>
        <time>2020-07-24T08:12:58Z</time>
      </trkpt>
      <trkpt lat="43.22252" lon="0.09282">
        <ele>319</ele>
        <time>2020-07-24T08:13:05Z</time>
      </trkpt>
      <trkpt lat="43.22247" lon="0.09285">
        <ele>319</ele>
        <time>2020-07-24T08:13:08Z</time>
      </trkpt>
      <trkpt lat="43.22233" lon="0.09301">
        <ele>320</ele>
        <time>2020-07-24T08:13:22Z</time>
      </trkpt>
      <trkpt lat="43.22231" lon="0.09306">
        <ele>320</ele>
        <time>2020-07-24T08:13:25Z</time>
      </trkpt>
      <trkpt lat="43.2223" lon="0.09311">
        <ele>320</ele>
        <time>2020-07-24T08:13:29Z</time>
      </trkpt>
      <trkpt lat="43.22227" lon="0.09316">
        <ele>320</ele>
        <time>2020-07-24T08:13:32Z</time>
      </trkpt>
      <trkpt lat="43.22223" lon="0.09319">
        <ele>321</ele>
        <time>2020-07-24T08:13:35Z</time>
      </trkpt>
      <trkpt lat="43.2222" lon="0.09324">
        <ele>321</ele>
        <time>2020-07-24T08:13:39Z</time>
      </trkpt>
      <trkpt lat="43.222" lon="0.09332">
        <ele>322</ele>
        <time>2020-07-24T08:13:57Z</time>
      </trkpt>
      <trkpt lat="43.22193" lon="0.09331">
        <ele>322</ele>
        <time>2020-07-24T08:14:05Z</time>
      </trkpt>
      <trkpt lat="43.22179" lon="0.09337">
        <ele>321</ele>
        <time>2020-07-24T08:14:18Z</time>
      </trkpt>
      <trkpt lat="43.22168" lon="0.09336">
        <ele>321</ele>
        <time>2020-07-24T08:14:26Z</time>
      </trkpt>
      <trkpt lat="43.22164" lon="0.09336">
        <ele>320</ele>
        <time>2020-07-24T08:14:30Z</time>
      </trkpt>
      <trkpt lat="43.22137" lon="0.09349">
        <ele>320</ele>
        <time>2020-07-24T08:14:49Z</time>
      </trkpt>
      <trkpt lat="43.22085" lon="0.09361">
        <ele>320</ele>
        <time>2020-07-24T08:15:21Z</time>
      </trkpt>
      <trkpt lat="43.22072" lon="0.09366">
        <ele>320</ele>
        <time>2020-07-24T08:15:29Z</time>
      </trkpt>
      <trkpt lat="43.22053" lon="0.09381">
        <ele>320</ele>
        <time>2020-07-24T08:15:45Z</time>
      </trkpt>
      <trkpt lat="43.22048" lon="0.09383">
        <ele>320</ele>
        <time>2020-07-24T08:15:49Z</time>
      </trkpt>
      <trkpt lat="43.22038" lon="0.09385">
        <ele>320</ele>
        <time>2020-07-24T08:15:56Z</time>
      </trkpt>
      <trkpt lat="43.22031" lon="0.09392">
        <ele>320</ele>
        <time>2020-07-24T08:16:02Z</time>
      </trkpt>
      <trkpt lat="43.22023" lon="0.09396">
        <ele>321</ele>
        <time>2020-07-24T08:16:08Z</time>
      </trkpt>
      <trkpt lat="43.2202" lon="0.09399">
        <ele>321</ele>
        <time>2020-07-24T08:16:11Z</time>
      </trkpt>
      <trkpt lat="43.22015" lon="0.094">
        <ele>321</ele>
        <time>2020-07-24T08:16:14Z</time>
      </trkpt>
      <trkpt lat="43.22012" lon="0.09403">
        <ele>321</ele>
        <time>2020-07-24T08:16:17Z</time>
      </trkpt>
      <trkpt lat="43.22006" lon="0.09403">
        <ele>321</ele>
        <time>2020-07-24T08:16:22Z</time>
      </trkpt>
      <trkpt lat="43.22001" lon="0.09406">
        <ele>321</ele>
        <time>2020-07-24T08:16:26Z</time>
      </trkpt>
      <trkpt lat="43.21996" lon="0.09407">
        <ele>321</ele>
        <time>2020-07-24T08:16:29Z</time>
      </trkpt>
      <trkpt lat="43.21992" lon="0.09407">
        <ele>321</ele>
        <time>2020-07-24T08:16:32Z</time>
      </trkpt>
      <trkpt lat="43.21984" lon="0.09413">
        <ele>321</ele>
        <time>2020-07-24T08:16:40Z</time>
      </trkpt>
      <trkpt lat="43.21968" lon="0.09417">
        <ele>322</ele>
        <time>2020-07-24T08:16:56Z</time>
      </trkpt>
      <trkpt lat="43.21956" lon="0.09418">
        <ele>322</ele>
        <time>2020-07-24T08:17:05Z</time>
      </trkpt>
      <trkpt lat="43.21945" lon="0.0942">
        <ele>323</ele>
        <time>2020-07-24T08:17:13Z</time>
      </trkpt>
      <trkpt lat="43.21924" lon="0.09422">
        <ele>323</ele>
        <time>2020-07-24T08:17:29Z</time>
      </trkpt>
      <trkpt lat="43.2192" lon="0.0942">
        <ele>324</ele>
        <time>2020-07-24T08:17:33Z</time>
      </trkpt>
      <trkpt lat="43.21903" lon="0.0942">
        <ele>324</ele>
        <time>2020-07-24T08:17:45Z</time>
      </trkpt>
      <trkpt lat="43.21871" lon="0.09412">
        <ele>325</ele>
        <time>2020-07-24T08:18:08Z</time>
      </trkpt>
      <trkpt lat="43.21854" lon="0.09413">
        <ele>325</ele>
        <time>2020-07-24T08:18:21Z</time>
      </trkpt>
      <trkpt lat="43.21849" lon="0.09414">
        <ele>325</ele>
        <time>2020-07-24T08:18:25Z</time>
      </trkpt>
      <trkpt lat="43.21846" lon="0.09414">
        <ele>326</ele>
        <time>2020-07-24T08:18:28Z</time>
      </trkpt>
      <trkpt lat="43.21842" lon="0.09413">
        <ele>326</ele>
        <time>2020-07-24T08:18:31Z</time>
      </trkpt>
      <trkpt lat="43.21838" lon="0.09412">
        <ele>326</ele>
        <time>2020-07-24T08:18:34Z</time>
      </trkpt>
      <trkpt lat="43.21822" lon="0.09411">
        <ele>326</ele>
        <time>2020-07-24T08:18:47Z</time>
      </trkpt>
      <trkpt lat="43.21818" lon="0.09414">
        <ele>326</ele>
        <time>2020-07-24T08:18:51Z</time>
      </trkpt>
      <trkpt lat="43.21815" lon="0.09418">
        <ele>326</ele>
        <time>2020-07-24T08:18:55Z</time>
      </trkpt>
      <trkpt lat="43.21808" lon="0.09415">
        <ele>326</ele>
        <time>2020-07-24T08:19:26Z</time>
      </trkpt>
      <trkpt lat="43.21804" lon="0.09413">
        <ele>326</ele>
        <time>2020-07-24T08:19:29Z</time>
      </trkpt>
      <trkpt lat="43.21761" lon="0.09411">
        <ele>325</ele>
        <time>2020-07-24T08:20:02Z</time>
      </trkpt>
      <trkpt lat="43.21734" lon="0.09405">
        <ele>324</ele>
        <time>2020-07-24T08:20:22Z</time>
      </trkpt>
      <trkpt lat="43.21726" lon="0.09406">
        <ele>324</ele>
        <time>2020-07-24T08:20:27Z</time>
      </trkpt>
      <trkpt lat="43.21723" lon="0.09404">
        <ele>324</ele>
        <time>2020-07-24T08:20:30Z</time>
      </trkpt>
      <trkpt lat="43.21689" lon="0.09398">
        <ele>324</ele>
        <time>2020-07-24T08:20:51Z</time>
      </trkpt>
      <trkpt lat="43.21682" lon="0.09392">
        <ele>324</ele>
        <time>2020-07-24T08:20:58Z</time>
      </trkpt>
      <trkpt lat="43.21677" lon="0.0939">
        <ele>324</ele>
        <time>2020-07-24T08:21:02Z</time>
      </trkpt>
      <trkpt lat="43.21667" lon="0.09386">
        <ele>324</ele>
        <time>2020-07-24T08:21:09Z</time>
      </trkpt>
      <trkpt lat="43.21644" lon="0.09368">
        <ele>325</ele>
        <time>2020-07-24T08:21:29Z</time>
      </trkpt>
      <trkpt lat="43.21631" lon="0.09359">
        <ele>326</ele>
        <time>2020-07-24T08:21:41Z</time>
      </trkpt>
      <trkpt lat="43.21628" lon="0.09354">
        <ele>326</ele>
        <time>2020-07-24T08:21:46Z</time>
      </trkpt>
      <trkpt lat="43.21596" lon="0.09337">
        <ele>325</ele>
        <time>2020-07-24T08:22:14Z</time>
      </trkpt>
      <trkpt lat="43.2157" lon="0.09314">
        <ele>326</ele>
        <time>2020-07-24T08:22:35Z</time>
      </trkpt>
      <trkpt lat="43.21566" lon="0.09312">
        <ele>326</ele>
        <time>2020-07-24T08:22:39Z</time>
      </trkpt>
      <trkpt lat="43.21555" lon="0.09302">
        <ele>326</ele>
        <time>2020-07-24T08:22:48Z</time>
      </trkpt>
      <trkpt lat="43.21539" lon="0.09281">
        <ele>326</ele>
        <time>2020-07-24T08:23:07Z</time>
      </trkpt>
      <trkpt lat="43.21516" lon="0.09264">
        <ele>326</ele>
        <time>2020-07-24T08:23:29Z</time>
      </trkpt>
      <trkpt lat="43.21509" lon="0.09264">
        <ele>326</ele>
        <time>2020-07-24T08:23:31Z</time>
      </trkpt>
      <trkpt lat="43.21505" lon="0.09266">
        <ele>326</ele>
        <time>2020-07-24T08:23:33Z</time>
      </trkpt>
      <trkpt lat="43.21496" lon="0.09273">
        <ele>326</ele>
        <time>2020-07-24T08:23:42Z</time>
      </trkpt>
      <trkpt lat="43.21493" lon="0.09277">
        <ele>326</ele>
        <time>2020-07-24T08:23:46Z</time>
      </trkpt>
      <trkpt lat="43.21489" lon="0.09281">
        <ele>327</ele>
        <time>2020-07-24T08:23:51Z</time>
      </trkpt>
      <trkpt lat="43.21483" lon="0.0929">
        <ele>327</ele>
        <time>2020-07-24T08:23:58Z</time>
      </trkpt>
      <trkpt lat="43.21482" lon="0.09298">
        <ele>327</ele>
        <time>2020-07-24T08:24:02Z</time>
      </trkpt>
      <trkpt lat="43.21477" lon="0.09308">
        <ele>327</ele>
        <time>2020-07-24T08:24:08Z</time>
      </trkpt>
      <trkpt lat="43.21462" lon="0.09325">
        <ele>328</ele>
        <time>2020-07-24T08:24:24Z</time>
      </trkpt>
      <trkpt lat="43.21456" lon="0.09338">
        <ele>328</ele>
        <time>2020-07-24T08:24:32Z</time>
      </trkpt>
      <trkpt lat="43.2145" lon="0.0936">
        <ele>328</ele>
        <time>2020-07-24T08:24:42Z</time>
      </trkpt>
      <trkpt lat="43.21449" lon="0.09373">
        <ele>329</ele>
        <time>2020-07-24T08:24:49Z</time>
      </trkpt>
      <trkpt lat="43.2145" lon="0.09392">
        <ele>330</ele>
        <time>2020-07-24T08:25:01Z</time>
      </trkpt>
      <trkpt lat="43.21442" lon="0.0941">
        <ele>329</ele>
        <time>2020-07-24T08:25:15Z</time>
      </trkpt>
      <trkpt lat="43.21438" lon="0.09412">
        <ele>329</ele>
        <time>2020-07-24T08:25:23Z</time>
      </trkpt>
      <trkpt lat="43.21436" lon="0.09406">
        <ele>329</ele>
        <time>2020-07-24T08:25:28Z</time>
      </trkpt>
      <trkpt lat="43.21434" lon="0.09398">
        <ele>330</ele>
        <time>2020-07-24T08:25:35Z</time>
      </trkpt>
      <trkpt lat="43.21428" lon="0.09388">
        <ele>330</ele>
        <time>2020-07-24T08:25:44Z</time>
      </trkpt>
      <trkpt lat="43.21414" lon="0.09379">
        <ele>330</ele>
        <time>2020-07-24T08:25:59Z</time>
      </trkpt>
      <trkpt lat="43.2141" lon="0.09375">
        <ele>330</ele>
        <time>2020-07-24T08:26:03Z</time>
      </trkpt>
      <trkpt lat="43.21407" lon="0.09369">
        <ele>330</ele>
        <time>2020-07-24T08:26:09Z</time>
      </trkpt>
      <trkpt lat="43.21401" lon="0.09366">
        <ele>330</ele>
        <time>2020-07-24T08:26:13Z</time>
      </trkpt>
      <trkpt lat="43.21385" lon="0.09365">
        <ele>330</ele>
        <time>2020-07-24T08:26:21Z</time>
      </trkpt>
      <trkpt lat="43.21367" lon="0.0937">
        <ele>330</ele>
        <time>2020-07-24T08:26:35Z</time>
      </trkpt>
      <trkpt lat="43.2135" lon="0.09368">
        <ele>330</ele>
        <time>2020-07-24T08:26:48Z</time>
      </trkpt>
      <trkpt lat="43.21346" lon="0.09367">
        <ele>330</ele>
        <time>2020-07-24T08:26:51Z</time>
      </trkpt>
      <trkpt lat="43.21326" lon="0.09361">
        <ele>330</ele>
        <time>2020-07-24T08:27:06Z</time>
      </trkpt>
      <trkpt lat="43.21299" lon="0.09347">
        <ele>330</ele>
        <time>2020-07-24T08:27:31Z</time>
      </trkpt>
      <trkpt lat="43.21296" lon="0.09345">
        <ele>329</ele>
        <time>2020-07-24T08:27:35Z</time>
      </trkpt>
      <trkpt lat="43.21292" lon="0.09348">
        <ele>329</ele>
        <time>2020-07-24T08:27:43Z</time>
      </trkpt>
      <trkpt lat="43.21291" lon="0.0935">
        <ele>329</ele>
        <time>2020-07-24T08:32:04Z</time>
      </trkpt>
      <trkpt lat="43.21285" lon="0.09352">
        <ele>330</ele>
        <time>2020-07-24T08:33:26Z</time>
      </trkpt>
      <trkpt lat="43.21268" lon="0.09365">
        <ele>330</ele>
        <time>2020-07-24T08:33:43Z</time>
      </trkpt>
      <trkpt lat="43.21248" lon="0.09365">
        <ele>330</ele>
        <time>2020-07-24T08:34:00Z</time>
      </trkpt>
      <trkpt lat="43.21244" lon="0.09364">
        <ele>330</ele>
        <time>2020-07-24T08:34:03Z</time>
      </trkpt>
      <trkpt lat="43.21202" lon="0.09349">
        <ele>331</ele>
        <time>2020-07-24T08:34:35Z</time>
      </trkpt>
      <trkpt lat="43.21185" lon="0.09336">
        <ele>331</ele>
        <time>2020-07-24T08:34:48Z</time>
      </trkpt>
      <trkpt lat="43.21183" lon="0.0933">
        <ele>331</ele>
        <time>2020-07-24T08:34:52Z</time>
      </trkpt>
      <trkpt lat="43.21175" lon="0.09321">
        <ele>331</ele>
        <time>2020-07-24T08:34:59Z</time>
      </trkpt>
      <trkpt lat="43.21173" lon="0.09315">
        <ele>331</ele>
        <time>2020-07-24T08:35:02Z</time>
      </trkpt>
      <trkpt lat="43.21167" lon="0.09295">
        <ele>331</ele>
        <time>2020-07-24T08:35:15Z</time>
      </trkpt>
      <trkpt lat="43.21172" lon="0.09275">
        <ele>330</ele>
        <time>2020-07-24T08:35:27Z</time>
      </trkpt>
      <trkpt lat="43.21172" lon="0.09262">
        <ele>330</ele>
        <time>2020-07-24T08:35:34Z</time>
      </trkpt>
      <trkpt lat="43.21177" lon="0.09237">
        <ele>330</ele>
        <time>2020-07-24T08:35:47Z</time>
      </trkpt>
      <trkpt lat="43.21185" lon="0.0922">
        <ele>330</ele>
        <time>2020-07-24T08:35:57Z</time>
      </trkpt>
      <trkpt lat="43.21192" lon="0.0921">
        <ele>330</ele>
        <time>2020-07-24T08:36:05Z</time>
      </trkpt>
      <trkpt lat="43.212" lon="0.09205">
        <ele>330</ele>
        <time>2020-07-24T08:36:14Z</time>
      </trkpt>
      <trkpt lat="43.21208" lon="0.09198">
        <ele>330</ele>
        <time>2020-07-24T08:36:21Z</time>
      </trkpt>
      <trkpt lat="43.21213" lon="0.09196">
        <ele>330</ele>
        <time>2020-07-24T08:36:25Z</time>
      </trkpt>
      <trkpt lat="43.21259" lon="0.09187">
        <ele>329</ele>
        <time>2020-07-24T08:36:58Z</time>
      </trkpt>
      <trkpt lat="43.21278" lon="0.09183">
        <ele>329</ele>
        <time>2020-07-24T08:37:11Z</time>
      </trkpt>
      <trkpt lat="43.21317" lon="0.09186">
        <ele>329</ele>
        <time>2020-07-24T08:37:41Z</time>
      </trkpt>
      <trkpt lat="43.21322" lon="0.09185">
        <ele>328</ele>
        <time>2020-07-24T08:37:45Z</time>
      </trkpt>
      <trkpt lat="43.21352" lon="0.09183">
        <ele>328</ele>
        <time>2020-07-24T08:38:07Z</time>
      </trkpt>
      <trkpt lat="43.21372" lon="0.09186">
        <ele>329</ele>
        <time>2020-07-24T08:38:22Z</time>
      </trkpt>
      <trkpt lat="43.21383" lon="0.09194">
        <ele>329</ele>
        <time>2020-07-24T08:38:31Z</time>
      </trkpt>
      <trkpt lat="43.21388" lon="0.09194">
        <ele>329</ele>
        <time>2020-07-24T08:38:35Z</time>
      </trkpt>
      <trkpt lat="43.21399" lon="0.09192">
        <ele>328</ele>
        <time>2020-07-24T08:38:45Z</time>
      </trkpt>
      <trkpt lat="43.21404" lon="0.09194">
        <ele>328</ele>
        <time>2020-07-24T08:38:51Z</time>
      </trkpt>
      <trkpt lat="43.21409" lon="0.09193">
        <ele>327</ele>
        <time>2020-07-24T08:38:56Z</time>
      </trkpt>
      <trkpt lat="43.21423" lon="0.09195">
        <ele>326</ele>
        <time>2020-07-24T08:39:08Z</time>
      </trkpt>
      <trkpt lat="43.21432" lon="0.09201">
        <ele>326</ele>
        <time>2020-07-24T08:39:16Z</time>
      </trkpt>
      <trkpt lat="43.21446" lon="0.09208">
        <ele>326</ele>
        <time>2020-07-24T08:39:27Z</time>
      </trkpt>
      <trkpt lat="43.21458" lon="0.09219">
        <ele>326</ele>
        <time>2020-07-24T08:39:38Z</time>
      </trkpt>
      <trkpt lat="43.21474" lon="0.09237">
        <ele>326</ele>
        <time>2020-07-24T08:39:54Z</time>
      </trkpt>
      <trkpt lat="43.21492" lon="0.09252">
        <ele>326</ele>
        <time>2020-07-24T08:40:11Z</time>
      </trkpt>
      <trkpt lat="43.21503" lon="0.09258">
        <ele>326</ele>
        <time>2020-07-24T08:40:19Z</time>
      </trkpt>
      <trkpt lat="43.21507" lon="0.09263">
        <ele>325</ele>
        <time>2020-07-24T08:40:24Z</time>
      </trkpt>
      <trkpt lat="43.21529" lon="0.09273">
        <ele>326</ele>
        <time>2020-07-24T08:40:42Z</time>
      </trkpt>
      <trkpt lat="43.21536" lon="0.09282">
        <ele>326</ele>
        <time>2020-07-24T08:40:45Z</time>
      </trkpt>
      <trkpt lat="43.21539" lon="0.09289">
        <ele>326</ele>
        <time>2020-07-24T08:40:48Z</time>
      </trkpt>
      <trkpt lat="43.21577" lon="0.09328">
        <ele>326</ele>
        <time>2020-07-24T08:41:22Z</time>
      </trkpt>
      <trkpt lat="43.21598" lon="0.09343">
        <ele>326</ele>
        <time>2020-07-24T08:41:39Z</time>
      </trkpt>
      <trkpt lat="43.21613" lon="0.0935">
        <ele>327</ele>
        <time>2020-07-24T08:41:52Z</time>
      </trkpt>
      <trkpt lat="43.21618" lon="0.09351">
        <ele>327</ele>
        <time>2020-07-24T08:41:56Z</time>
      </trkpt>
      <trkpt lat="43.2166" lon="0.09384">
        <ele>325</ele>
        <time>2020-07-24T08:42:28Z</time>
      </trkpt>
      <trkpt lat="43.21664" lon="0.09388">
        <ele>325</ele>
        <time>2020-07-24T08:42:31Z</time>
      </trkpt>
      <trkpt lat="43.21684" lon="0.09395">
        <ele>325</ele>
        <time>2020-07-24T08:42:47Z</time>
      </trkpt>
      <trkpt lat="43.2169" lon="0.09396">
        <ele>326</ele>
        <time>2020-07-24T08:42:51Z</time>
      </trkpt>
      <trkpt lat="43.21694" lon="0.09397">
        <ele>326</ele>
        <time>2020-07-24T08:42:54Z</time>
      </trkpt>
      <trkpt lat="43.21704" lon="0.09398">
        <ele>326</ele>
        <time>2020-07-24T08:43:01Z</time>
      </trkpt>
      <trkpt lat="43.21729" lon="0.09404">
        <ele>326</ele>
        <time>2020-07-24T08:43:19Z</time>
      </trkpt>
      <trkpt lat="43.21755" lon="0.0941">
        <ele>327</ele>
        <time>2020-07-24T08:43:39Z</time>
      </trkpt>
      <trkpt lat="43.21799" lon="0.0941">
        <ele>327</ele>
        <time>2020-07-24T08:44:12Z</time>
      </trkpt>
      <trkpt lat="43.21814" lon="0.09413">
        <ele>327</ele>
        <time>2020-07-24T08:44:24Z</time>
      </trkpt>
      <trkpt lat="43.21824" lon="0.09418">
        <ele>327</ele>
        <time>2020-07-24T08:44:32Z</time>
      </trkpt>
      <trkpt lat="43.21855" lon="0.09418">
        <ele>326</ele>
        <time>2020-07-24T08:44:58Z</time>
      </trkpt>
      <trkpt lat="43.2186" lon="0.09416">
        <ele>326</ele>
        <time>2020-07-24T08:45:02Z</time>
      </trkpt>
      <trkpt lat="43.21869" lon="0.09414">
        <ele>325</ele>
        <time>2020-07-24T08:45:09Z</time>
      </trkpt>
      <trkpt lat="43.2191" lon="0.09422">
        <ele>324</ele>
        <time>2020-07-24T08:45:42Z</time>
      </trkpt>
      <trkpt lat="43.21925" lon="0.09424">
        <ele>323</ele>
        <time>2020-07-24T08:45:53Z</time>
      </trkpt>
      <trkpt lat="43.2193" lon="0.09423">
        <ele>323</ele>
        <time>2020-07-24T08:45:58Z</time>
      </trkpt>
      <trkpt lat="43.21944" lon="0.09426">
        <ele>322</ele>
        <time>2020-07-24T08:46:06Z</time>
      </trkpt>
      <trkpt lat="43.21965" lon="0.0942">
        <ele>322</ele>
        <time>2020-07-24T08:46:23Z</time>
      </trkpt>
      <trkpt lat="43.21975" lon="0.09416">
        <ele>321</ele>
        <time>2020-07-24T08:46:31Z</time>
      </trkpt>
      <trkpt lat="43.2199" lon="0.09414">
        <ele>321</ele>
        <time>2020-07-24T08:46:41Z</time>
      </trkpt>
      <trkpt lat="43.21995" lon="0.09412">
        <ele>321</ele>
        <time>2020-07-24T08:46:45Z</time>
      </trkpt>
      <trkpt lat="43.21999" lon="0.09411">
        <ele>321</ele>
        <time>2020-07-24T08:46:48Z</time>
      </trkpt>
      <trkpt lat="43.22004" lon="0.09408">
        <ele>321</ele>
        <time>2020-07-24T08:46:52Z</time>
      </trkpt>
      <trkpt lat="43.2202" lon="0.09403">
        <ele>321</ele>
        <time>2020-07-24T08:47:04Z</time>
      </trkpt>
      <trkpt lat="43.22029" lon="0.09396">
        <ele>321</ele>
        <time>2020-07-24T08:47:12Z</time>
      </trkpt>
      <trkpt lat="43.22055" lon="0.09382">
        <ele>321</ele>
        <time>2020-07-24T08:47:31Z</time>
      </trkpt>
      <trkpt lat="43.2206" lon="0.09378">
        <ele>321</ele>
        <time>2020-07-24T08:47:34Z</time>
      </trkpt>
      <trkpt lat="43.22064" lon="0.09376">
        <ele>321</ele>
        <time>2020-07-24T08:47:37Z</time>
      </trkpt>
      <trkpt lat="43.22081" lon="0.09364">
        <ele>320</ele>
        <time>2020-07-24T08:47:51Z</time>
      </trkpt>
      <trkpt lat="43.22094" lon="0.09359">
        <ele>320</ele>
        <time>2020-07-24T08:48:02Z</time>
      </trkpt>
      <trkpt lat="43.22099" lon="0.09359">
        <ele>320</ele>
        <time>2020-07-24T08:48:06Z</time>
      </trkpt>
      <trkpt lat="43.22109" lon="0.09352">
        <ele>319</ele>
        <time>2020-07-24T08:48:18Z</time>
      </trkpt>
      <trkpt lat="43.22113" lon="0.09349">
        <ele>319</ele>
        <time>2020-07-24T08:48:22Z</time>
      </trkpt>
      <trkpt lat="43.22126" lon="0.09348">
        <ele>319</ele>
        <time>2020-07-24T08:48:32Z</time>
      </trkpt>
      <trkpt lat="43.22144" lon="0.0933">
        <ele>320</ele>
        <time>2020-07-24T08:48:50Z</time>
      </trkpt>
      <trkpt lat="43.22168" lon="0.09317">
        <ele>319</ele>
        <time>2020-07-24T08:49:09Z</time>
      </trkpt>
      <trkpt lat="43.22173" lon="0.09317">
        <ele>319</ele>
        <time>2020-07-24T08:49:13Z</time>
      </trkpt>
      <trkpt lat="43.22196" lon="0.09306">
        <ele>319</ele>
        <time>2020-07-24T08:49:32Z</time>
      </trkpt>
      <trkpt lat="43.22202" lon="0.09306">
        <ele>319</ele>
        <time>2020-07-24T08:49:37Z</time>
      </trkpt>
      <trkpt lat="43.22207" lon="0.09303">
        <ele>319</ele>
        <time>2020-07-24T08:49:42Z</time>
      </trkpt>
      <trkpt lat="43.22217" lon="0.09297">
        <ele>319</ele>
        <time>2020-07-24T08:49:50Z</time>
      </trkpt>
      <trkpt lat="43.22223" lon="0.09296">
        <ele>319</ele>
        <time>2020-07-24T08:49:53Z</time>
      </trkpt>
      <trkpt lat="43.22252" lon="0.09285">
        <ele>319</ele>
        <time>2020-07-24T08:50:12Z</time>
      </trkpt>
      <trkpt lat="43.22256" lon="0.09281">
        <ele>319</ele>
        <time>2020-07-24T08:50:16Z</time>
      </trkpt>
      <trkpt lat="43.22282" lon="0.09274">
        <ele>319</ele>
        <time>2020-07-24T08:50:34Z</time>
      </trkpt>
      <trkpt lat="43.22295" lon="0.09266">
        <ele>319</ele>
        <time>2020-07-24T08:50:47Z</time>
      </trkpt>
      <trkpt lat="43.22311" lon="0.09268">
        <ele>319</ele>
        <time>2020-07-24T08:50:58Z</time>
      </trkpt>
      <trkpt lat="43.22326" lon="0.09265">
        <ele>320</ele>
        <time>2020-07-24T08:51:08Z</time>
      </trkpt>
      <trkpt lat="43.2233" lon="0.09266">
        <ele>320</ele>
        <time>2020-07-24T08:51:11Z</time>
      </trkpt>
      <trkpt lat="43.22339" lon="0.09276">
        <ele>320</ele>
        <time>2020-07-24T08:51:20Z</time>
      </trkpt>
      <trkpt lat="43.22342" lon="0.09277">
        <ele>320</ele>
        <time>2020-07-24T08:51:23Z</time>
      </trkpt>
      <trkpt lat="43.22347" lon="0.09276">
        <ele>321</ele>
        <time>2020-07-24T08:51:30Z</time>
      </trkpt>
      <trkpt lat="43.2235" lon="0.09273">
        <ele>321</ele>
        <time>2020-07-24T08:51:33Z</time>
      </trkpt>
      <trkpt lat="43.22357" lon="0.09265">
        <ele>321</ele>
        <time>2020-07-24T08:51:41Z</time>
      </trkpt>
      <trkpt lat="43.22353" lon="0.0927">
        <ele>321</ele>
        <time>2020-07-24T08:51:48Z</time>
      </trkpt>
      <trkpt lat="43.22351" lon="0.09264">
        <ele>321</ele>
        <time>2020-07-24T08:51:53Z</time>
      </trkpt>
      <trkpt lat="43.22349" lon="0.09258">
        <ele>321</ele>
        <time>2020-07-24T08:51:57Z</time>
      </trkpt>
      <trkpt lat="43.22345" lon="0.09247">
        <ele>321</ele>
        <time>2020-07-24T08:52:04Z</time>
      </trkpt>
      <trkpt lat="43.22343" lon="0.09243">
        <ele>321</ele>
        <time>2020-07-24T08:52:07Z</time>
      </trkpt>
      <trkpt lat="43.22342" lon="0.09236">
        <ele>320</ele>
        <time>2020-07-24T08:52:11Z</time>
      </trkpt>
      <trkpt lat="43.2232" lon="0.09189">
        <ele>320</ele>
        <time>2020-07-24T08:52:43Z</time>
      </trkpt>
      <trkpt lat="43.22328" lon="0.09188">
        <ele>320</ele>
        <time>2020-07-24T08:52:53Z</time>
      </trkpt>
      <trkpt lat="43.22333" lon="0.09187">
        <ele>319</ele>
        <time>2020-07-24T08:52:57Z</time>
      </trkpt>
      <trkpt lat="43.2235" lon="0.09177">
        <ele>319</ele>
        <time>2020-07-24T08:53:12Z</time>
      </trkpt>
      <trkpt lat="43.22356" lon="0.09178">
        <ele>319</ele>
        <time>2020-07-24T08:53:18Z</time>
      </trkpt>
      <trkpt lat="43.22365" lon="0.09169">
        <ele>319</ele>
        <time>2020-07-24T08:53:26Z</time>
      </trkpt>
      <trkpt lat="43.2237" lon="0.09167">
        <ele>319</ele>
        <time>2020-07-24T08:53:30Z</time>
      </trkpt>
      <trkpt lat="43.22386" lon="0.09161">
        <ele>317</ele>
        <time>2020-07-24T08:53:44Z</time>
      </trkpt>
      <trkpt lat="43.22397" lon="0.09162">
        <ele>317</ele>
        <time>2020-07-24T08:53:52Z</time>
      </trkpt>
      <trkpt lat="43.22402" lon="0.09164">
        <ele>317</ele>
        <time>2020-07-24T08:53:55Z</time>
      </trkpt>
      <trkpt lat="43.22433" lon="0.09159">
        <ele>317</ele>
        <time>2020-07-24T08:54:17Z</time>
      </trkpt>
      <trkpt lat="43.22443" lon="0.09155">
        <ele>317</ele>
        <time>2020-07-24T08:54:25Z</time>
      </trkpt>
      <trkpt lat="43.22453" lon="0.09153">
        <ele>317</ele>
        <time>2020-07-24T08:54:32Z</time>
      </trkpt>
      <trkpt lat="43.22477" lon="0.09139">
        <ele>317</ele>
        <time>2020-07-24T08:54:51Z</time>
      </trkpt>
      <trkpt lat="43.22487" lon="0.09136">
        <ele>317</ele>
        <time>2020-07-24T08:54:58Z</time>
      </trkpt>
      <trkpt lat="43.22509" lon="0.09123">
        <ele>317</ele>
        <time>2020-07-24T08:55:15Z</time>
      </trkpt>
      <trkpt lat="43.22538" lon="0.09112">
        <ele>317</ele>
        <time>2020-07-24T08:55:37Z</time>
      </trkpt>
      <trkpt lat="43.22551" lon="0.09105">
        <ele>317</ele>
        <time>2020-07-24T08:55:47Z</time>
      </trkpt>
      <trkpt lat="43.22556" lon="0.09105">
        <ele>317</ele>
        <time>2020-07-24T08:55:51Z</time>
      </trkpt>
      <trkpt lat="43.22565" lon="0.091">
        <ele>317</ele>
        <time>2020-07-24T08:55:58Z</time>
      </trkpt>
      <trkpt lat="43.22606" lon="0.09086">
        <ele>316</ele>
        <time>2020-07-24T08:56:29Z</time>
      </trkpt>
      <trkpt lat="43.22612" lon="0.09084">
        <ele>316</ele>
        <time>2020-07-24T08:56:32Z</time>
      </trkpt>
      <trkpt lat="43.22643" lon="0.09066">
        <ele>316</ele>
        <time>2020-07-24T08:56:57Z</time>
      </trkpt>
      <trkpt lat="43.22648" lon="0.09065">
        <ele>316</ele>
        <time>2020-07-24T08:57:00Z</time>
      </trkpt>
      <trkpt lat="43.22665" lon="0.09053">
        <ele>316</ele>
        <time>2020-07-24T08:57:14Z</time>
      </trkpt>
      <trkpt lat="43.2267" lon="0.09052">
        <ele>315</ele>
        <time>2020-07-24T08:57:18Z</time>
      </trkpt>
      <trkpt lat="43.22674" lon="0.0905">
        <ele>315</ele>
        <time>2020-07-24T08:57:22Z</time>
      </trkpt>
      <trkpt lat="43.22684" lon="0.09046">
        <ele>315</ele>
        <time>2020-07-24T08:57:30Z</time>
      </trkpt>
      <trkpt lat="43.22705" lon="0.09038">
        <ele>315</ele>
        <time>2020-07-24T08:57:45Z</time>
      </trkpt>
      <trkpt lat="43.22715" lon="0.09036">
        <ele>315</ele>
        <time>2020-07-24T08:57:53Z</time>
      </trkpt>
      <trkpt lat="43.22726" lon="0.09033">
        <ele>315</ele>
        <time>2020-07-24T08:58:01Z</time>
      </trkpt>
      <trkpt lat="43.22732" lon="0.09032">
        <ele>315</ele>
        <time>2020-07-24T08:58:04Z</time>
      </trkpt>
      <trkpt lat="43.22736" lon="0.0903">
        <ele>315</ele>
        <time>2020-07-24T08:58:07Z</time>
      </trkpt>
      <trkpt lat="43.2274" lon="0.09027">
        <ele>315</ele>
        <time>2020-07-24T08:58:11Z</time>
      </trkpt>
      <trkpt lat="43.22745" lon="0.09015">
        <ele>315</ele>
        <time>2020-07-24T08:58:20Z</time>
      </trkpt>
      <trkpt lat="43.2276" lon="0.09011">
        <ele>315</ele>
        <time>2020-07-24T08:58:29Z</time>
      </trkpt>
      <trkpt lat="43.22802" lon="0.09002">
        <ele>314</ele>
        <time>2020-07-24T08:59:00Z</time>
      </trkpt>
      <trkpt lat="43.22819" lon="0.08994">
        <ele>314</ele>
        <time>2020-07-24T08:59:12Z</time>
      </trkpt>
      <trkpt lat="43.22833" lon="0.08994">
        <ele>314</ele>
        <time>2020-07-24T08:59:23Z</time>
      </trkpt>
      <trkpt lat="43.22837" lon="0.08991">
        <ele>314</ele>
        <time>2020-07-24T08:59:26Z</time>
      </trkpt>
      <trkpt lat="43.2285" lon="0.08987">
        <ele>314</ele>
        <time>2020-07-24T08:59:35Z</time>
      </trkpt>
      <trkpt lat="43.2287" lon="0.08987">
        <ele>314</ele>
        <time>2020-07-24T08:59:51Z</time>
      </trkpt>
      <trkpt lat="43.22875" lon="0.08985">
        <ele>314</ele>
        <time>2020-07-24T08:59:54Z</time>
      </trkpt>
      <trkpt lat="43.2288" lon="0.08984">
        <ele>314</ele>
        <time>2020-07-24T08:59:59Z</time>
      </trkpt>
      <trkpt lat="43.22888" lon="0.08987">
        <ele>314</ele>
        <time>2020-07-24T09:00:07Z</time>
      </trkpt>
      <trkpt lat="43.229" lon="0.08974">
        <ele>314</ele>
        <time>2020-07-24T09:00:14Z</time>
      </trkpt>
      <trkpt lat="43.22931" lon="0.08956">
        <ele>314</ele>
        <time>2020-07-24T09:00:40Z</time>
      </trkpt>
      <trkpt lat="43.22937" lon="0.08946">
        <ele>313</ele>
        <time>2020-07-24T09:00:47Z</time>
      </trkpt>
      <trkpt lat="43.22948" lon="0.08933">
        <ele>313</ele>
        <time>2020-07-24T09:00:58Z</time>
      </trkpt>
      <trkpt lat="43.22954" lon="0.08931">
        <ele>313</ele>
        <time>2020-07-24T09:01:02Z</time>
      </trkpt>
      <trkpt lat="43.2299" lon="0.08901">
        <ele>313</ele>
        <time>2020-07-24T09:01:34Z</time>
      </trkpt>
      <trkpt lat="43.22998" lon="0.08893">
        <ele>313</ele>
        <time>2020-07-24T09:01:42Z</time>
      </trkpt>
      <trkpt lat="43.2302" lon="0.08885">
        <ele>313</ele>
        <time>2020-07-24T09:01:59Z</time>
      </trkpt>
      <trkpt lat="43.23027" lon="0.08878">
        <ele>313</ele>
        <time>2020-07-24T09:02:05Z</time>
      </trkpt>
      <trkpt lat="43.23032" lon="0.08876">
        <ele>313</ele>
        <time>2020-07-24T09:02:08Z</time>
      </trkpt>
      <trkpt lat="43.23035" lon="0.0887">
        <ele>313</ele>
        <time>2020-07-24T09:02:12Z</time>
      </trkpt>
      <trkpt lat="43.23036" lon="0.08864">
        <ele>314</ele>
        <time>2020-07-24T09:02:22Z</time>
      </trkpt>
      <trkpt lat="43.23048" lon="0.08861">
        <ele>314</ele>
        <time>2020-07-24T09:02:32Z</time>
      </trkpt>
      <trkpt lat="43.23061" lon="0.08864">
        <ele>314</ele>
        <time>2020-07-24T09:02:46Z</time>
      </trkpt>
      <trkpt lat="43.23067" lon="0.0886">
        <ele>314</ele>
        <time>2020-07-24T09:02:50Z</time>
      </trkpt>
      <trkpt lat="43.23069" lon="0.08853">
        <ele>313</ele>
        <time>2020-07-24T09:02:53Z</time>
      </trkpt>
      <trkpt lat="43.23073" lon="0.08849">
        <ele>313</ele>
        <time>2020-07-24T09:02:56Z</time>
      </trkpt>
      <trkpt lat="43.23076" lon="0.08841">
        <ele>313</ele>
        <time>2020-07-24T09:03:00Z</time>
      </trkpt>
      <trkpt lat="43.23088" lon="0.08828">
        <ele>313</ele>
        <time>2020-07-24T09:03:09Z</time>
      </trkpt>
      <trkpt lat="43.23102" lon="0.0882">
        <ele>313</ele>
        <time>2020-07-24T09:03:21Z</time>
      </trkpt>
      <trkpt lat="43.23107" lon="0.08807">
        <ele>314</ele>
        <time>2020-07-24T09:03:33Z</time>
      </trkpt>
      <trkpt lat="43.23109" lon="0.088">
        <ele>314</ele>
        <time>2020-07-24T09:03:37Z</time>
      </trkpt>
      <trkpt lat="43.23111" lon="0.08789">
        <ele>313</ele>
        <time>2020-07-24T09:03:47Z</time>
      </trkpt>
      <trkpt lat="43.23117" lon="0.08778">
        <ele>314</ele>
        <time>2020-07-24T09:03:53Z</time>
      </trkpt>
      <trkpt lat="43.2312" lon="0.08773">
        <ele>314</ele>
        <time>2020-07-24T09:03:57Z</time>
      </trkpt>
      <trkpt lat="43.23125" lon="0.08774">
        <ele>314</ele>
        <time>2020-07-24T09:04:05Z</time>
      </trkpt>
      <trkpt lat="43.23129" lon="0.08769">
        <ele>314</ele>
        <time>2020-07-24T09:04:11Z</time>
      </trkpt>
      <trkpt lat="43.23132" lon="0.08765">
        <ele>314</ele>
        <time>2020-07-24T09:04:14Z</time>
      </trkpt>
      <trkpt lat="43.23141" lon="0.08762">
        <ele>314</ele>
        <time>2020-07-24T09:04:21Z</time>
      </trkpt>
      <trkpt lat="43.23146" lon="0.08762">
        <ele>314</ele>
        <time>2020-07-24T09:04:25Z</time>
      </trkpt>
      <trkpt lat="43.2315" lon="0.0876">
        <ele>314</ele>
        <time>2020-07-24T09:04:28Z</time>
      </trkpt>
      <trkpt lat="43.23155" lon="0.08757">
        <ele>314</ele>
        <time>2020-07-24T09:04:32Z</time>
      </trkpt>
      <trkpt lat="43.23158" lon="0.08751">
        <ele>314</ele>
        <time>2020-07-24T09:04:36Z</time>
      </trkpt>
      <trkpt lat="43.23162" lon="0.08749">
        <ele>314</ele>
        <time>2020-07-24T09:04:39Z</time>
      </trkpt>
      <trkpt lat="43.2317" lon="0.08745">
        <ele>314</ele>
        <time>2020-07-24T09:04:47Z</time>
      </trkpt>
      <trkpt lat="43.23172" lon="0.08731">
        <ele>314</ele>
        <time>2020-07-24T09:04:54Z</time>
      </trkpt>
      <trkpt lat="43.23184" lon="0.08742">
        <ele>315</ele>
        <time>2020-07-24T09:05:09Z</time>
      </trkpt>
      <trkpt lat="43.23196" lon="0.08742">
        <ele>315</ele>
        <time>2020-07-24T09:05:15Z</time>
      </trkpt>
      <trkpt lat="43.23202" lon="0.0874">
        <ele>315</ele>
        <time>2020-07-24T09:05:19Z</time>
      </trkpt>
      <trkpt lat="43.23207" lon="0.08736">
        <ele>316</ele>
        <time>2020-07-24T09:05:24Z</time>
      </trkpt>
      <trkpt lat="43.23209" lon="0.0873">
        <ele>316</ele>
        <time>2020-07-24T09:05:28Z</time>
      </trkpt>
      <trkpt lat="43.23212" lon="0.08695">
        <ele>315</ele>
        <time>2020-07-24T09:05:46Z</time>
      </trkpt>
      <trkpt lat="43.23205" lon="0.0868">
        <ele>315</ele>
        <time>2020-07-24T09:05:56Z</time>
      </trkpt>
      <trkpt lat="43.23207" lon="0.08671">
        <ele>314</ele>
        <time>2020-07-24T09:06:00Z</time>
      </trkpt>
      <trkpt lat="43.23196" lon="0.0862">
        <ele>314</ele>
        <time>2020-07-24T09:06:33Z</time>
      </trkpt>
      <trkpt lat="43.23193" lon="0.08602">
        <ele>314</ele>
        <time>2020-07-24T09:06:43Z</time>
      </trkpt>
      <trkpt lat="43.23194" lon="0.08594">
        <ele>314</ele>
        <time>2020-07-24T09:06:47Z</time>
      </trkpt>
      <trkpt lat="43.23192" lon="0.08586">
        <ele>314</ele>
        <time>2020-07-24T09:06:52Z</time>
      </trkpt>
      <trkpt lat="43.23193" lon="0.08579">
        <ele>314</ele>
        <time>2020-07-24T09:06:56Z</time>
      </trkpt>
      <trkpt lat="43.23191" lon="0.08572">
        <ele>314</ele>
        <time>2020-07-24T09:07:00Z</time>
      </trkpt>
      <trkpt lat="43.23179" lon="0.08558">
        <ele>314</ele>
        <time>2020-07-24T09:07:11Z</time>
      </trkpt>
      <trkpt lat="43.23173" lon="0.08555">
        <ele>314</ele>
        <time>2020-07-24T09:07:14Z</time>
      </trkpt>
      <trkpt lat="43.23172" lon="0.08548">
        <ele>314</ele>
        <time>2020-07-24T09:07:19Z</time>
      </trkpt>
      <trkpt lat="43.23169" lon="0.0854">
        <ele>314</ele>
        <time>2020-07-24T09:07:23Z</time>
      </trkpt>
      <trkpt lat="43.23171" lon="0.08532">
        <ele>314</ele>
        <time>2020-07-24T09:07:27Z</time>
      </trkpt>
      <trkpt lat="43.23171" lon="0.08524">
        <ele>314</ele>
        <time>2020-07-24T09:07:31Z</time>
      </trkpt>
      <trkpt lat="43.23169" lon="0.08517">
        <ele>314</ele>
        <time>2020-07-24T09:07:35Z</time>
      </trkpt>
      <trkpt lat="43.23168" lon="0.08509">
        <ele>314</ele>
        <time>2020-07-24T09:07:39Z</time>
      </trkpt>
      <trkpt lat="43.23171" lon="0.08502">
        <ele>314</ele>
        <time>2020-07-24T09:07:43Z</time>
      </trkpt>
      <trkpt lat="43.23168" lon="0.08495">
        <ele>314</ele>
        <time>2020-07-24T09:07:47Z</time>
      </trkpt>
      <trkpt lat="43.23159" lon="0.08489">
        <ele>314</ele>
        <time>2020-07-24T09:07:52Z</time>
      </trkpt>
      <trkpt lat="43.23159" lon="0.08454">
        <ele>314</ele>
        <time>2020-07-24T09:08:21Z</time>
      </trkpt>
      <trkpt lat="43.23157" lon="0.08434">
        <ele>313</ele>
        <time>2020-07-24T09:08:33Z</time>
      </trkpt>
      <trkpt lat="43.23158" lon="0.0841">
        <ele>313</ele>
        <time>2020-07-24T09:08:45Z</time>
      </trkpt>
      <trkpt lat="43.23171" lon="0.08349">
        <ele>314</ele>
        <time>2020-07-24T09:09:17Z</time>
      </trkpt>
      <trkpt lat="43.23172" lon="0.08342">
        <ele>314</ele>
        <time>2020-07-24T09:09:21Z</time>
      </trkpt>
      <trkpt lat="43.23176" lon="0.08337">
        <ele>314</ele>
        <time>2020-07-24T09:09:26Z</time>
      </trkpt>
      <trkpt lat="43.23178" lon="0.0833">
        <ele>314</ele>
        <time>2020-07-24T09:09:30Z</time>
      </trkpt>
      <trkpt lat="43.23176" lon="0.08323">
        <ele>314</ele>
        <time>2020-07-24T09:09:35Z</time>
      </trkpt>
      <trkpt lat="43.23178" lon="0.08311">
        <ele>314</ele>
        <time>2020-07-24T09:09:45Z</time>
      </trkpt>
      <trkpt lat="43.2318" lon="0.08291">
        <ele>315</ele>
        <time>2020-07-24T09:09:56Z</time>
      </trkpt>
      <trkpt lat="43.23184" lon="0.08274">
        <ele>315</ele>
        <time>2020-07-24T09:10:04Z</time>
      </trkpt>
      <trkpt lat="43.23185" lon="0.08265">
        <ele>315</ele>
        <time>2020-07-24T09:10:08Z</time>
      </trkpt>
      <trkpt lat="43.23189" lon="0.08248">
        <ele>314</ele>
        <time>2020-07-24T09:10:15Z</time>
      </trkpt>
      <trkpt lat="43.23192" lon="0.08242">
        <ele>314</ele>
        <time>2020-07-24T09:10:19Z</time>
      </trkpt>
      <trkpt lat="43.23195" lon="0.0823">
        <ele>314</ele>
        <time>2020-07-24T09:10:29Z</time>
      </trkpt>
      <trkpt lat="43.232" lon="0.08222">
        <ele>315</ele>
        <time>2020-07-24T09:10:35Z</time>
      </trkpt>
      <trkpt lat="43.23204" lon="0.08212">
        <ele>315</ele>
        <time>2020-07-24T09:10:41Z</time>
      </trkpt>
      <trkpt lat="43.23205" lon="0.08201">
        <ele>314</ele>
        <time>2020-07-24T09:10:48Z</time>
      </trkpt>
      <trkpt lat="43.2321" lon="0.08193">
        <ele>314</ele>
        <time>2020-07-24T09:10:54Z</time>
      </trkpt>
      <trkpt lat="43.23215" lon="0.08186">
        <ele>314</ele>
        <time>2020-07-24T09:11:00Z</time>
      </trkpt>
      <trkpt lat="43.23221" lon="0.08182">
        <ele>314</ele>
        <time>2020-07-24T09:11:03Z</time>
      </trkpt>
      <trkpt lat="43.23228" lon="0.08182">
        <ele>314</ele>
        <time>2020-07-24T09:11:06Z</time>
      </trkpt>
      <trkpt lat="43.23248" lon="0.08188">
        <ele>314</ele>
        <time>2020-07-24T09:11:17Z</time>
      </trkpt>
      <trkpt lat="43.23258" lon="0.08184">
        <ele>313</ele>
        <time>2020-07-24T09:11:25Z</time>
      </trkpt>
      <trkpt lat="43.23265" lon="0.08185">
        <ele>313</ele>
        <time>2020-07-24T09:11:30Z</time>
      </trkpt>
      <trkpt lat="43.23271" lon="0.08185">
        <ele>313</ele>
        <time>2020-07-24T09:11:35Z</time>
      </trkpt>
      <trkpt lat="43.23284" lon="0.08185">
        <ele>313</ele>
        <time>2020-07-24T09:11:44Z</time>
      </trkpt>
      <trkpt lat="43.23303" lon="0.08192">
        <ele>314</ele>
        <time>2020-07-24T09:11:57Z</time>
      </trkpt>
      <trkpt lat="43.23308" lon="0.08196">
        <ele>314</ele>
        <time>2020-07-24T09:12:03Z</time>
      </trkpt>
      <trkpt lat="43.23313" lon="0.08202">
        <ele>313</ele>
        <time>2020-07-24T09:12:08Z</time>
      </trkpt>
      <trkpt lat="43.23315" lon="0.08207">
        <ele>313</ele>
        <time>2020-07-24T09:12:12Z</time>
      </trkpt>
      <trkpt lat="43.23324" lon="0.08207">
        <ele>313</ele>
        <time>2020-07-24T09:12:21Z</time>
      </trkpt>
      <trkpt lat="43.23327" lon="0.08214">
        <ele>313</ele>
        <time>2020-07-24T09:12:24Z</time>
      </trkpt>
      <trkpt lat="43.23331" lon="0.08219">
        <ele>313</ele>
        <time>2020-07-24T09:12:27Z</time>
      </trkpt>
      <trkpt lat="43.23336" lon="0.08216">
        <ele>313</ele>
        <time>2020-07-24T09:12:35Z</time>
      </trkpt>
      <trkpt lat="43.2334" lon="0.08215">
        <ele>313</ele>
        <time>2020-07-24T09:12:42Z</time>
      </trkpt>
      <trkpt lat="43.2335" lon="0.08209">
        <ele>313</ele>
        <time>2020-07-24T09:12:48Z</time>
      </trkpt>
      <trkpt lat="43.23357" lon="0.08212">
        <ele>313</ele>
        <time>2020-07-24T09:12:53Z</time>
      </trkpt>
      <trkpt lat="43.23368" lon="0.08219">
        <ele>313</ele>
        <time>2020-07-24T09:13:01Z</time>
      </trkpt>
      <trkpt lat="43.23388" lon="0.08226">
        <ele>313</ele>
        <time>2020-07-24T09:13:16Z</time>
      </trkpt>
      <trkpt lat="43.23399" lon="0.08222">
        <ele>313</ele>
        <time>2020-07-24T09:13:25Z</time>
      </trkpt>
      <trkpt lat="43.23403" lon="0.08216">
        <ele>313</ele>
        <time>2020-07-24T09:13:29Z</time>
      </trkpt>
      <trkpt lat="43.23403" lon="0.08206">
        <ele>313</ele>
        <time>2020-07-24T09:13:32Z</time>
      </trkpt>
      <trkpt lat="43.23402" lon="0.08198">
        <ele>314</ele>
        <time>2020-07-24T09:13:34Z</time>
      </trkpt>
      <trkpt lat="43.23402" lon="0.08169">
        <ele>313</ele>
        <time>2020-07-24T09:13:42Z</time>
      </trkpt>
      <trkpt lat="43.23402" lon="0.08163">
        <ele>313</ele>
        <time>2020-07-24T09:13:48Z</time>
      </trkpt>
    </trkseg>
  </trk>
</gpx>